<?xml version="1.0" encoding="UTF-8" standalone="no" ?>
<gpx xmlns="http://www.topografix.com/GPX/1/1" xmlns:xsi="http://www.w3.org/2001/XMLSchema-instance" xsi:schemaLocation="http://www.topografix.com/GPX/1/1 http://www.topografix.com/GPX/1/1/gpx.xsd" version="1.1" creator="VisuGPX - https://www.visugpx.com">
  <metadata>
    <name>83 - L - Tourtour </name>
    <desc><![CDATA[83 - L - Tourtour : les Moulières - Valugène 
2023-12-18]]></desc>
  </metadata>
  <trk>
    <name><![CDATA[Tourtour - les Moulières - Valugène 2023-12-18-01]]></name>
    <trkseg>
      <trkpt lat="43.59452" lon="6.30405">
        <ele>734.3</ele>
        <time>2023-12-18T08:04:03Z</time>
      </trkpt>
      <trkpt lat="43.59452" lon="6.30405">
        <ele>734.3</ele>
        <time>2023-12-18T08:04:04Z</time>
      </trkpt>
      <trkpt lat="43.59447" lon="6.30416">
        <ele>734.2</ele>
        <time>2023-12-18T08:06:52Z</time>
      </trkpt>
      <trkpt lat="43.59449" lon="6.30429">
        <ele>734.2</ele>
        <time>2023-12-18T08:08:57Z</time>
      </trkpt>
      <trkpt lat="43.59453" lon="6.3044">
        <ele>734.6</ele>
        <time>2023-12-18T08:09:13Z</time>
      </trkpt>
      <trkpt lat="43.59462" lon="6.30446">
        <ele>735.1</ele>
        <time>2023-12-18T08:09:23Z</time>
      </trkpt>
      <trkpt lat="43.5947" lon="6.30453">
        <ele>735.1</ele>
        <time>2023-12-18T08:09:34Z</time>
      </trkpt>
      <trkpt lat="43.59478" lon="6.30458">
        <ele>735.3</ele>
        <time>2023-12-18T08:09:44Z</time>
      </trkpt>
      <trkpt lat="43.59487" lon="6.30462">
        <ele>736.2</ele>
        <time>2023-12-18T08:09:54Z</time>
      </trkpt>
      <trkpt lat="43.59496" lon="6.30467">
        <ele>737.2</ele>
        <time>2023-12-18T08:10:03Z</time>
      </trkpt>
      <trkpt lat="43.59504" lon="6.30472">
        <ele>737.6</ele>
        <time>2023-12-18T08:10:12Z</time>
      </trkpt>
      <trkpt lat="43.59514" lon="6.30476">
        <ele>738.2</ele>
        <time>2023-12-18T08:10:21Z</time>
      </trkpt>
      <trkpt lat="43.59523" lon="6.30475">
        <ele>738.8</ele>
        <time>2023-12-18T08:10:30Z</time>
      </trkpt>
      <trkpt lat="43.59533" lon="6.30471">
        <ele>739.3</ele>
        <time>2023-12-18T08:10:39Z</time>
      </trkpt>
      <trkpt lat="43.59542" lon="6.30474">
        <ele>740.2</ele>
        <time>2023-12-18T08:10:48Z</time>
      </trkpt>
      <trkpt lat="43.59551" lon="6.30475">
        <ele>740.5</ele>
        <time>2023-12-18T08:10:57Z</time>
      </trkpt>
      <trkpt lat="43.5956" lon="6.30474">
        <ele>740.5</ele>
        <time>2023-12-18T08:11:08Z</time>
      </trkpt>
      <trkpt lat="43.5957" lon="6.30473">
        <ele>742.1</ele>
        <time>2023-12-18T08:11:17Z</time>
      </trkpt>
      <trkpt lat="43.59579" lon="6.30476">
        <ele>743</ele>
        <time>2023-12-18T08:11:25Z</time>
      </trkpt>
      <trkpt lat="43.59588" lon="6.30482">
        <ele>743.6</ele>
        <time>2023-12-18T08:11:34Z</time>
      </trkpt>
      <trkpt lat="43.59596" lon="6.30485">
        <ele>744.7</ele>
        <time>2023-12-18T08:11:42Z</time>
      </trkpt>
      <trkpt lat="43.59606" lon="6.30485">
        <ele>745.9</ele>
        <time>2023-12-18T08:11:54Z</time>
      </trkpt>
      <trkpt lat="43.59615" lon="6.30489">
        <ele>747.7</ele>
        <time>2023-12-18T08:12:05Z</time>
      </trkpt>
      <trkpt lat="43.59618" lon="6.30502">
        <ele>748.4</ele>
        <time>2023-12-18T08:12:14Z</time>
      </trkpt>
      <trkpt lat="43.59619" lon="6.30514">
        <ele>750.5</ele>
        <time>2023-12-18T08:12:46Z</time>
      </trkpt>
      <trkpt lat="43.59613" lon="6.30524">
        <ele>751.8</ele>
        <time>2023-12-18T08:13:02Z</time>
      </trkpt>
      <trkpt lat="43.59615" lon="6.30537">
        <ele>751.8</ele>
        <time>2023-12-18T08:13:13Z</time>
      </trkpt>
      <trkpt lat="43.59623" lon="6.30542">
        <ele>752.9</ele>
        <time>2023-12-18T08:13:26Z</time>
      </trkpt>
      <trkpt lat="43.59633" lon="6.30542">
        <ele>754.1</ele>
        <time>2023-12-18T08:13:42Z</time>
      </trkpt>
      <trkpt lat="43.59642" lon="6.30543">
        <ele>754.5</ele>
        <time>2023-12-18T08:13:56Z</time>
      </trkpt>
      <trkpt lat="43.59651" lon="6.30545">
        <ele>755.1</ele>
        <time>2023-12-18T08:14:09Z</time>
      </trkpt>
      <trkpt lat="43.59661" lon="6.30545">
        <ele>756</ele>
        <time>2023-12-18T08:14:20Z</time>
      </trkpt>
      <trkpt lat="43.5967" lon="6.30544">
        <ele>756.5</ele>
        <time>2023-12-18T08:14:28Z</time>
      </trkpt>
      <trkpt lat="43.59679" lon="6.30538">
        <ele>754.5</ele>
        <time>2023-12-18T08:14:40Z</time>
      </trkpt>
      <trkpt lat="43.59688" lon="6.30535">
        <ele>757.8</ele>
        <time>2023-12-18T08:14:47Z</time>
      </trkpt>
      <trkpt lat="43.59698" lon="6.30535">
        <ele>759.3</ele>
        <time>2023-12-18T08:14:55Z</time>
      </trkpt>
      <trkpt lat="43.59707" lon="6.30536">
        <ele>759.3</ele>
        <time>2023-12-18T08:15:05Z</time>
      </trkpt>
      <trkpt lat="43.59717" lon="6.30533">
        <ele>759.7</ele>
        <time>2023-12-18T08:15:14Z</time>
      </trkpt>
      <trkpt lat="43.59726" lon="6.30528">
        <ele>760.4</ele>
        <time>2023-12-18T08:15:23Z</time>
      </trkpt>
      <trkpt lat="43.59735" lon="6.30523">
        <ele>760.9</ele>
        <time>2023-12-18T08:15:35Z</time>
      </trkpt>
      <trkpt lat="43.59745" lon="6.30523">
        <ele>762.2</ele>
        <time>2023-12-18T08:15:51Z</time>
      </trkpt>
      <trkpt lat="43.59754" lon="6.3052">
        <ele>762</ele>
        <time>2023-12-18T08:16:03Z</time>
      </trkpt>
      <trkpt lat="43.59764" lon="6.30517">
        <ele>762.7</ele>
        <time>2023-12-18T08:16:12Z</time>
      </trkpt>
      <trkpt lat="43.59773" lon="6.30513">
        <ele>763.7</ele>
        <time>2023-12-18T08:16:23Z</time>
      </trkpt>
      <trkpt lat="43.59783" lon="6.30511">
        <ele>764.1</ele>
        <time>2023-12-18T08:16:31Z</time>
      </trkpt>
      <trkpt lat="43.59793" lon="6.30508">
        <ele>764.5</ele>
        <time>2023-12-18T08:16:39Z</time>
      </trkpt>
      <trkpt lat="43.59802" lon="6.30503">
        <ele>764.1</ele>
        <time>2023-12-18T08:16:47Z</time>
      </trkpt>
      <trkpt lat="43.59811" lon="6.30499">
        <ele>763.4</ele>
        <time>2023-12-18T08:16:56Z</time>
      </trkpt>
      <trkpt lat="43.5982" lon="6.30495">
        <ele>765.7</ele>
        <time>2023-12-18T08:17:05Z</time>
      </trkpt>
      <trkpt lat="43.59829" lon="6.3049">
        <ele>765.8</ele>
        <time>2023-12-18T08:17:15Z</time>
      </trkpt>
      <trkpt lat="43.59838" lon="6.30487">
        <ele>766.9</ele>
        <time>2023-12-18T08:17:25Z</time>
      </trkpt>
      <trkpt lat="43.59847" lon="6.30481">
        <ele>767.5</ele>
        <time>2023-12-18T08:17:35Z</time>
      </trkpt>
      <trkpt lat="43.59857" lon="6.30479">
        <ele>767.5</ele>
        <time>2023-12-18T08:17:45Z</time>
      </trkpt>
      <trkpt lat="43.59866" lon="6.30478">
        <ele>769.3</ele>
        <time>2023-12-18T08:17:54Z</time>
      </trkpt>
      <trkpt lat="43.59875" lon="6.30478">
        <ele>770.5</ele>
        <time>2023-12-18T08:18:03Z</time>
      </trkpt>
      <trkpt lat="43.59884" lon="6.30478">
        <ele>771.3</ele>
        <time>2023-12-18T08:18:12Z</time>
      </trkpt>
      <trkpt lat="43.59893" lon="6.30479">
        <ele>773.5</ele>
        <time>2023-12-18T08:18:22Z</time>
      </trkpt>
      <trkpt lat="43.59902" lon="6.30478">
        <ele>771.6</ele>
        <time>2023-12-18T08:18:34Z</time>
      </trkpt>
      <trkpt lat="43.59912" lon="6.30476">
        <ele>773.4</ele>
        <time>2023-12-18T08:18:43Z</time>
      </trkpt>
      <trkpt lat="43.59921" lon="6.30475">
        <ele>773.8</ele>
        <time>2023-12-18T08:18:51Z</time>
      </trkpt>
      <trkpt lat="43.59931" lon="6.30473">
        <ele>774.2</ele>
        <time>2023-12-18T08:19:01Z</time>
      </trkpt>
      <trkpt lat="43.5994" lon="6.30472">
        <ele>774.4</ele>
        <time>2023-12-18T08:19:10Z</time>
      </trkpt>
      <trkpt lat="43.59949" lon="6.30469">
        <ele>775.5</ele>
        <time>2023-12-18T08:19:19Z</time>
      </trkpt>
      <trkpt lat="43.59958" lon="6.30467">
        <ele>775.5</ele>
        <time>2023-12-18T08:19:28Z</time>
      </trkpt>
      <trkpt lat="43.59968" lon="6.30465">
        <ele>775.6</ele>
        <time>2023-12-18T08:19:38Z</time>
      </trkpt>
      <trkpt lat="43.59977" lon="6.30464">
        <ele>777.6</ele>
        <time>2023-12-18T08:19:50Z</time>
      </trkpt>
      <trkpt lat="43.59981" lon="6.30475">
        <ele>778.8</ele>
        <time>2023-12-18T08:20:14Z</time>
      </trkpt>
      <trkpt lat="43.59981" lon="6.30488">
        <ele>781</ele>
        <time>2023-12-18T08:20:40Z</time>
      </trkpt>
      <trkpt lat="43.59989" lon="6.30482">
        <ele>781</ele>
        <time>2023-12-18T08:21:45Z</time>
      </trkpt>
      <trkpt lat="43.59998" lon="6.30481">
        <ele>783.3</ele>
        <time>2023-12-18T08:22:14Z</time>
      </trkpt>
      <trkpt lat="43.60008" lon="6.30482">
        <ele>783.7</ele>
        <time>2023-12-18T08:22:24Z</time>
      </trkpt>
      <trkpt lat="43.60018" lon="6.30479">
        <ele>785.2</ele>
        <time>2023-12-18T08:22:39Z</time>
      </trkpt>
      <trkpt lat="43.60026" lon="6.30474">
        <ele>787.5</ele>
        <time>2023-12-18T08:22:56Z</time>
      </trkpt>
      <trkpt lat="43.60036" lon="6.30472">
        <ele>788</ele>
        <time>2023-12-18T08:23:21Z</time>
      </trkpt>
      <trkpt lat="43.60045" lon="6.30475">
        <ele>789.6</ele>
        <time>2023-12-18T08:23:36Z</time>
      </trkpt>
      <trkpt lat="43.60053" lon="6.3048">
        <ele>790.8</ele>
        <time>2023-12-18T08:23:44Z</time>
      </trkpt>
      <trkpt lat="43.60058" lon="6.30491">
        <ele>792.4</ele>
        <time>2023-12-18T08:24:01Z</time>
      </trkpt>
      <trkpt lat="43.60056" lon="6.30504">
        <ele>793.2</ele>
        <time>2023-12-18T08:24:35Z</time>
      </trkpt>
      <trkpt lat="43.60048" lon="6.3051">
        <ele>793.7</ele>
        <time>2023-12-18T08:24:45Z</time>
      </trkpt>
      <trkpt lat="43.6004" lon="6.30517">
        <ele>795</ele>
        <time>2023-12-18T08:24:56Z</time>
      </trkpt>
      <trkpt lat="43.60033" lon="6.30527">
        <ele>795.7</ele>
        <time>2023-12-18T08:25:08Z</time>
      </trkpt>
      <trkpt lat="43.60028" lon="6.30537">
        <ele>796.4</ele>
        <time>2023-12-18T08:25:19Z</time>
      </trkpt>
      <trkpt lat="43.60024" lon="6.3055">
        <ele>797.1</ele>
        <time>2023-12-18T08:25:30Z</time>
      </trkpt>
      <trkpt lat="43.6002" lon="6.30562">
        <ele>797.7</ele>
        <time>2023-12-18T08:25:39Z</time>
      </trkpt>
      <trkpt lat="43.60017" lon="6.30573">
        <ele>798.6</ele>
        <time>2023-12-18T08:26:00Z</time>
      </trkpt>
      <trkpt lat="43.6001" lon="6.30585">
        <ele>799.9</ele>
        <time>2023-12-18T08:26:10Z</time>
      </trkpt>
      <trkpt lat="43.60006" lon="6.30596">
        <ele>799.3</ele>
        <time>2023-12-18T08:26:20Z</time>
      </trkpt>
      <trkpt lat="43.60003" lon="6.30609">
        <ele>799.3</ele>
        <time>2023-12-18T08:26:29Z</time>
      </trkpt>
      <trkpt lat="43.6" lon="6.30621">
        <ele>799.1</ele>
        <time>2023-12-18T08:26:42Z</time>
      </trkpt>
      <trkpt lat="43.59997" lon="6.30633">
        <ele>798.6</ele>
        <time>2023-12-18T08:26:51Z</time>
      </trkpt>
      <trkpt lat="43.59994" lon="6.30646">
        <ele>798.5</ele>
        <time>2023-12-18T08:27:01Z</time>
      </trkpt>
      <trkpt lat="43.59993" lon="6.30658">
        <ele>798.5</ele>
        <time>2023-12-18T08:27:10Z</time>
      </trkpt>
      <trkpt lat="43.5999" lon="6.30671">
        <ele>799.4</ele>
        <time>2023-12-18T08:27:26Z</time>
      </trkpt>
      <trkpt lat="43.59987" lon="6.30683">
        <ele>798.3</ele>
        <time>2023-12-18T08:27:34Z</time>
      </trkpt>
      <trkpt lat="43.59982" lon="6.30694">
        <ele>798.8</ele>
        <time>2023-12-18T08:27:42Z</time>
      </trkpt>
      <trkpt lat="43.5998" lon="6.30707">
        <ele>798.8</ele>
        <time>2023-12-18T08:27:54Z</time>
      </trkpt>
      <trkpt lat="43.59975" lon="6.30717">
        <ele>798.3</ele>
        <time>2023-12-18T08:28:01Z</time>
      </trkpt>
      <trkpt lat="43.59969" lon="6.30728">
        <ele>798.9</ele>
        <time>2023-12-18T08:28:09Z</time>
      </trkpt>
      <trkpt lat="43.59969" lon="6.30741">
        <ele>799.9</ele>
        <time>2023-12-18T08:28:17Z</time>
      </trkpt>
      <trkpt lat="43.59965" lon="6.30753">
        <ele>799.3</ele>
        <time>2023-12-18T08:28:24Z</time>
      </trkpt>
      <trkpt lat="43.59963" lon="6.30765">
        <ele>797.9</ele>
        <time>2023-12-18T08:28:35Z</time>
      </trkpt>
      <trkpt lat="43.59962" lon="6.30778">
        <ele>797.5</ele>
        <time>2023-12-18T08:28:45Z</time>
      </trkpt>
      <trkpt lat="43.59956" lon="6.3079">
        <ele>796.3</ele>
        <time>2023-12-18T08:28:53Z</time>
      </trkpt>
      <trkpt lat="43.59952" lon="6.30803">
        <ele>796.8</ele>
        <time>2023-12-18T08:29:03Z</time>
      </trkpt>
      <trkpt lat="43.59951" lon="6.30816">
        <ele>796.8</ele>
        <time>2023-12-18T08:29:11Z</time>
      </trkpt>
      <trkpt lat="43.59956" lon="6.30827">
        <ele>796.7</ele>
        <time>2023-12-18T08:29:20Z</time>
      </trkpt>
      <trkpt lat="43.59965" lon="6.30824">
        <ele>797.2</ele>
        <time>2023-12-18T08:29:35Z</time>
      </trkpt>
      <trkpt lat="43.59974" lon="6.30821">
        <ele>797.1</ele>
        <time>2023-12-18T08:29:45Z</time>
      </trkpt>
      <trkpt lat="43.59984" lon="6.30826">
        <ele>797.3</ele>
        <time>2023-12-18T08:29:53Z</time>
      </trkpt>
      <trkpt lat="43.59994" lon="6.30829">
        <ele>798.6</ele>
        <time>2023-12-18T08:30:03Z</time>
      </trkpt>
      <trkpt lat="43.60002" lon="6.30835">
        <ele>798.2</ele>
        <time>2023-12-18T08:30:16Z</time>
      </trkpt>
      <trkpt lat="43.60008" lon="6.30844">
        <ele>798.7</ele>
        <time>2023-12-18T08:30:27Z</time>
      </trkpt>
      <trkpt lat="43.60017" lon="6.30848">
        <ele>799</ele>
        <time>2023-12-18T08:30:37Z</time>
      </trkpt>
      <trkpt lat="43.60026" lon="6.30847">
        <ele>798.2</ele>
        <time>2023-12-18T08:30:47Z</time>
      </trkpt>
      <trkpt lat="43.60035" lon="6.3085">
        <ele>799.1</ele>
        <time>2023-12-18T08:30:56Z</time>
      </trkpt>
      <trkpt lat="43.60045" lon="6.30852">
        <ele>800.4</ele>
        <time>2023-12-18T08:31:05Z</time>
      </trkpt>
      <trkpt lat="43.60053" lon="6.30845">
        <ele>800.7</ele>
        <time>2023-12-18T08:31:19Z</time>
      </trkpt>
      <trkpt lat="43.60061" lon="6.30838">
        <ele>800.8</ele>
        <time>2023-12-18T08:32:23Z</time>
      </trkpt>
      <trkpt lat="43.60067" lon="6.30829">
        <ele>800.4</ele>
        <time>2023-12-18T08:32:34Z</time>
      </trkpt>
      <trkpt lat="43.60075" lon="6.30823">
        <ele>801.6</ele>
        <time>2023-12-18T08:32:47Z</time>
      </trkpt>
      <trkpt lat="43.60085" lon="6.30824">
        <ele>802.4</ele>
        <time>2023-12-18T08:32:57Z</time>
      </trkpt>
      <trkpt lat="43.60094" lon="6.30831">
        <ele>802.6</ele>
        <time>2023-12-18T08:33:06Z</time>
      </trkpt>
      <trkpt lat="43.60101" lon="6.30839">
        <ele>802.4</ele>
        <time>2023-12-18T08:33:15Z</time>
      </trkpt>
      <trkpt lat="43.60107" lon="6.3085">
        <ele>801.4</ele>
        <time>2023-12-18T08:33:26Z</time>
      </trkpt>
      <trkpt lat="43.60114" lon="6.30859">
        <ele>800.6</ele>
        <time>2023-12-18T08:33:37Z</time>
      </trkpt>
      <trkpt lat="43.60123" lon="6.30858">
        <ele>799.7</ele>
        <time>2023-12-18T08:33:47Z</time>
      </trkpt>
      <trkpt lat="43.60133" lon="6.30859">
        <ele>798.4</ele>
        <time>2023-12-18T08:34:01Z</time>
      </trkpt>
      <trkpt lat="43.60141" lon="6.30854">
        <ele>796.8</ele>
        <time>2023-12-18T08:34:17Z</time>
      </trkpt>
      <trkpt lat="43.60151" lon="6.30849">
        <ele>796.4</ele>
        <time>2023-12-18T08:34:26Z</time>
      </trkpt>
      <trkpt lat="43.60159" lon="6.30844">
        <ele>795.9</ele>
        <time>2023-12-18T08:34:36Z</time>
      </trkpt>
      <trkpt lat="43.60167" lon="6.30837">
        <ele>795.3</ele>
        <time>2023-12-18T08:34:46Z</time>
      </trkpt>
      <trkpt lat="43.60175" lon="6.30828">
        <ele>794.7</ele>
        <time>2023-12-18T08:34:58Z</time>
      </trkpt>
      <trkpt lat="43.60182" lon="6.30819">
        <ele>794.3</ele>
        <time>2023-12-18T08:35:08Z</time>
      </trkpt>
      <trkpt lat="43.60191" lon="6.30814">
        <ele>794</ele>
        <time>2023-12-18T08:35:20Z</time>
      </trkpt>
      <trkpt lat="43.602" lon="6.3081">
        <ele>793.9</ele>
        <time>2023-12-18T08:35:27Z</time>
      </trkpt>
      <trkpt lat="43.60208" lon="6.30804">
        <ele>793.9</ele>
        <time>2023-12-18T08:35:37Z</time>
      </trkpt>
      <trkpt lat="43.60217" lon="6.30798">
        <ele>793.9</ele>
        <time>2023-12-18T08:35:46Z</time>
      </trkpt>
      <trkpt lat="43.60225" lon="6.30792">
        <ele>793.8</ele>
        <time>2023-12-18T08:35:56Z</time>
      </trkpt>
      <trkpt lat="43.60234" lon="6.30787">
        <ele>793.2</ele>
        <time>2023-12-18T08:36:06Z</time>
      </trkpt>
      <trkpt lat="43.60242" lon="6.30782">
        <ele>792.7</ele>
        <time>2023-12-18T08:36:16Z</time>
      </trkpt>
      <trkpt lat="43.60251" lon="6.30776">
        <ele>792.3</ele>
        <time>2023-12-18T08:36:26Z</time>
      </trkpt>
      <trkpt lat="43.6026" lon="6.30772">
        <ele>791.6</ele>
        <time>2023-12-18T08:36:38Z</time>
      </trkpt>
      <trkpt lat="43.6027" lon="6.30768">
        <ele>791</ele>
        <time>2023-12-18T08:36:48Z</time>
      </trkpt>
      <trkpt lat="43.60279" lon="6.30763">
        <ele>790.6</ele>
        <time>2023-12-18T08:36:58Z</time>
      </trkpt>
      <trkpt lat="43.60289" lon="6.30762">
        <ele>790.5</ele>
        <time>2023-12-18T08:37:09Z</time>
      </trkpt>
      <trkpt lat="43.60298" lon="6.30758">
        <ele>790.3</ele>
        <time>2023-12-18T08:37:18Z</time>
      </trkpt>
      <trkpt lat="43.60307" lon="6.30757">
        <ele>789.9</ele>
        <time>2023-12-18T08:37:30Z</time>
      </trkpt>
      <trkpt lat="43.60315" lon="6.3075">
        <ele>789.7</ele>
        <time>2023-12-18T08:37:40Z</time>
      </trkpt>
      <trkpt lat="43.60323" lon="6.30744">
        <ele>789.4</ele>
        <time>2023-12-18T08:37:49Z</time>
      </trkpt>
      <trkpt lat="43.60332" lon="6.30739">
        <ele>789</ele>
        <time>2023-12-18T08:37:59Z</time>
      </trkpt>
      <trkpt lat="43.60341" lon="6.30736">
        <ele>788.7</ele>
        <time>2023-12-18T08:38:07Z</time>
      </trkpt>
      <trkpt lat="43.60348" lon="6.30728">
        <ele>788.2</ele>
        <time>2023-12-18T08:38:21Z</time>
      </trkpt>
      <trkpt lat="43.60357" lon="6.30724">
        <ele>787.8</ele>
        <time>2023-12-18T08:38:33Z</time>
      </trkpt>
      <trkpt lat="43.60367" lon="6.30722">
        <ele>786.9</ele>
        <time>2023-12-18T08:38:46Z</time>
      </trkpt>
      <trkpt lat="43.60376" lon="6.30724">
        <ele>785.8</ele>
        <time>2023-12-18T08:39:00Z</time>
      </trkpt>
      <trkpt lat="43.60385" lon="6.30725">
        <ele>784.7</ele>
        <time>2023-12-18T08:39:12Z</time>
      </trkpt>
      <trkpt lat="43.60394" lon="6.30726">
        <ele>783.1</ele>
        <time>2023-12-18T08:39:27Z</time>
      </trkpt>
      <trkpt lat="43.60403" lon="6.3073">
        <ele>782</ele>
        <time>2023-12-18T08:39:40Z</time>
      </trkpt>
      <trkpt lat="43.6041" lon="6.30739">
        <ele>781.6</ele>
        <time>2023-12-18T08:39:50Z</time>
      </trkpt>
      <trkpt lat="43.60419" lon="6.30742">
        <ele>781.4</ele>
        <time>2023-12-18T08:43:26Z</time>
      </trkpt>
      <trkpt lat="43.60425" lon="6.30753">
        <ele>781.2</ele>
        <time>2023-12-18T08:43:44Z</time>
      </trkpt>
      <trkpt lat="43.60427" lon="6.30765">
        <ele>780.8</ele>
        <time>2023-12-18T08:43:51Z</time>
      </trkpt>
      <trkpt lat="43.6043" lon="6.30778">
        <ele>780.4</ele>
        <time>2023-12-18T08:43:59Z</time>
      </trkpt>
      <trkpt lat="43.60436" lon="6.3079">
        <ele>779.5</ele>
        <time>2023-12-18T08:44:07Z</time>
      </trkpt>
      <trkpt lat="43.60443" lon="6.30798">
        <ele>779</ele>
        <time>2023-12-18T08:44:15Z</time>
      </trkpt>
      <trkpt lat="43.60449" lon="6.30809">
        <ele>779.3</ele>
        <time>2023-12-18T08:44:24Z</time>
      </trkpt>
      <trkpt lat="43.60451" lon="6.30822">
        <ele>778.5</ele>
        <time>2023-12-18T08:44:34Z</time>
      </trkpt>
      <trkpt lat="43.60455" lon="6.30833">
        <ele>778.5</ele>
        <time>2023-12-18T08:44:47Z</time>
      </trkpt>
      <trkpt lat="43.60461" lon="6.30843">
        <ele>777.7</ele>
        <time>2023-12-18T08:44:58Z</time>
      </trkpt>
      <trkpt lat="43.60461" lon="6.30856">
        <ele>779.1</ele>
        <time>2023-12-18T08:45:19Z</time>
      </trkpt>
      <trkpt lat="43.60463" lon="6.30868">
        <ele>775.1</ele>
        <time>2023-12-18T08:45:42Z</time>
      </trkpt>
      <trkpt lat="43.60465" lon="6.30881">
        <ele>774.5</ele>
        <time>2023-12-18T08:46:05Z</time>
      </trkpt>
      <trkpt lat="43.6047" lon="6.30893">
        <ele>772.6</ele>
        <time>2023-12-18T08:46:14Z</time>
      </trkpt>
      <trkpt lat="43.60475" lon="6.30904">
        <ele>772.7</ele>
        <time>2023-12-18T08:46:23Z</time>
      </trkpt>
      <trkpt lat="43.60481" lon="6.30913">
        <ele>773.1</ele>
        <time>2023-12-18T08:46:32Z</time>
      </trkpt>
      <trkpt lat="43.60473" lon="6.30921">
        <ele>771.2</ele>
        <time>2023-12-18T08:46:46Z</time>
      </trkpt>
      <trkpt lat="43.60464" lon="6.30924">
        <ele>772.6</ele>
        <time>2023-12-18T08:47:17Z</time>
      </trkpt>
      <trkpt lat="43.60473" lon="6.30919">
        <ele>773.4</ele>
        <time>2023-12-18T08:47:57Z</time>
      </trkpt>
      <trkpt lat="43.60482" lon="6.30913">
        <ele>773</ele>
        <time>2023-12-18T08:48:07Z</time>
      </trkpt>
      <trkpt lat="43.60491" lon="6.30909">
        <ele>771.9</ele>
        <time>2023-12-18T08:48:16Z</time>
      </trkpt>
      <trkpt lat="43.60501" lon="6.30906">
        <ele>771.4</ele>
        <time>2023-12-18T08:48:24Z</time>
      </trkpt>
      <trkpt lat="43.60507" lon="6.30895">
        <ele>770.5</ele>
        <time>2023-12-18T08:48:33Z</time>
      </trkpt>
      <trkpt lat="43.60514" lon="6.30888">
        <ele>770</ele>
        <time>2023-12-18T08:48:41Z</time>
      </trkpt>
      <trkpt lat="43.60521" lon="6.30879">
        <ele>770.5</ele>
        <time>2023-12-18T08:48:51Z</time>
      </trkpt>
      <trkpt lat="43.60529" lon="6.30873">
        <ele>770.8</ele>
        <time>2023-12-18T08:48:58Z</time>
      </trkpt>
      <trkpt lat="43.60539" lon="6.30867">
        <ele>770.9</ele>
        <time>2023-12-18T08:49:05Z</time>
      </trkpt>
      <trkpt lat="43.60547" lon="6.30862">
        <ele>771.5</ele>
        <time>2023-12-18T08:49:14Z</time>
      </trkpt>
      <trkpt lat="43.60555" lon="6.30855">
        <ele>771.9</ele>
        <time>2023-12-18T08:49:21Z</time>
      </trkpt>
      <trkpt lat="43.60563" lon="6.30846">
        <ele>771.1</ele>
        <time>2023-12-18T08:49:30Z</time>
      </trkpt>
      <trkpt lat="43.6057" lon="6.30839">
        <ele>769.9</ele>
        <time>2023-12-18T08:49:37Z</time>
      </trkpt>
      <trkpt lat="43.60576" lon="6.3083">
        <ele>769.1</ele>
        <time>2023-12-18T08:49:44Z</time>
      </trkpt>
      <trkpt lat="43.6058" lon="6.30817">
        <ele>768.8</ele>
        <time>2023-12-18T08:49:53Z</time>
      </trkpt>
      <trkpt lat="43.60587" lon="6.30807">
        <ele>769</ele>
        <time>2023-12-18T08:50:01Z</time>
      </trkpt>
      <trkpt lat="43.60593" lon="6.30795">
        <ele>768.9</ele>
        <time>2023-12-18T08:50:09Z</time>
      </trkpt>
      <trkpt lat="43.60597" lon="6.30783">
        <ele>768.7</ele>
        <time>2023-12-18T08:50:17Z</time>
      </trkpt>
      <trkpt lat="43.60603" lon="6.30772">
        <ele>769.6</ele>
        <time>2023-12-18T08:50:25Z</time>
      </trkpt>
      <trkpt lat="43.60609" lon="6.30763">
        <ele>769</ele>
        <time>2023-12-18T08:50:32Z</time>
      </trkpt>
      <trkpt lat="43.60612" lon="6.3075">
        <ele>768.6</ele>
        <time>2023-12-18T08:50:40Z</time>
      </trkpt>
      <trkpt lat="43.60615" lon="6.30737">
        <ele>768.6</ele>
        <time>2023-12-18T08:50:48Z</time>
      </trkpt>
      <trkpt lat="43.60619" lon="6.30725">
        <ele>768.3</ele>
        <time>2023-12-18T08:50:56Z</time>
      </trkpt>
      <trkpt lat="43.60621" lon="6.30713">
        <ele>768.2</ele>
        <time>2023-12-18T08:51:07Z</time>
      </trkpt>
      <trkpt lat="43.60622" lon="6.307">
        <ele>766.6</ele>
        <time>2023-12-18T08:51:21Z</time>
      </trkpt>
      <trkpt lat="43.60624" lon="6.30688">
        <ele>766.3</ele>
        <time>2023-12-18T08:51:35Z</time>
      </trkpt>
      <trkpt lat="43.6063" lon="6.30679">
        <ele>765.5</ele>
        <time>2023-12-18T08:53:48Z</time>
      </trkpt>
      <trkpt lat="43.6064" lon="6.30674">
        <ele>766.1</ele>
        <time>2023-12-18T08:53:57Z</time>
      </trkpt>
      <trkpt lat="43.60648" lon="6.30667">
        <ele>766</ele>
        <time>2023-12-18T08:54:08Z</time>
      </trkpt>
      <trkpt lat="43.60654" lon="6.30657">
        <ele>765.6</ele>
        <time>2023-12-18T08:54:18Z</time>
      </trkpt>
      <trkpt lat="43.6066" lon="6.30648">
        <ele>765.4</ele>
        <time>2023-12-18T08:54:27Z</time>
      </trkpt>
      <trkpt lat="43.60668" lon="6.3064">
        <ele>765.1</ele>
        <time>2023-12-18T08:54:38Z</time>
      </trkpt>
      <trkpt lat="43.60673" lon="6.30629">
        <ele>765</ele>
        <time>2023-12-18T08:54:51Z</time>
      </trkpt>
      <trkpt lat="43.60679" lon="6.30619">
        <ele>764.7</ele>
        <time>2023-12-18T08:55:04Z</time>
      </trkpt>
      <trkpt lat="43.60685" lon="6.30609">
        <ele>764.4</ele>
        <time>2023-12-18T08:55:16Z</time>
      </trkpt>
      <trkpt lat="43.60691" lon="6.30598">
        <ele>764.2</ele>
        <time>2023-12-18T08:56:53Z</time>
      </trkpt>
      <trkpt lat="43.60691" lon="6.30584">
        <ele>763.3</ele>
        <time>2023-12-18T08:57:11Z</time>
      </trkpt>
      <trkpt lat="43.60692" lon="6.30572">
        <ele>763</ele>
        <time>2023-12-18T08:57:30Z</time>
      </trkpt>
      <trkpt lat="43.60693" lon="6.30559">
        <ele>762.9</ele>
        <time>2023-12-18T08:57:44Z</time>
      </trkpt>
      <trkpt lat="43.60698" lon="6.30548">
        <ele>762.8</ele>
        <time>2023-12-18T08:57:57Z</time>
      </trkpt>
      <trkpt lat="43.60703" lon="6.30536">
        <ele>762.3</ele>
        <time>2023-12-18T08:58:08Z</time>
      </trkpt>
      <trkpt lat="43.6071" lon="6.30526">
        <ele>762.2</ele>
        <time>2023-12-18T08:58:18Z</time>
      </trkpt>
      <trkpt lat="43.60716" lon="6.30516">
        <ele>761.9</ele>
        <time>2023-12-18T08:58:27Z</time>
      </trkpt>
      <trkpt lat="43.60721" lon="6.30505">
        <ele>761.9</ele>
        <time>2023-12-18T08:58:36Z</time>
      </trkpt>
      <trkpt lat="43.60727" lon="6.30495">
        <ele>761.7</ele>
        <time>2023-12-18T08:58:57Z</time>
      </trkpt>
      <trkpt lat="43.60733" lon="6.30485">
        <ele>762.2</ele>
        <time>2023-12-18T08:59:06Z</time>
      </trkpt>
      <trkpt lat="43.60738" lon="6.30473">
        <ele>761.8</ele>
        <time>2023-12-18T08:59:14Z</time>
      </trkpt>
      <trkpt lat="43.60743" lon="6.30461">
        <ele>761.2</ele>
        <time>2023-12-18T08:59:23Z</time>
      </trkpt>
      <trkpt lat="43.60746" lon="6.30449">
        <ele>761.5</ele>
        <time>2023-12-18T08:59:38Z</time>
      </trkpt>
      <trkpt lat="43.60752" lon="6.30441">
        <ele>760.5</ele>
        <time>2023-12-18T09:00:01Z</time>
      </trkpt>
      <trkpt lat="43.60761" lon="6.30432">
        <ele>760.5</ele>
        <time>2023-12-18T09:00:19Z</time>
      </trkpt>
      <trkpt lat="43.6077" lon="6.30429">
        <ele>760.9</ele>
        <time>2023-12-18T09:00:27Z</time>
      </trkpt>
      <trkpt lat="43.60778" lon="6.30422">
        <ele>760.6</ele>
        <time>2023-12-18T09:00:36Z</time>
      </trkpt>
      <trkpt lat="43.60785" lon="6.30413">
        <ele>760</ele>
        <time>2023-12-18T09:00:45Z</time>
      </trkpt>
      <trkpt lat="43.60789" lon="6.30401">
        <ele>758.4</ele>
        <time>2023-12-18T09:00:55Z</time>
      </trkpt>
      <trkpt lat="43.60794" lon="6.30389">
        <ele>759</ele>
        <time>2023-12-18T09:01:03Z</time>
      </trkpt>
      <trkpt lat="43.60794" lon="6.30376">
        <ele>758.7</ele>
        <time>2023-12-18T09:01:11Z</time>
      </trkpt>
      <trkpt lat="43.60799" lon="6.30364">
        <ele>758.3</ele>
        <time>2023-12-18T09:01:20Z</time>
      </trkpt>
      <trkpt lat="43.60806" lon="6.30353">
        <ele>758.5</ele>
        <time>2023-12-18T09:01:28Z</time>
      </trkpt>
      <trkpt lat="43.60813" lon="6.30346">
        <ele>758.3</ele>
        <time>2023-12-18T09:01:35Z</time>
      </trkpt>
      <trkpt lat="43.60819" lon="6.30337">
        <ele>757.8</ele>
        <time>2023-12-18T09:01:44Z</time>
      </trkpt>
      <trkpt lat="43.60826" lon="6.30328">
        <ele>757.5</ele>
        <time>2023-12-18T09:01:55Z</time>
      </trkpt>
      <trkpt lat="43.60834" lon="6.30318">
        <ele>757.4</ele>
        <time>2023-12-18T09:02:04Z</time>
      </trkpt>
      <trkpt lat="43.60839" lon="6.30307">
        <ele>757</ele>
        <time>2023-12-18T09:02:13Z</time>
      </trkpt>
      <trkpt lat="43.60842" lon="6.30295">
        <ele>756.9</ele>
        <time>2023-12-18T09:02:22Z</time>
      </trkpt>
      <trkpt lat="43.60846" lon="6.30282">
        <ele>756.2</ele>
        <time>2023-12-18T09:02:32Z</time>
      </trkpt>
      <trkpt lat="43.60846" lon="6.30269">
        <ele>755.6</ele>
        <time>2023-12-18T09:02:43Z</time>
      </trkpt>
      <trkpt lat="43.60844" lon="6.30256">
        <ele>755.2</ele>
        <time>2023-12-18T09:02:51Z</time>
      </trkpt>
      <trkpt lat="43.60846" lon="6.30243">
        <ele>755.7</ele>
        <time>2023-12-18T09:02:58Z</time>
      </trkpt>
      <trkpt lat="43.6085" lon="6.30231">
        <ele>755.5</ele>
        <time>2023-12-18T09:03:07Z</time>
      </trkpt>
      <trkpt lat="43.60852" lon="6.30219">
        <ele>755</ele>
        <time>2023-12-18T09:03:16Z</time>
      </trkpt>
      <trkpt lat="43.60854" lon="6.30206">
        <ele>754.9</ele>
        <time>2023-12-18T09:03:26Z</time>
      </trkpt>
      <trkpt lat="43.60854" lon="6.30192">
        <ele>754.9</ele>
        <time>2023-12-18T09:03:34Z</time>
      </trkpt>
      <trkpt lat="43.60855" lon="6.30179">
        <ele>753.5</ele>
        <time>2023-12-18T09:03:42Z</time>
      </trkpt>
      <trkpt lat="43.60854" lon="6.30165">
        <ele>754.1</ele>
        <time>2023-12-18T09:03:51Z</time>
      </trkpt>
      <trkpt lat="43.60857" lon="6.30152">
        <ele>753.8</ele>
        <time>2023-12-18T09:04:06Z</time>
      </trkpt>
      <trkpt lat="43.60859" lon="6.3014">
        <ele>753.7</ele>
        <time>2023-12-18T09:04:14Z</time>
      </trkpt>
      <trkpt lat="43.60859" lon="6.30126">
        <ele>752.9</ele>
        <time>2023-12-18T09:04:22Z</time>
      </trkpt>
      <trkpt lat="43.60863" lon="6.30114">
        <ele>753.1</ele>
        <time>2023-12-18T09:04:30Z</time>
      </trkpt>
      <trkpt lat="43.60869" lon="6.30103">
        <ele>752.9</ele>
        <time>2023-12-18T09:04:39Z</time>
      </trkpt>
      <trkpt lat="43.60871" lon="6.3009">
        <ele>752.6</ele>
        <time>2023-12-18T09:04:48Z</time>
      </trkpt>
      <trkpt lat="43.60876" lon="6.3008">
        <ele>752.2</ele>
        <time>2023-12-18T09:04:57Z</time>
      </trkpt>
      <trkpt lat="43.6088" lon="6.30069">
        <ele>751.9</ele>
        <time>2023-12-18T09:05:06Z</time>
      </trkpt>
      <trkpt lat="43.60886" lon="6.30059">
        <ele>751.3</ele>
        <time>2023-12-18T09:05:16Z</time>
      </trkpt>
      <trkpt lat="43.60893" lon="6.3005">
        <ele>750.3</ele>
        <time>2023-12-18T09:05:27Z</time>
      </trkpt>
      <trkpt lat="43.60901" lon="6.30042">
        <ele>748.9</ele>
        <time>2023-12-18T09:05:39Z</time>
      </trkpt>
      <trkpt lat="43.60911" lon="6.3004">
        <ele>748.6</ele>
        <time>2023-12-18T09:05:48Z</time>
      </trkpt>
      <trkpt lat="43.60919" lon="6.30035">
        <ele>748.5</ele>
        <time>2023-12-18T09:05:58Z</time>
      </trkpt>
      <trkpt lat="43.60925" lon="6.30026">
        <ele>746.4</ele>
        <time>2023-12-18T09:07:38Z</time>
      </trkpt>
      <trkpt lat="43.60924" lon="6.30012">
        <ele>746.5</ele>
        <time>2023-12-18T09:08:06Z</time>
      </trkpt>
      <trkpt lat="43.60924" lon="6.29999">
        <ele>745.4</ele>
        <time>2023-12-18T09:09:02Z</time>
      </trkpt>
      <trkpt lat="43.60922" lon="6.29987">
        <ele>747</ele>
        <time>2023-12-18T09:09:47Z</time>
      </trkpt>
      <trkpt lat="43.60922" lon="6.29974">
        <ele>745.7</ele>
        <time>2023-12-18T09:10:05Z</time>
      </trkpt>
      <trkpt lat="43.60916" lon="6.29964">
        <ele>746.7</ele>
        <time>2023-12-18T09:10:19Z</time>
      </trkpt>
      <trkpt lat="43.60912" lon="6.29953">
        <ele>745.8</ele>
        <time>2023-12-18T09:10:34Z</time>
      </trkpt>
      <trkpt lat="43.60911" lon="6.29941">
        <ele>744.1</ele>
        <time>2023-12-18T09:10:46Z</time>
      </trkpt>
      <trkpt lat="43.6091" lon="6.29928">
        <ele>744.3</ele>
        <time>2023-12-18T09:11:00Z</time>
      </trkpt>
      <trkpt lat="43.60911" lon="6.29916">
        <ele>744.1</ele>
        <time>2023-12-18T09:11:11Z</time>
      </trkpt>
      <trkpt lat="43.60909" lon="6.29903">
        <ele>743.8</ele>
        <time>2023-12-18T09:11:23Z</time>
      </trkpt>
      <trkpt lat="43.60901" lon="6.29895">
        <ele>743.7</ele>
        <time>2023-12-18T09:11:59Z</time>
      </trkpt>
      <trkpt lat="43.60895" lon="6.29886">
        <ele>743.6</ele>
        <time>2023-12-18T09:12:06Z</time>
      </trkpt>
      <trkpt lat="43.60888" lon="6.29876">
        <ele>742.9</ele>
        <time>2023-12-18T09:12:14Z</time>
      </trkpt>
      <trkpt lat="43.60882" lon="6.29867">
        <ele>742.3</ele>
        <time>2023-12-18T09:12:22Z</time>
      </trkpt>
      <trkpt lat="43.60875" lon="6.29857">
        <ele>742.4</ele>
        <time>2023-12-18T09:12:32Z</time>
      </trkpt>
      <trkpt lat="43.6087" lon="6.29847">
        <ele>741.2</ele>
        <time>2023-12-18T09:12:59Z</time>
      </trkpt>
      <trkpt lat="43.60865" lon="6.29836">
        <ele>741</ele>
        <time>2023-12-18T09:13:07Z</time>
      </trkpt>
      <trkpt lat="43.60858" lon="6.29828">
        <ele>740.8</ele>
        <time>2023-12-18T09:13:15Z</time>
      </trkpt>
      <trkpt lat="43.60851" lon="6.29818">
        <ele>740</ele>
        <time>2023-12-18T09:13:25Z</time>
      </trkpt>
      <trkpt lat="43.60844" lon="6.2981">
        <ele>739.6</ele>
        <time>2023-12-18T09:13:44Z</time>
      </trkpt>
      <trkpt lat="43.60835" lon="6.29804">
        <ele>739.2</ele>
        <time>2023-12-18T09:13:52Z</time>
      </trkpt>
      <trkpt lat="43.60826" lon="6.29801">
        <ele>738.5</ele>
        <time>2023-12-18T09:14:04Z</time>
      </trkpt>
      <trkpt lat="43.60817" lon="6.29795">
        <ele>738</ele>
        <time>2023-12-18T09:14:12Z</time>
      </trkpt>
      <trkpt lat="43.60814" lon="6.29783">
        <ele>737.4</ele>
        <time>2023-12-18T09:14:23Z</time>
      </trkpt>
      <trkpt lat="43.60818" lon="6.29772">
        <ele>736.7</ele>
        <time>2023-12-18T09:14:33Z</time>
      </trkpt>
      <trkpt lat="43.6082" lon="6.29759">
        <ele>735.6</ele>
        <time>2023-12-18T09:14:44Z</time>
      </trkpt>
      <trkpt lat="43.60818" lon="6.29747">
        <ele>735</ele>
        <time>2023-12-18T09:14:52Z</time>
      </trkpt>
      <trkpt lat="43.60814" lon="6.29736">
        <ele>734.7</ele>
        <time>2023-12-18T09:15:00Z</time>
      </trkpt>
      <trkpt lat="43.60806" lon="6.29729">
        <ele>733.1</ele>
        <time>2023-12-18T09:15:09Z</time>
      </trkpt>
      <trkpt lat="43.60797" lon="6.29726">
        <ele>733.1</ele>
        <time>2023-12-18T09:15:21Z</time>
      </trkpt>
      <trkpt lat="43.60789" lon="6.29719">
        <ele>733.2</ele>
        <time>2023-12-18T09:15:33Z</time>
      </trkpt>
      <trkpt lat="43.60785" lon="6.29707">
        <ele>732.8</ele>
        <time>2023-12-18T09:15:45Z</time>
      </trkpt>
      <trkpt lat="43.60782" lon="6.29695">
        <ele>732.3</ele>
        <time>2023-12-18T09:15:53Z</time>
      </trkpt>
      <trkpt lat="43.60779" lon="6.29681">
        <ele>732.2</ele>
        <time>2023-12-18T09:16:04Z</time>
      </trkpt>
      <trkpt lat="43.60773" lon="6.29671">
        <ele>730.6</ele>
        <time>2023-12-18T09:16:17Z</time>
      </trkpt>
      <trkpt lat="43.60765" lon="6.29663">
        <ele>730.9</ele>
        <time>2023-12-18T09:16:28Z</time>
      </trkpt>
      <trkpt lat="43.6076" lon="6.29651">
        <ele>730.4</ele>
        <time>2023-12-18T09:16:38Z</time>
      </trkpt>
      <trkpt lat="43.60754" lon="6.29642">
        <ele>730.6</ele>
        <time>2023-12-18T09:16:46Z</time>
      </trkpt>
      <trkpt lat="43.60751" lon="6.29629">
        <ele>732.1</ele>
        <time>2023-12-18T09:16:56Z</time>
      </trkpt>
      <trkpt lat="43.60749" lon="6.29617">
        <ele>729.4</ele>
        <time>2023-12-18T09:17:13Z</time>
      </trkpt>
      <trkpt lat="43.60745" lon="6.29605">
        <ele>729.8</ele>
        <time>2023-12-18T09:17:25Z</time>
      </trkpt>
      <trkpt lat="43.60741" lon="6.29593">
        <ele>728.6</ele>
        <time>2023-12-18T09:17:35Z</time>
      </trkpt>
      <trkpt lat="43.60736" lon="6.29582">
        <ele>729.1</ele>
        <time>2023-12-18T09:17:53Z</time>
      </trkpt>
      <trkpt lat="43.60734" lon="6.29569">
        <ele>730.1</ele>
        <time>2023-12-18T09:18:04Z</time>
      </trkpt>
      <trkpt lat="43.60736" lon="6.29556">
        <ele>729.8</ele>
        <time>2023-12-18T09:18:12Z</time>
      </trkpt>
      <trkpt lat="43.60735" lon="6.29543">
        <ele>728.1</ele>
        <time>2023-12-18T09:18:24Z</time>
      </trkpt>
      <trkpt lat="43.60734" lon="6.2953">
        <ele>728.4</ele>
        <time>2023-12-18T09:18:41Z</time>
      </trkpt>
      <trkpt lat="43.60729" lon="6.29518">
        <ele>727.4</ele>
        <time>2023-12-18T09:19:18Z</time>
      </trkpt>
      <trkpt lat="43.60725" lon="6.29506">
        <ele>727.2</ele>
        <time>2023-12-18T09:19:30Z</time>
      </trkpt>
      <trkpt lat="43.60728" lon="6.29494">
        <ele>726.8</ele>
        <time>2023-12-18T09:19:59Z</time>
      </trkpt>
      <trkpt lat="43.60727" lon="6.29481">
        <ele>727.6</ele>
        <time>2023-12-18T09:20:11Z</time>
      </trkpt>
      <trkpt lat="43.60722" lon="6.29471">
        <ele>726.8</ele>
        <time>2023-12-18T09:20:30Z</time>
      </trkpt>
      <trkpt lat="43.60717" lon="6.2946">
        <ele>726.7</ele>
        <time>2023-12-18T09:20:43Z</time>
      </trkpt>
      <trkpt lat="43.60713" lon="6.29448">
        <ele>726.3</ele>
        <time>2023-12-18T09:21:24Z</time>
      </trkpt>
      <trkpt lat="43.60707" lon="6.29439">
        <ele>726.5</ele>
        <time>2023-12-18T09:21:41Z</time>
      </trkpt>
      <trkpt lat="43.60702" lon="6.29427">
        <ele>726.3</ele>
        <time>2023-12-18T09:21:53Z</time>
      </trkpt>
      <trkpt lat="43.60695" lon="6.29417">
        <ele>726.4</ele>
        <time>2023-12-18T09:22:04Z</time>
      </trkpt>
      <trkpt lat="43.60687" lon="6.29412">
        <ele>726.2</ele>
        <time>2023-12-18T09:22:17Z</time>
      </trkpt>
      <trkpt lat="43.60679" lon="6.29405">
        <ele>725.8</ele>
        <time>2023-12-18T09:22:30Z</time>
      </trkpt>
      <trkpt lat="43.60671" lon="6.294">
        <ele>725.2</ele>
        <time>2023-12-18T09:22:45Z</time>
      </trkpt>
      <trkpt lat="43.60662" lon="6.29394">
        <ele>724.6</ele>
        <time>2023-12-18T09:23:38Z</time>
      </trkpt>
      <trkpt lat="43.60653" lon="6.29396">
        <ele>722.7</ele>
        <time>2023-12-18T09:25:25Z</time>
      </trkpt>
      <trkpt lat="43.60659" lon="6.29387">
        <ele>724.8</ele>
        <time>2023-12-18T09:26:33Z</time>
      </trkpt>
      <trkpt lat="43.60653" lon="6.29396">
        <ele>723.1</ele>
        <time>2023-12-18T09:28:43Z</time>
      </trkpt>
      <trkpt lat="43.60653" lon="6.29383">
        <ele>724.2</ele>
        <time>2023-12-18T09:29:45Z</time>
      </trkpt>
      <trkpt lat="43.60644" lon="6.29381">
        <ele>724.3</ele>
        <time>2023-12-18T09:32:48Z</time>
      </trkpt>
      <trkpt lat="43.60636" lon="6.29376">
        <ele>724.6</ele>
        <time>2023-12-18T09:32:58Z</time>
      </trkpt>
      <trkpt lat="43.60626" lon="6.29374">
        <ele>725.1</ele>
        <time>2023-12-18T09:33:09Z</time>
      </trkpt>
      <trkpt lat="43.60617" lon="6.29377">
        <ele>725.4</ele>
        <time>2023-12-18T09:33:18Z</time>
      </trkpt>
      <trkpt lat="43.60607" lon="6.29377">
        <ele>727.1</ele>
        <time>2023-12-18T09:33:29Z</time>
      </trkpt>
      <trkpt lat="43.60598" lon="6.29376">
        <ele>725</ele>
        <time>2023-12-18T09:33:39Z</time>
      </trkpt>
      <trkpt lat="43.60589" lon="6.29372">
        <ele>723.8</ele>
        <time>2023-12-18T09:33:50Z</time>
      </trkpt>
      <trkpt lat="43.60589" lon="6.29359">
        <ele>722.6</ele>
        <time>2023-12-18T09:34:39Z</time>
      </trkpt>
      <trkpt lat="43.60596" lon="6.29351">
        <ele>721.6</ele>
        <time>2023-12-18T09:34:49Z</time>
      </trkpt>
      <trkpt lat="43.60604" lon="6.29342">
        <ele>724.6</ele>
        <time>2023-12-18T09:34:59Z</time>
      </trkpt>
      <trkpt lat="43.60611" lon="6.29335">
        <ele>724.9</ele>
        <time>2023-12-18T09:35:08Z</time>
      </trkpt>
      <trkpt lat="43.60619" lon="6.29329">
        <ele>724.8</ele>
        <time>2023-12-18T09:35:19Z</time>
      </trkpt>
      <trkpt lat="43.60628" lon="6.29324">
        <ele>725</ele>
        <time>2023-12-18T09:35:29Z</time>
      </trkpt>
      <trkpt lat="43.60635" lon="6.29316">
        <ele>725.6</ele>
        <time>2023-12-18T09:35:39Z</time>
      </trkpt>
      <trkpt lat="43.6064" lon="6.29305">
        <ele>726</ele>
        <time>2023-12-18T09:35:53Z</time>
      </trkpt>
      <trkpt lat="43.60647" lon="6.29297">
        <ele>726.7</ele>
        <time>2023-12-18T09:36:11Z</time>
      </trkpt>
      <trkpt lat="43.60656" lon="6.29292">
        <ele>727.2</ele>
        <time>2023-12-18T09:36:19Z</time>
      </trkpt>
      <trkpt lat="43.60665" lon="6.2929">
        <ele>727.6</ele>
        <time>2023-12-18T09:36:31Z</time>
      </trkpt>
      <trkpt lat="43.60674" lon="6.29285">
        <ele>728.1</ele>
        <time>2023-12-18T09:36:42Z</time>
      </trkpt>
      <trkpt lat="43.60682" lon="6.29279">
        <ele>729</ele>
        <time>2023-12-18T09:36:56Z</time>
      </trkpt>
      <trkpt lat="43.6069" lon="6.29272">
        <ele>728.9</ele>
        <time>2023-12-18T09:37:05Z</time>
      </trkpt>
      <trkpt lat="43.60696" lon="6.29262">
        <ele>729.7</ele>
        <time>2023-12-18T09:37:15Z</time>
      </trkpt>
      <trkpt lat="43.60706" lon="6.29263">
        <ele>727.3</ele>
        <time>2023-12-18T09:37:43Z</time>
      </trkpt>
      <trkpt lat="43.60704" lon="6.29275">
        <ele>731.2</ele>
        <time>2023-12-18T09:37:59Z</time>
      </trkpt>
      <trkpt lat="43.60701" lon="6.29288">
        <ele>734.1</ele>
        <time>2023-12-18T09:38:28Z</time>
      </trkpt>
      <trkpt lat="43.60698" lon="6.29299">
        <ele>735.2</ele>
        <time>2023-12-18T09:38:55Z</time>
      </trkpt>
      <trkpt lat="43.60694" lon="6.29311">
        <ele>736.2</ele>
        <time>2023-12-18T09:39:07Z</time>
      </trkpt>
      <trkpt lat="43.60692" lon="6.29323">
        <ele>737.3</ele>
        <time>2023-12-18T09:39:18Z</time>
      </trkpt>
      <trkpt lat="43.60696" lon="6.29335">
        <ele>739.4</ele>
        <time>2023-12-18T09:39:31Z</time>
      </trkpt>
      <trkpt lat="43.60705" lon="6.29339">
        <ele>740.8</ele>
        <time>2023-12-18T09:39:44Z</time>
      </trkpt>
      <trkpt lat="43.60714" lon="6.29341">
        <ele>742.1</ele>
        <time>2023-12-18T09:39:57Z</time>
      </trkpt>
      <trkpt lat="43.60723" lon="6.29338">
        <ele>743.3</ele>
        <time>2023-12-18T09:40:09Z</time>
      </trkpt>
      <trkpt lat="43.60732" lon="6.29334">
        <ele>744.3</ele>
        <time>2023-12-18T09:40:20Z</time>
      </trkpt>
      <trkpt lat="43.6074" lon="6.29328">
        <ele>745.3</ele>
        <time>2023-12-18T09:40:32Z</time>
      </trkpt>
      <trkpt lat="43.60747" lon="6.29319">
        <ele>745.9</ele>
        <time>2023-12-18T09:40:42Z</time>
      </trkpt>
      <trkpt lat="43.60755" lon="6.29311">
        <ele>746.5</ele>
        <time>2023-12-18T09:40:53Z</time>
      </trkpt>
      <trkpt lat="43.60763" lon="6.29305">
        <ele>747.2</ele>
        <time>2023-12-18T09:41:03Z</time>
      </trkpt>
      <trkpt lat="43.60771" lon="6.29297">
        <ele>748.5</ele>
        <time>2023-12-18T09:41:45Z</time>
      </trkpt>
      <trkpt lat="43.6078" lon="6.29296">
        <ele>749.3</ele>
        <time>2023-12-18T09:46:26Z</time>
      </trkpt>
      <trkpt lat="43.60789" lon="6.29296">
        <ele>748.3</ele>
        <time>2023-12-18T09:50:19Z</time>
      </trkpt>
      <trkpt lat="43.60798" lon="6.29301">
        <ele>748.3</ele>
        <time>2023-12-18T09:50:30Z</time>
      </trkpt>
      <trkpt lat="43.60807" lon="6.29299">
        <ele>748.2</ele>
        <time>2023-12-18T09:50:43Z</time>
      </trkpt>
      <trkpt lat="43.60816" lon="6.29297">
        <ele>747.9</ele>
        <time>2023-12-18T09:50:55Z</time>
      </trkpt>
      <trkpt lat="43.60824" lon="6.29304">
        <ele>747.5</ele>
        <time>2023-12-18T09:51:08Z</time>
      </trkpt>
      <trkpt lat="43.60825" lon="6.29316">
        <ele>746.9</ele>
        <time>2023-12-18T09:51:20Z</time>
      </trkpt>
      <trkpt lat="43.60825" lon="6.29329">
        <ele>747.8</ele>
        <time>2023-12-18T09:51:32Z</time>
      </trkpt>
      <trkpt lat="43.60819" lon="6.29339">
        <ele>748.2</ele>
        <time>2023-12-18T09:51:43Z</time>
      </trkpt>
      <trkpt lat="43.60812" lon="6.29347">
        <ele>747.9</ele>
        <time>2023-12-18T09:51:55Z</time>
      </trkpt>
      <trkpt lat="43.60803" lon="6.2935">
        <ele>747.4</ele>
        <time>2023-12-18T09:52:06Z</time>
      </trkpt>
      <trkpt lat="43.60794" lon="6.29356">
        <ele>747.5</ele>
        <time>2023-12-18T09:52:17Z</time>
      </trkpt>
      <trkpt lat="43.60792" lon="6.29368">
        <ele>748.1</ele>
        <time>2023-12-18T09:52:27Z</time>
      </trkpt>
      <trkpt lat="43.60789" lon="6.29381">
        <ele>748</ele>
        <time>2023-12-18T09:52:37Z</time>
      </trkpt>
      <trkpt lat="43.60791" lon="6.29394">
        <ele>747.6</ele>
        <time>2023-12-18T09:52:49Z</time>
      </trkpt>
      <trkpt lat="43.60791" lon="6.29407">
        <ele>747.4</ele>
        <time>2023-12-18T09:53:00Z</time>
      </trkpt>
      <trkpt lat="43.60798" lon="6.29416">
        <ele>746.6</ele>
        <time>2023-12-18T09:53:13Z</time>
      </trkpt>
      <trkpt lat="43.60804" lon="6.29426">
        <ele>745.4</ele>
        <time>2023-12-18T09:53:27Z</time>
      </trkpt>
      <trkpt lat="43.60808" lon="6.29438">
        <ele>744</ele>
        <time>2023-12-18T09:53:39Z</time>
      </trkpt>
      <trkpt lat="43.60813" lon="6.2945">
        <ele>742.5</ele>
        <time>2023-12-18T09:53:53Z</time>
      </trkpt>
      <trkpt lat="43.60818" lon="6.2946">
        <ele>741.6</ele>
        <time>2023-12-18T09:54:03Z</time>
      </trkpt>
      <trkpt lat="43.60823" lon="6.29472">
        <ele>741.2</ele>
        <time>2023-12-18T09:54:13Z</time>
      </trkpt>
      <trkpt lat="43.6082" lon="6.29484">
        <ele>741.6</ele>
        <time>2023-12-18T09:54:23Z</time>
      </trkpt>
      <trkpt lat="43.60812" lon="6.2949">
        <ele>742.7</ele>
        <time>2023-12-18T09:54:33Z</time>
      </trkpt>
      <trkpt lat="43.60805" lon="6.29499">
        <ele>743.8</ele>
        <time>2023-12-18T09:54:46Z</time>
      </trkpt>
      <trkpt lat="43.60804" lon="6.29512">
        <ele>745</ele>
        <time>2023-12-18T09:54:58Z</time>
      </trkpt>
      <trkpt lat="43.60809" lon="6.29523">
        <ele>746.5</ele>
        <time>2023-12-18T09:55:10Z</time>
      </trkpt>
      <trkpt lat="43.60812" lon="6.29536">
        <ele>748</ele>
        <time>2023-12-18T09:55:19Z</time>
      </trkpt>
      <trkpt lat="43.60813" lon="6.29549">
        <ele>748.6</ele>
        <time>2023-12-18T09:55:30Z</time>
      </trkpt>
      <trkpt lat="43.60815" lon="6.29561">
        <ele>749.9</ele>
        <time>2023-12-18T09:55:44Z</time>
      </trkpt>
      <trkpt lat="43.6082" lon="6.29573">
        <ele>749</ele>
        <time>2023-12-18T09:55:58Z</time>
      </trkpt>
      <trkpt lat="43.60825" lon="6.29583">
        <ele>749.2</ele>
        <time>2023-12-18T09:56:09Z</time>
      </trkpt>
      <trkpt lat="43.60832" lon="6.29592">
        <ele>749</ele>
        <time>2023-12-18T09:56:21Z</time>
      </trkpt>
      <trkpt lat="43.60838" lon="6.29602">
        <ele>748.9</ele>
        <time>2023-12-18T09:56:31Z</time>
      </trkpt>
      <trkpt lat="43.60835" lon="6.29614">
        <ele>748.8</ele>
        <time>2023-12-18T09:56:44Z</time>
      </trkpt>
      <trkpt lat="43.60826" lon="6.29622">
        <ele>749</ele>
        <time>2023-12-18T09:56:54Z</time>
      </trkpt>
      <trkpt lat="43.60821" lon="6.29633">
        <ele>749</ele>
        <time>2023-12-18T09:57:07Z</time>
      </trkpt>
      <trkpt lat="43.6082" lon="6.29645">
        <ele>749.2</ele>
        <time>2023-12-18T09:57:21Z</time>
      </trkpt>
      <trkpt lat="43.60828" lon="6.29653">
        <ele>749.7</ele>
        <time>2023-12-18T09:57:32Z</time>
      </trkpt>
      <trkpt lat="43.60836" lon="6.29661">
        <ele>749.9</ele>
        <time>2023-12-18T09:57:42Z</time>
      </trkpt>
      <trkpt lat="43.60845" lon="6.29669">
        <ele>750.4</ele>
        <time>2023-12-18T09:57:52Z</time>
      </trkpt>
      <trkpt lat="43.60854" lon="6.29671">
        <ele>751.3</ele>
        <time>2023-12-18T09:58:04Z</time>
      </trkpt>
      <trkpt lat="43.60864" lon="6.2967">
        <ele>752.2</ele>
        <time>2023-12-18T09:58:16Z</time>
      </trkpt>
      <trkpt lat="43.60874" lon="6.2967">
        <ele>752.8</ele>
        <time>2023-12-18T09:58:27Z</time>
      </trkpt>
      <trkpt lat="43.60883" lon="6.29673">
        <ele>753</ele>
        <time>2023-12-18T09:58:37Z</time>
      </trkpt>
      <trkpt lat="43.6089" lon="6.29681">
        <ele>753.3</ele>
        <time>2023-12-18T09:58:48Z</time>
      </trkpt>
      <trkpt lat="43.60898" lon="6.29689">
        <ele>754</ele>
        <time>2023-12-18T09:59:00Z</time>
      </trkpt>
      <trkpt lat="43.60907" lon="6.29693">
        <ele>755.1</ele>
        <time>2023-12-18T09:59:12Z</time>
      </trkpt>
      <trkpt lat="43.60915" lon="6.29699">
        <ele>756.4</ele>
        <time>2023-12-18T09:59:25Z</time>
      </trkpt>
      <trkpt lat="43.60924" lon="6.29702">
        <ele>757.5</ele>
        <time>2023-12-18T09:59:43Z</time>
      </trkpt>
      <trkpt lat="43.60932" lon="6.29708">
        <ele>757.2</ele>
        <time>2023-12-18T09:59:58Z</time>
      </trkpt>
      <trkpt lat="43.6094" lon="6.29716">
        <ele>758.4</ele>
        <time>2023-12-18T10:00:11Z</time>
      </trkpt>
      <trkpt lat="43.60949" lon="6.29723">
        <ele>759.7</ele>
        <time>2023-12-18T10:00:28Z</time>
      </trkpt>
      <trkpt lat="43.60957" lon="6.29728">
        <ele>759.5</ele>
        <time>2023-12-18T10:00:41Z</time>
      </trkpt>
      <trkpt lat="43.60966" lon="6.2973">
        <ele>761.2</ele>
        <time>2023-12-18T10:00:53Z</time>
      </trkpt>
      <trkpt lat="43.60975" lon="6.29735">
        <ele>762.5</ele>
        <time>2023-12-18T10:01:11Z</time>
      </trkpt>
      <trkpt lat="43.60984" lon="6.29737">
        <ele>762.5</ele>
        <time>2023-12-18T10:01:22Z</time>
      </trkpt>
      <trkpt lat="43.60993" lon="6.29738">
        <ele>763.3</ele>
        <time>2023-12-18T10:01:36Z</time>
      </trkpt>
      <trkpt lat="43.61002" lon="6.29741">
        <ele>762.9</ele>
        <time>2023-12-18T10:01:51Z</time>
      </trkpt>
      <trkpt lat="43.61011" lon="6.29743">
        <ele>761.8</ele>
        <time>2023-12-18T10:02:04Z</time>
      </trkpt>
      <trkpt lat="43.61021" lon="6.29745">
        <ele>761</ele>
        <time>2023-12-18T10:02:16Z</time>
      </trkpt>
      <trkpt lat="43.6103" lon="6.29748">
        <ele>760.2</ele>
        <time>2023-12-18T10:02:26Z</time>
      </trkpt>
      <trkpt lat="43.61037" lon="6.29757">
        <ele>758.9</ele>
        <time>2023-12-18T10:02:37Z</time>
      </trkpt>
      <trkpt lat="43.61039" lon="6.29769">
        <ele>758.2</ele>
        <time>2023-12-18T10:02:46Z</time>
      </trkpt>
      <trkpt lat="43.61037" lon="6.29783">
        <ele>758.9</ele>
        <time>2023-12-18T10:02:58Z</time>
      </trkpt>
      <trkpt lat="43.61032" lon="6.29793">
        <ele>759.6</ele>
        <time>2023-12-18T10:03:08Z</time>
      </trkpt>
      <trkpt lat="43.61025" lon="6.29804">
        <ele>760.8</ele>
        <time>2023-12-18T10:03:19Z</time>
      </trkpt>
      <trkpt lat="43.61021" lon="6.29815">
        <ele>762.7</ele>
        <time>2023-12-18T10:03:41Z</time>
      </trkpt>
      <trkpt lat="43.61017" lon="6.29826">
        <ele>763.7</ele>
        <time>2023-12-18T10:03:54Z</time>
      </trkpt>
      <trkpt lat="43.61019" lon="6.29839">
        <ele>765</ele>
        <time>2023-12-18T10:04:06Z</time>
      </trkpt>
      <trkpt lat="43.61024" lon="6.29849">
        <ele>766.6</ele>
        <time>2023-12-18T10:04:21Z</time>
      </trkpt>
      <trkpt lat="43.61031" lon="6.29858">
        <ele>767.4</ele>
        <time>2023-12-18T10:07:18Z</time>
      </trkpt>
      <trkpt lat="43.61033" lon="6.29872">
        <ele>767.6</ele>
        <time>2023-12-18T10:07:29Z</time>
      </trkpt>
      <trkpt lat="43.61031" lon="6.29885">
        <ele>766.7</ele>
        <time>2023-12-18T10:07:40Z</time>
      </trkpt>
      <trkpt lat="43.61025" lon="6.29895">
        <ele>763.8</ele>
        <time>2023-12-18T10:09:31Z</time>
      </trkpt>
      <trkpt lat="43.61019" lon="6.29904">
        <ele>762.1</ele>
        <time>2023-12-18T10:10:13Z</time>
      </trkpt>
      <trkpt lat="43.61015" lon="6.29917">
        <ele>762.6</ele>
        <time>2023-12-18T10:10:24Z</time>
      </trkpt>
      <trkpt lat="43.61013" lon="6.2993">
        <ele>764</ele>
        <time>2023-12-18T10:10:40Z</time>
      </trkpt>
      <trkpt lat="43.61012" lon="6.29942">
        <ele>764.4</ele>
        <time>2023-12-18T10:10:52Z</time>
      </trkpt>
      <trkpt lat="43.61006" lon="6.29952">
        <ele>762.1</ele>
        <time>2023-12-18T10:11:04Z</time>
      </trkpt>
      <trkpt lat="43.61" lon="6.29962">
        <ele>763.2</ele>
        <time>2023-12-18T10:11:17Z</time>
      </trkpt>
      <trkpt lat="43.60999" lon="6.29975">
        <ele>762.5</ele>
        <time>2023-12-18T10:11:27Z</time>
      </trkpt>
      <trkpt lat="43.61005" lon="6.29986">
        <ele>761.5</ele>
        <time>2023-12-18T10:11:37Z</time>
      </trkpt>
      <trkpt lat="43.61011" lon="6.29996">
        <ele>760.1</ele>
        <time>2023-12-18T10:11:48Z</time>
      </trkpt>
      <trkpt lat="43.61016" lon="6.29984">
        <ele>760.3</ele>
        <time>2023-12-18T10:12:14Z</time>
      </trkpt>
      <trkpt lat="43.61019" lon="6.29996">
        <ele>757.9</ele>
        <time>2023-12-18T10:13:50Z</time>
      </trkpt>
      <trkpt lat="43.61028" lon="6.30001">
        <ele>750.2</ele>
        <time>2023-12-18T10:16:08Z</time>
      </trkpt>
      <trkpt lat="43.61036" lon="6.29996">
        <ele>750.8</ele>
        <time>2023-12-18T10:16:22Z</time>
      </trkpt>
      <trkpt lat="43.61045" lon="6.29992">
        <ele>752.2</ele>
        <time>2023-12-18T10:16:38Z</time>
      </trkpt>
      <trkpt lat="43.61054" lon="6.29991">
        <ele>753.2</ele>
        <time>2023-12-18T10:16:54Z</time>
      </trkpt>
      <trkpt lat="43.61063" lon="6.29995">
        <ele>753.8</ele>
        <time>2023-12-18T10:17:06Z</time>
      </trkpt>
      <trkpt lat="43.6107" lon="6.30003">
        <ele>754.4</ele>
        <time>2023-12-18T10:17:15Z</time>
      </trkpt>
      <trkpt lat="43.61077" lon="6.30012">
        <ele>754.9</ele>
        <time>2023-12-18T10:17:28Z</time>
      </trkpt>
      <trkpt lat="43.61085" lon="6.30018">
        <ele>755.3</ele>
        <time>2023-12-18T10:18:06Z</time>
      </trkpt>
      <trkpt lat="43.61094" lon="6.30023">
        <ele>755.4</ele>
        <time>2023-12-18T10:18:16Z</time>
      </trkpt>
      <trkpt lat="43.61102" lon="6.30029">
        <ele>756.1</ele>
        <time>2023-12-18T10:18:27Z</time>
      </trkpt>
      <trkpt lat="43.6111" lon="6.30033">
        <ele>756.9</ele>
        <time>2023-12-18T10:18:40Z</time>
      </trkpt>
      <trkpt lat="43.61119" lon="6.30035">
        <ele>757.6</ele>
        <time>2023-12-18T10:18:54Z</time>
      </trkpt>
      <trkpt lat="43.61128" lon="6.30038">
        <ele>758</ele>
        <time>2023-12-18T10:19:12Z</time>
      </trkpt>
      <trkpt lat="43.61136" lon="6.30031">
        <ele>758</ele>
        <time>2023-12-18T10:19:30Z</time>
      </trkpt>
      <trkpt lat="43.61146" lon="6.3003">
        <ele>758.3</ele>
        <time>2023-12-18T10:19:42Z</time>
      </trkpt>
      <trkpt lat="43.61155" lon="6.30029">
        <ele>758.6</ele>
        <time>2023-12-18T10:19:53Z</time>
      </trkpt>
      <trkpt lat="43.61165" lon="6.30029">
        <ele>758.7</ele>
        <time>2023-12-18T10:20:02Z</time>
      </trkpt>
      <trkpt lat="43.61174" lon="6.30029">
        <ele>758.8</ele>
        <time>2023-12-18T10:20:11Z</time>
      </trkpt>
      <trkpt lat="43.61184" lon="6.30026">
        <ele>759.1</ele>
        <time>2023-12-18T10:20:21Z</time>
      </trkpt>
      <trkpt lat="43.61192" lon="6.3002">
        <ele>759.2</ele>
        <time>2023-12-18T10:20:43Z</time>
      </trkpt>
      <trkpt lat="43.612" lon="6.30016">
        <ele>758.3</ele>
        <time>2023-12-18T10:21:11Z</time>
      </trkpt>
      <trkpt lat="43.61209" lon="6.30018">
        <ele>758.2</ele>
        <time>2023-12-18T10:21:22Z</time>
      </trkpt>
      <trkpt lat="43.61219" lon="6.30022">
        <ele>757.9</ele>
        <time>2023-12-18T10:21:35Z</time>
      </trkpt>
      <trkpt lat="43.61227" lon="6.30028">
        <ele>757.7</ele>
        <time>2023-12-18T10:21:43Z</time>
      </trkpt>
      <trkpt lat="43.61233" lon="6.30037">
        <ele>757.2</ele>
        <time>2023-12-18T10:21:53Z</time>
      </trkpt>
      <trkpt lat="43.61236" lon="6.3005">
        <ele>756.9</ele>
        <time>2023-12-18T10:22:05Z</time>
      </trkpt>
      <trkpt lat="43.61237" lon="6.30062">
        <ele>757.3</ele>
        <time>2023-12-18T10:22:21Z</time>
      </trkpt>
      <trkpt lat="43.61236" lon="6.30076">
        <ele>757.6</ele>
        <time>2023-12-18T10:22:33Z</time>
      </trkpt>
      <trkpt lat="43.61234" lon="6.30088">
        <ele>758</ele>
        <time>2023-12-18T10:22:46Z</time>
      </trkpt>
      <trkpt lat="43.61235" lon="6.30101">
        <ele>758.4</ele>
        <time>2023-12-18T10:22:58Z</time>
      </trkpt>
      <trkpt lat="43.61231" lon="6.30113">
        <ele>758.9</ele>
        <time>2023-12-18T10:23:06Z</time>
      </trkpt>
      <trkpt lat="43.61229" lon="6.30125">
        <ele>759.2</ele>
        <time>2023-12-18T10:23:17Z</time>
      </trkpt>
      <trkpt lat="43.61232" lon="6.30138">
        <ele>755.9</ele>
        <time>2023-12-18T10:24:53Z</time>
      </trkpt>
      <trkpt lat="43.61235" lon="6.3015">
        <ele>753.4</ele>
        <time>2023-12-18T10:25:15Z</time>
      </trkpt>
      <trkpt lat="43.61242" lon="6.30159">
        <ele>751.9</ele>
        <time>2023-12-18T10:25:46Z</time>
      </trkpt>
      <trkpt lat="43.6125" lon="6.30165">
        <ele>749</ele>
        <time>2023-12-18T10:26:45Z</time>
      </trkpt>
      <trkpt lat="43.61255" lon="6.30176">
        <ele>748.2</ele>
        <time>2023-12-18T10:26:57Z</time>
      </trkpt>
      <trkpt lat="43.61263" lon="6.30184">
        <ele>746.3</ele>
        <time>2023-12-18T10:27:31Z</time>
      </trkpt>
      <trkpt lat="43.6127" lon="6.30192">
        <ele>745.1</ele>
        <time>2023-12-18T10:27:43Z</time>
      </trkpt>
      <trkpt lat="43.61271" lon="6.30206">
        <ele>744.3</ele>
        <time>2023-12-18T10:27:54Z</time>
      </trkpt>
      <trkpt lat="43.61272" lon="6.30219">
        <ele>742.3</ele>
        <time>2023-12-18T10:28:04Z</time>
      </trkpt>
      <trkpt lat="43.61267" lon="6.3023">
        <ele>741.4</ele>
        <time>2023-12-18T10:28:14Z</time>
      </trkpt>
      <trkpt lat="43.61264" lon="6.30242">
        <ele>742</ele>
        <time>2023-12-18T10:28:30Z</time>
      </trkpt>
      <trkpt lat="43.61258" lon="6.30252">
        <ele>743.1</ele>
        <time>2023-12-18T10:28:42Z</time>
      </trkpt>
      <trkpt lat="43.61249" lon="6.30255">
        <ele>744.1</ele>
        <time>2023-12-18T10:28:54Z</time>
      </trkpt>
      <trkpt lat="43.61241" lon="6.30262">
        <ele>744.6</ele>
        <time>2023-12-18T10:29:07Z</time>
      </trkpt>
      <trkpt lat="43.61233" lon="6.30269">
        <ele>744.8</ele>
        <time>2023-12-18T10:29:19Z</time>
      </trkpt>
      <trkpt lat="43.6123" lon="6.30281">
        <ele>744.8</ele>
        <time>2023-12-18T10:29:31Z</time>
      </trkpt>
      <trkpt lat="43.61232" lon="6.30293">
        <ele>745.3</ele>
        <time>2023-12-18T10:29:45Z</time>
      </trkpt>
      <trkpt lat="43.61237" lon="6.30303">
        <ele>746.2</ele>
        <time>2023-12-18T10:30:01Z</time>
      </trkpt>
      <trkpt lat="43.61246" lon="6.30307">
        <ele>747.1</ele>
        <time>2023-12-18T10:30:15Z</time>
      </trkpt>
      <trkpt lat="43.61255" lon="6.30311">
        <ele>747.8</ele>
        <time>2023-12-18T10:30:29Z</time>
      </trkpt>
      <trkpt lat="43.61264" lon="6.30313">
        <ele>748.6</ele>
        <time>2023-12-18T10:30:43Z</time>
      </trkpt>
      <trkpt lat="43.61273" lon="6.30314">
        <ele>748.9</ele>
        <time>2023-12-18T10:30:59Z</time>
      </trkpt>
      <trkpt lat="43.61282" lon="6.30316">
        <ele>749.4</ele>
        <time>2023-12-18T10:31:10Z</time>
      </trkpt>
      <trkpt lat="43.61291" lon="6.30319">
        <ele>747.9</ele>
        <time>2023-12-18T10:31:43Z</time>
      </trkpt>
      <trkpt lat="43.61301" lon="6.3032">
        <ele>747.7</ele>
        <time>2023-12-18T10:32:03Z</time>
      </trkpt>
      <trkpt lat="43.61309" lon="6.30323">
        <ele>749.1</ele>
        <time>2023-12-18T10:32:16Z</time>
      </trkpt>
      <trkpt lat="43.61317" lon="6.30332">
        <ele>752.5</ele>
        <time>2023-12-18T10:32:31Z</time>
      </trkpt>
      <trkpt lat="43.61323" lon="6.30343">
        <ele>752.5</ele>
        <time>2023-12-18T10:32:44Z</time>
      </trkpt>
      <trkpt lat="43.61332" lon="6.30349">
        <ele>752.5</ele>
        <time>2023-12-18T10:32:57Z</time>
      </trkpt>
      <trkpt lat="43.61338" lon="6.30357">
        <ele>753.6</ele>
        <time>2023-12-18T10:33:12Z</time>
      </trkpt>
      <trkpt lat="43.61345" lon="6.30368">
        <ele>755</ele>
        <time>2023-12-18T10:33:26Z</time>
      </trkpt>
      <trkpt lat="43.61348" lon="6.30379">
        <ele>756.1</ele>
        <time>2023-12-18T10:33:37Z</time>
      </trkpt>
      <trkpt lat="43.61348" lon="6.30392">
        <ele>755</ele>
        <time>2023-12-18T10:34:00Z</time>
      </trkpt>
      <trkpt lat="43.61352" lon="6.30404">
        <ele>755.1</ele>
        <time>2023-12-18T10:34:55Z</time>
      </trkpt>
      <trkpt lat="43.61355" lon="6.30416">
        <ele>754.3</ele>
        <time>2023-12-18T10:35:42Z</time>
      </trkpt>
      <trkpt lat="43.6136" lon="6.30427">
        <ele>754</ele>
        <time>2023-12-18T10:35:52Z</time>
      </trkpt>
      <trkpt lat="43.61368" lon="6.30435">
        <ele>754</ele>
        <time>2023-12-18T10:36:07Z</time>
      </trkpt>
      <trkpt lat="43.61376" lon="6.30441">
        <ele>753.3</ele>
        <time>2023-12-18T10:36:17Z</time>
      </trkpt>
      <trkpt lat="43.61385" lon="6.30442">
        <ele>753.2</ele>
        <time>2023-12-18T10:36:28Z</time>
      </trkpt>
      <trkpt lat="43.61396" lon="6.30442">
        <ele>752.6</ele>
        <time>2023-12-18T10:36:37Z</time>
      </trkpt>
      <trkpt lat="43.61405" lon="6.30444">
        <ele>751.4</ele>
        <time>2023-12-18T10:36:46Z</time>
      </trkpt>
      <trkpt lat="43.61414" lon="6.30441">
        <ele>750.4</ele>
        <time>2023-12-18T10:36:56Z</time>
      </trkpt>
      <trkpt lat="43.61422" lon="6.30433">
        <ele>749.9</ele>
        <time>2023-12-18T10:37:05Z</time>
      </trkpt>
      <trkpt lat="43.6143" lon="6.30427">
        <ele>750.1</ele>
        <time>2023-12-18T10:37:13Z</time>
      </trkpt>
      <trkpt lat="43.61438" lon="6.3042">
        <ele>750.5</ele>
        <time>2023-12-18T10:37:22Z</time>
      </trkpt>
      <trkpt lat="43.61445" lon="6.30412">
        <ele>751</ele>
        <time>2023-12-18T10:37:34Z</time>
      </trkpt>
      <trkpt lat="43.61454" lon="6.30407">
        <ele>751.7</ele>
        <time>2023-12-18T10:37:44Z</time>
      </trkpt>
      <trkpt lat="43.61463" lon="6.30404">
        <ele>752.2</ele>
        <time>2023-12-18T10:37:53Z</time>
      </trkpt>
      <trkpt lat="43.61473" lon="6.30402">
        <ele>753</ele>
        <time>2023-12-18T10:38:04Z</time>
      </trkpt>
      <trkpt lat="43.61482" lon="6.304">
        <ele>754</ele>
        <time>2023-12-18T10:38:22Z</time>
      </trkpt>
      <trkpt lat="43.61491" lon="6.30396">
        <ele>753.4</ele>
        <time>2023-12-18T10:38:36Z</time>
      </trkpt>
      <trkpt lat="43.61501" lon="6.30396">
        <ele>753.7</ele>
        <time>2023-12-18T10:38:46Z</time>
      </trkpt>
      <trkpt lat="43.6151" lon="6.30399">
        <ele>754.1</ele>
        <time>2023-12-18T10:38:54Z</time>
      </trkpt>
      <trkpt lat="43.61518" lon="6.30406">
        <ele>754.9</ele>
        <time>2023-12-18T10:39:07Z</time>
      </trkpt>
      <trkpt lat="43.61524" lon="6.30416">
        <ele>754.7</ele>
        <time>2023-12-18T10:39:18Z</time>
      </trkpt>
      <trkpt lat="43.61527" lon="6.30429">
        <ele>755.3</ele>
        <time>2023-12-18T10:39:31Z</time>
      </trkpt>
      <trkpt lat="43.61526" lon="6.30441">
        <ele>756.2</ele>
        <time>2023-12-18T10:39:41Z</time>
      </trkpt>
      <trkpt lat="43.61524" lon="6.30454">
        <ele>757.6</ele>
        <time>2023-12-18T10:39:53Z</time>
      </trkpt>
      <trkpt lat="43.61518" lon="6.30464">
        <ele>757.4</ele>
        <time>2023-12-18T10:40:03Z</time>
      </trkpt>
      <trkpt lat="43.61513" lon="6.30476">
        <ele>757.1</ele>
        <time>2023-12-18T10:40:22Z</time>
      </trkpt>
      <trkpt lat="43.61509" lon="6.30488">
        <ele>757</ele>
        <time>2023-12-18T10:40:28Z</time>
      </trkpt>
      <trkpt lat="43.61505" lon="6.305">
        <ele>756.9</ele>
        <time>2023-12-18T10:40:35Z</time>
      </trkpt>
      <trkpt lat="43.61502" lon="6.30512">
        <ele>756.7</ele>
        <time>2023-12-18T10:40:42Z</time>
      </trkpt>
      <trkpt lat="43.61501" lon="6.30525">
        <ele>755.7</ele>
        <time>2023-12-18T10:40:51Z</time>
      </trkpt>
      <trkpt lat="43.615" lon="6.30539">
        <ele>753.2</ele>
        <time>2023-12-18T10:41:06Z</time>
      </trkpt>
      <trkpt lat="43.61503" lon="6.3055">
        <ele>752.1</ele>
        <time>2023-12-18T10:41:20Z</time>
      </trkpt>
      <trkpt lat="43.61507" lon="6.30561">
        <ele>750.4</ele>
        <time>2023-12-18T10:41:39Z</time>
      </trkpt>
      <trkpt lat="43.61516" lon="6.30565">
        <ele>750.6</ele>
        <time>2023-12-18T10:41:51Z</time>
      </trkpt>
      <trkpt lat="43.61525" lon="6.30572">
        <ele>750.8</ele>
        <time>2023-12-18T10:42:03Z</time>
      </trkpt>
      <trkpt lat="43.61533" lon="6.30575">
        <ele>751.4</ele>
        <time>2023-12-18T10:42:14Z</time>
      </trkpt>
      <trkpt lat="43.61543" lon="6.30574">
        <ele>751.9</ele>
        <time>2023-12-18T10:42:27Z</time>
      </trkpt>
      <trkpt lat="43.61551" lon="6.30569">
        <ele>751.9</ele>
        <time>2023-12-18T10:42:40Z</time>
      </trkpt>
      <trkpt lat="43.6156" lon="6.30562">
        <ele>751.5</ele>
        <time>2023-12-18T10:42:47Z</time>
      </trkpt>
      <trkpt lat="43.61569" lon="6.30557">
        <ele>750.8</ele>
        <time>2023-12-18T10:42:57Z</time>
      </trkpt>
      <trkpt lat="43.61578" lon="6.30558">
        <ele>749.7</ele>
        <time>2023-12-18T10:43:10Z</time>
      </trkpt>
      <trkpt lat="43.61582" lon="6.30569">
        <ele>748.5</ele>
        <time>2023-12-18T10:43:28Z</time>
      </trkpt>
      <trkpt lat="43.61578" lon="6.3058">
        <ele>748.1</ele>
        <time>2023-12-18T10:43:41Z</time>
      </trkpt>
      <trkpt lat="43.61572" lon="6.3059">
        <ele>746</ele>
        <time>2023-12-18T10:43:53Z</time>
      </trkpt>
      <trkpt lat="43.61572" lon="6.30603">
        <ele>744.8</ele>
        <time>2023-12-18T10:44:10Z</time>
      </trkpt>
      <trkpt lat="43.61572" lon="6.30616">
        <ele>744.6</ele>
        <time>2023-12-18T10:44:20Z</time>
      </trkpt>
      <trkpt lat="43.6157" lon="6.30628">
        <ele>744.3</ele>
        <time>2023-12-18T10:44:29Z</time>
      </trkpt>
      <trkpt lat="43.61566" lon="6.3064">
        <ele>744.4</ele>
        <time>2023-12-18T10:44:39Z</time>
      </trkpt>
      <trkpt lat="43.61563" lon="6.30652">
        <ele>744.5</ele>
        <time>2023-12-18T10:44:48Z</time>
      </trkpt>
      <trkpt lat="43.61561" lon="6.30665">
        <ele>744.3</ele>
        <time>2023-12-18T10:44:59Z</time>
      </trkpt>
      <trkpt lat="43.61565" lon="6.30677">
        <ele>743.7</ele>
        <time>2023-12-18T10:45:12Z</time>
      </trkpt>
      <trkpt lat="43.61569" lon="6.30689">
        <ele>744.3</ele>
        <time>2023-12-18T10:45:22Z</time>
      </trkpt>
      <trkpt lat="43.61574" lon="6.30699">
        <ele>744.3</ele>
        <time>2023-12-18T10:45:33Z</time>
      </trkpt>
      <trkpt lat="43.61582" lon="6.30706">
        <ele>743.5</ele>
        <time>2023-12-18T10:45:44Z</time>
      </trkpt>
      <trkpt lat="43.61591" lon="6.30708">
        <ele>743.9</ele>
        <time>2023-12-18T10:45:55Z</time>
      </trkpt>
      <trkpt lat="43.61601" lon="6.30711">
        <ele>744.2</ele>
        <time>2023-12-18T10:46:06Z</time>
      </trkpt>
      <trkpt lat="43.6161" lon="6.30713">
        <ele>743.7</ele>
        <time>2023-12-18T10:46:17Z</time>
      </trkpt>
      <trkpt lat="43.61618" lon="6.30719">
        <ele>744.6</ele>
        <time>2023-12-18T10:46:32Z</time>
      </trkpt>
      <trkpt lat="43.61625" lon="6.3071">
        <ele>746.5</ele>
        <time>2023-12-18T10:50:59Z</time>
      </trkpt>
      <trkpt lat="43.61631" lon="6.307">
        <ele>747.8</ele>
        <time>2023-12-18T10:51:14Z</time>
      </trkpt>
      <trkpt lat="43.61639" lon="6.30693">
        <ele>751.1</ele>
        <time>2023-12-18T10:51:33Z</time>
      </trkpt>
      <trkpt lat="43.61646" lon="6.30684">
        <ele>754</ele>
        <time>2023-12-18T10:51:55Z</time>
      </trkpt>
      <trkpt lat="43.61652" lon="6.30674">
        <ele>757.2</ele>
        <time>2023-12-18T10:52:32Z</time>
      </trkpt>
      <trkpt lat="43.61659" lon="6.30667">
        <ele>759.6</ele>
        <time>2023-12-18T10:52:53Z</time>
      </trkpt>
      <trkpt lat="43.61664" lon="6.30656">
        <ele>761.9</ele>
        <time>2023-12-18T10:53:37Z</time>
      </trkpt>
      <trkpt lat="43.6167" lon="6.30645">
        <ele>762.8</ele>
        <time>2023-12-18T10:54:17Z</time>
      </trkpt>
      <trkpt lat="43.61676" lon="6.30635">
        <ele>766</ele>
        <time>2023-12-18T10:54:33Z</time>
      </trkpt>
      <trkpt lat="43.61679" lon="6.30624">
        <ele>768.2</ele>
        <time>2023-12-18T10:54:48Z</time>
      </trkpt>
      <trkpt lat="43.6168" lon="6.30611">
        <ele>770.7</ele>
        <time>2023-12-18T10:55:12Z</time>
      </trkpt>
      <trkpt lat="43.61683" lon="6.30599">
        <ele>774</ele>
        <time>2023-12-18T10:55:35Z</time>
      </trkpt>
      <trkpt lat="43.61689" lon="6.3059">
        <ele>774.6</ele>
        <time>2023-12-18T10:55:53Z</time>
      </trkpt>
      <trkpt lat="43.61696" lon="6.30581">
        <ele>777.9</ele>
        <time>2023-12-18T10:56:14Z</time>
      </trkpt>
      <trkpt lat="43.617" lon="6.3057">
        <ele>780</ele>
        <time>2023-12-18T10:56:31Z</time>
      </trkpt>
      <trkpt lat="43.61699" lon="6.30557">
        <ele>781.1</ele>
        <time>2023-12-18T10:56:57Z</time>
      </trkpt>
      <trkpt lat="43.61703" lon="6.30546">
        <ele>784.1</ele>
        <time>2023-12-18T10:57:13Z</time>
      </trkpt>
      <trkpt lat="43.61708" lon="6.30535">
        <ele>786.9</ele>
        <time>2023-12-18T10:57:36Z</time>
      </trkpt>
      <trkpt lat="43.61699" lon="6.30538">
        <ele>788.1</ele>
        <time>2023-12-18T11:01:12Z</time>
      </trkpt>
      <trkpt lat="43.61706" lon="6.30528">
        <ele>788.9</ele>
        <time>2023-12-18T11:02:20Z</time>
      </trkpt>
      <trkpt lat="43.61711" lon="6.30518">
        <ele>790.6</ele>
        <time>2023-12-18T11:02:34Z</time>
      </trkpt>
      <trkpt lat="43.61716" lon="6.30506">
        <ele>792.3</ele>
        <time>2023-12-18T11:02:49Z</time>
      </trkpt>
      <trkpt lat="43.61722" lon="6.30497">
        <ele>794.5</ele>
        <time>2023-12-18T11:03:07Z</time>
      </trkpt>
      <trkpt lat="43.61731" lon="6.30494">
        <ele>796.5</ele>
        <time>2023-12-18T11:03:24Z</time>
      </trkpt>
      <trkpt lat="43.61738" lon="6.30487">
        <ele>798.5</ele>
        <time>2023-12-18T11:03:42Z</time>
      </trkpt>
      <trkpt lat="43.61745" lon="6.30477">
        <ele>800.3</ele>
        <time>2023-12-18T11:03:58Z</time>
      </trkpt>
      <trkpt lat="43.61751" lon="6.30466">
        <ele>802</ele>
        <time>2023-12-18T11:04:13Z</time>
      </trkpt>
      <trkpt lat="43.61756" lon="6.30455">
        <ele>803.4</ele>
        <time>2023-12-18T11:04:27Z</time>
      </trkpt>
      <trkpt lat="43.6176" lon="6.30443">
        <ele>805.7</ele>
        <time>2023-12-18T11:04:44Z</time>
      </trkpt>
      <trkpt lat="43.61767" lon="6.30435">
        <ele>807.5</ele>
        <time>2023-12-18T11:04:58Z</time>
      </trkpt>
      <trkpt lat="43.61774" lon="6.30426">
        <ele>809.5</ele>
        <time>2023-12-18T11:05:15Z</time>
      </trkpt>
      <trkpt lat="43.61778" lon="6.30415">
        <ele>812.3</ele>
        <time>2023-12-18T11:05:35Z</time>
      </trkpt>
      <trkpt lat="43.6178" lon="6.30403">
        <ele>815</ele>
        <time>2023-12-18T11:06:04Z</time>
      </trkpt>
      <trkpt lat="43.61784" lon="6.30391">
        <ele>817.7</ele>
        <time>2023-12-18T11:06:38Z</time>
      </trkpt>
      <trkpt lat="43.61792" lon="6.30385">
        <ele>817.6</ele>
        <time>2023-12-18T11:09:03Z</time>
      </trkpt>
      <trkpt lat="43.61799" lon="6.30378">
        <ele>818.9</ele>
        <time>2023-12-18T11:09:17Z</time>
      </trkpt>
      <trkpt lat="43.61805" lon="6.30368">
        <ele>820.3</ele>
        <time>2023-12-18T11:09:33Z</time>
      </trkpt>
      <trkpt lat="43.61809" lon="6.30357">
        <ele>822.5</ele>
        <time>2023-12-18T11:09:51Z</time>
      </trkpt>
      <trkpt lat="43.61811" lon="6.30344">
        <ele>824.6</ele>
        <time>2023-12-18T11:10:06Z</time>
      </trkpt>
      <trkpt lat="43.61815" lon="6.30332">
        <ele>826.1</ele>
        <time>2023-12-18T11:10:22Z</time>
      </trkpt>
      <trkpt lat="43.61819" lon="6.3032">
        <ele>826.2</ele>
        <time>2023-12-18T11:10:42Z</time>
      </trkpt>
      <trkpt lat="43.61826" lon="6.30311">
        <ele>825.8</ele>
        <time>2023-12-18T11:10:55Z</time>
      </trkpt>
      <trkpt lat="43.61835" lon="6.30307">
        <ele>824.8</ele>
        <time>2023-12-18T11:11:16Z</time>
      </trkpt>
      <trkpt lat="43.61863" lon="6.30347">
        <ele>824.6</ele>
        <time>2023-12-18T12:07:52Z</time>
      </trkpt>
      <trkpt lat="43.6187" lon="6.30357">
        <ele>822.6</ele>
        <time>2023-12-18T12:08:05Z</time>
      </trkpt>
      <trkpt lat="43.61879" lon="6.30359">
        <ele>821.6</ele>
        <time>2023-12-18T12:08:15Z</time>
      </trkpt>
      <trkpt lat="43.61888" lon="6.30362">
        <ele>822.2</ele>
        <time>2023-12-18T12:08:26Z</time>
      </trkpt>
      <trkpt lat="43.61897" lon="6.30367">
        <ele>822</ele>
        <time>2023-12-18T12:08:37Z</time>
      </trkpt>
      <trkpt lat="43.61907" lon="6.3037">
        <ele>823</ele>
        <time>2023-12-18T12:08:46Z</time>
      </trkpt>
      <trkpt lat="43.61915" lon="6.30375">
        <ele>822</ele>
        <time>2023-12-18T12:09:01Z</time>
      </trkpt>
      <trkpt lat="43.61924" lon="6.30381">
        <ele>821.5</ele>
        <time>2023-12-18T12:09:15Z</time>
      </trkpt>
      <trkpt lat="43.61932" lon="6.30387">
        <ele>821.2</ele>
        <time>2023-12-18T12:09:25Z</time>
      </trkpt>
      <trkpt lat="43.61936" lon="6.30399">
        <ele>821.7</ele>
        <time>2023-12-18T12:09:35Z</time>
      </trkpt>
      <trkpt lat="43.61939" lon="6.30413">
        <ele>823.6</ele>
        <time>2023-12-18T12:09:45Z</time>
      </trkpt>
      <trkpt lat="43.61939" lon="6.30426">
        <ele>823.8</ele>
        <time>2023-12-18T12:09:54Z</time>
      </trkpt>
      <trkpt lat="43.61943" lon="6.30437">
        <ele>823.9</ele>
        <time>2023-12-18T12:10:03Z</time>
      </trkpt>
      <trkpt lat="43.61945" lon="6.3045">
        <ele>824.3</ele>
        <time>2023-12-18T12:10:16Z</time>
      </trkpt>
      <trkpt lat="43.61943" lon="6.30463">
        <ele>825.2</ele>
        <time>2023-12-18T12:10:28Z</time>
      </trkpt>
      <trkpt lat="43.61942" lon="6.30476">
        <ele>826.9</ele>
        <time>2023-12-18T12:10:37Z</time>
      </trkpt>
      <trkpt lat="43.6194" lon="6.30489">
        <ele>826.3</ele>
        <time>2023-12-18T12:10:49Z</time>
      </trkpt>
      <trkpt lat="43.61939" lon="6.30502">
        <ele>825.6</ele>
        <time>2023-12-18T12:10:59Z</time>
      </trkpt>
      <trkpt lat="43.61935" lon="6.30514">
        <ele>825.6</ele>
        <time>2023-12-18T12:11:11Z</time>
      </trkpt>
      <trkpt lat="43.61933" lon="6.30527">
        <ele>826.4</ele>
        <time>2023-12-18T12:11:23Z</time>
      </trkpt>
      <trkpt lat="43.61932" lon="6.3054">
        <ele>826.5</ele>
        <time>2023-12-18T12:11:32Z</time>
      </trkpt>
      <trkpt lat="43.61931" lon="6.30553">
        <ele>827.2</ele>
        <time>2023-12-18T12:11:43Z</time>
      </trkpt>
      <trkpt lat="43.61932" lon="6.30565">
        <ele>827.3</ele>
        <time>2023-12-18T12:11:55Z</time>
      </trkpt>
      <trkpt lat="43.61933" lon="6.30579">
        <ele>827.1</ele>
        <time>2023-12-18T12:12:10Z</time>
      </trkpt>
      <trkpt lat="43.61935" lon="6.30591">
        <ele>826.8</ele>
        <time>2023-12-18T12:12:18Z</time>
      </trkpt>
      <trkpt lat="43.61936" lon="6.30603">
        <ele>826.4</ele>
        <time>2023-12-18T12:12:27Z</time>
      </trkpt>
      <trkpt lat="43.61939" lon="6.30616">
        <ele>825.3</ele>
        <time>2023-12-18T12:12:38Z</time>
      </trkpt>
      <trkpt lat="43.61944" lon="6.30627">
        <ele>826.6</ele>
        <time>2023-12-18T12:12:54Z</time>
      </trkpt>
      <trkpt lat="43.61948" lon="6.30638">
        <ele>826.6</ele>
        <time>2023-12-18T12:13:04Z</time>
      </trkpt>
      <trkpt lat="43.61951" lon="6.30651">
        <ele>826.3</ele>
        <time>2023-12-18T12:13:21Z</time>
      </trkpt>
      <trkpt lat="43.61952" lon="6.30664">
        <ele>826.1</ele>
        <time>2023-12-18T12:13:30Z</time>
      </trkpt>
      <trkpt lat="43.61955" lon="6.30677">
        <ele>825.9</ele>
        <time>2023-12-18T12:13:39Z</time>
      </trkpt>
      <trkpt lat="43.61956" lon="6.3069">
        <ele>825.6</ele>
        <time>2023-12-18T12:13:49Z</time>
      </trkpt>
      <trkpt lat="43.61961" lon="6.30702">
        <ele>825.5</ele>
        <time>2023-12-18T12:13:58Z</time>
      </trkpt>
      <trkpt lat="43.61967" lon="6.30712">
        <ele>825.5</ele>
        <time>2023-12-18T12:14:08Z</time>
      </trkpt>
      <trkpt lat="43.61972" lon="6.30723">
        <ele>825.7</ele>
        <time>2023-12-18T12:14:18Z</time>
      </trkpt>
      <trkpt lat="43.6198" lon="6.30731">
        <ele>825.1</ele>
        <time>2023-12-18T12:14:30Z</time>
      </trkpt>
      <trkpt lat="43.61988" lon="6.30739">
        <ele>826</ele>
        <time>2023-12-18T12:14:41Z</time>
      </trkpt>
      <trkpt lat="43.61995" lon="6.30748">
        <ele>825.8</ele>
        <time>2023-12-18T12:14:50Z</time>
      </trkpt>
      <trkpt lat="43.62001" lon="6.30757">
        <ele>826</ele>
        <time>2023-12-18T12:15:00Z</time>
      </trkpt>
      <trkpt lat="43.62006" lon="6.30769">
        <ele>826.2</ele>
        <time>2023-12-18T12:15:11Z</time>
      </trkpt>
      <trkpt lat="43.62011" lon="6.3078">
        <ele>824.6</ele>
        <time>2023-12-18T12:15:32Z</time>
      </trkpt>
      <trkpt lat="43.62017" lon="6.30789">
        <ele>824.2</ele>
        <time>2023-12-18T12:15:39Z</time>
      </trkpt>
      <trkpt lat="43.62023" lon="6.30798">
        <ele>823.1</ele>
        <time>2023-12-18T12:15:48Z</time>
      </trkpt>
      <trkpt lat="43.62027" lon="6.3081">
        <ele>821.2</ele>
        <time>2023-12-18T12:16:06Z</time>
      </trkpt>
      <trkpt lat="43.62033" lon="6.3082">
        <ele>819.4</ele>
        <time>2023-12-18T12:16:16Z</time>
      </trkpt>
      <trkpt lat="43.6204" lon="6.30828">
        <ele>817.8</ele>
        <time>2023-12-18T12:16:25Z</time>
      </trkpt>
      <trkpt lat="43.62048" lon="6.30836">
        <ele>815.9</ele>
        <time>2023-12-18T12:16:37Z</time>
      </trkpt>
      <trkpt lat="43.62057" lon="6.30841">
        <ele>813.8</ele>
        <time>2023-12-18T12:16:52Z</time>
      </trkpt>
      <trkpt lat="43.62066" lon="6.30837">
        <ele>811.7</ele>
        <time>2023-12-18T12:17:09Z</time>
      </trkpt>
      <trkpt lat="43.62074" lon="6.30831">
        <ele>810.4</ele>
        <time>2023-12-18T12:17:20Z</time>
      </trkpt>
      <trkpt lat="43.62081" lon="6.30823">
        <ele>809.1</ele>
        <time>2023-12-18T12:17:31Z</time>
      </trkpt>
      <trkpt lat="43.62088" lon="6.30814">
        <ele>808.3</ele>
        <time>2023-12-18T12:17:42Z</time>
      </trkpt>
      <trkpt lat="43.62097" lon="6.30808">
        <ele>807.2</ele>
        <time>2023-12-18T12:17:54Z</time>
      </trkpt>
      <trkpt lat="43.62106" lon="6.30804">
        <ele>805.5</ele>
        <time>2023-12-18T12:18:26Z</time>
      </trkpt>
      <trkpt lat="43.62115" lon="6.30804">
        <ele>804.2</ele>
        <time>2023-12-18T12:19:40Z</time>
      </trkpt>
      <trkpt lat="43.62121" lon="6.30814">
        <ele>802.6</ele>
        <time>2023-12-18T12:20:06Z</time>
      </trkpt>
      <trkpt lat="43.62128" lon="6.30821">
        <ele>801.1</ele>
        <time>2023-12-18T12:20:34Z</time>
      </trkpt>
      <trkpt lat="43.62138" lon="6.30821">
        <ele>799.2</ele>
        <time>2023-12-18T12:21:33Z</time>
      </trkpt>
      <trkpt lat="43.62147" lon="6.30821">
        <ele>799.3</ele>
        <time>2023-12-18T12:21:43Z</time>
      </trkpt>
      <trkpt lat="43.62155" lon="6.30827">
        <ele>794</ele>
        <time>2023-12-18T12:22:00Z</time>
      </trkpt>
      <trkpt lat="43.62163" lon="6.30834">
        <ele>789.3</ele>
        <time>2023-12-18T12:22:15Z</time>
      </trkpt>
      <trkpt lat="43.62171" lon="6.3084">
        <ele>790.4</ele>
        <time>2023-12-18T12:22:29Z</time>
      </trkpt>
      <trkpt lat="43.6218" lon="6.30845">
        <ele>789.6</ele>
        <time>2023-12-18T12:22:43Z</time>
      </trkpt>
      <trkpt lat="43.62187" lon="6.30852">
        <ele>787.9</ele>
        <time>2023-12-18T12:22:57Z</time>
      </trkpt>
      <trkpt lat="43.62196" lon="6.30857">
        <ele>784.7</ele>
        <time>2023-12-18T12:23:26Z</time>
      </trkpt>
      <trkpt lat="43.62203" lon="6.30864">
        <ele>782.9</ele>
        <time>2023-12-18T12:24:40Z</time>
      </trkpt>
      <trkpt lat="43.62211" lon="6.3087">
        <ele>780.2</ele>
        <time>2023-12-18T12:25:02Z</time>
      </trkpt>
      <trkpt lat="43.62221" lon="6.30872">
        <ele>776</ele>
        <time>2023-12-18T12:25:30Z</time>
      </trkpt>
      <trkpt lat="43.6223" lon="6.30876">
        <ele>775.1</ele>
        <time>2023-12-18T12:25:44Z</time>
      </trkpt>
      <trkpt lat="43.62239" lon="6.30874">
        <ele>772.8</ele>
        <time>2023-12-18T12:25:59Z</time>
      </trkpt>
      <trkpt lat="43.62248" lon="6.30874">
        <ele>770.2</ele>
        <time>2023-12-18T12:26:35Z</time>
      </trkpt>
      <trkpt lat="43.62256" lon="6.30882">
        <ele>768.4</ele>
        <time>2023-12-18T12:26:50Z</time>
      </trkpt>
      <trkpt lat="43.62262" lon="6.30892">
        <ele>764.6</ele>
        <time>2023-12-18T12:27:05Z</time>
      </trkpt>
      <trkpt lat="43.62267" lon="6.30902">
        <ele>764.6</ele>
        <time>2023-12-18T12:27:17Z</time>
      </trkpt>
      <trkpt lat="43.62275" lon="6.3091">
        <ele>761.1</ele>
        <time>2023-12-18T12:27:34Z</time>
      </trkpt>
      <trkpt lat="43.62282" lon="6.30919">
        <ele>759.7</ele>
        <time>2023-12-18T12:27:47Z</time>
      </trkpt>
      <trkpt lat="43.62291" lon="6.30924">
        <ele>756.8</ele>
        <time>2023-12-18T12:28:01Z</time>
      </trkpt>
      <trkpt lat="43.623" lon="6.30928">
        <ele>753.3</ele>
        <time>2023-12-18T12:28:15Z</time>
      </trkpt>
      <trkpt lat="43.62308" lon="6.30935">
        <ele>753.3</ele>
        <time>2023-12-18T12:28:29Z</time>
      </trkpt>
      <trkpt lat="43.62316" lon="6.30942">
        <ele>751.5</ele>
        <time>2023-12-18T12:28:42Z</time>
      </trkpt>
      <trkpt lat="43.62325" lon="6.30946">
        <ele>749</ele>
        <time>2023-12-18T12:28:56Z</time>
      </trkpt>
      <trkpt lat="43.62334" lon="6.30946">
        <ele>747.4</ele>
        <time>2023-12-18T12:29:07Z</time>
      </trkpt>
      <trkpt lat="43.62344" lon="6.30943">
        <ele>746.7</ele>
        <time>2023-12-18T12:29:18Z</time>
      </trkpt>
      <trkpt lat="43.62348" lon="6.30932">
        <ele>746.9</ele>
        <time>2023-12-18T12:29:42Z</time>
      </trkpt>
      <trkpt lat="43.62353" lon="6.30943">
        <ele>746.7</ele>
        <time>2023-12-18T12:30:17Z</time>
      </trkpt>
      <trkpt lat="43.62359" lon="6.30952">
        <ele>747.2</ele>
        <time>2023-12-18T12:31:30Z</time>
      </trkpt>
      <trkpt lat="43.62367" lon="6.30961">
        <ele>746.5</ele>
        <time>2023-12-18T12:31:43Z</time>
      </trkpt>
      <trkpt lat="43.62374" lon="6.30969">
        <ele>745.7</ele>
        <time>2023-12-18T12:31:55Z</time>
      </trkpt>
      <trkpt lat="43.62382" lon="6.30976">
        <ele>744.9</ele>
        <time>2023-12-18T12:32:07Z</time>
      </trkpt>
      <trkpt lat="43.62388" lon="6.30985">
        <ele>744.5</ele>
        <time>2023-12-18T12:32:18Z</time>
      </trkpt>
      <trkpt lat="43.62394" lon="6.30996">
        <ele>743.8</ele>
        <time>2023-12-18T12:32:28Z</time>
      </trkpt>
      <trkpt lat="43.62395" lon="6.31009">
        <ele>743.3</ele>
        <time>2023-12-18T12:32:39Z</time>
      </trkpt>
      <trkpt lat="43.62398" lon="6.31022">
        <ele>742.5</ele>
        <time>2023-12-18T12:32:49Z</time>
      </trkpt>
      <trkpt lat="43.62399" lon="6.31034">
        <ele>741.8</ele>
        <time>2023-12-18T12:32:58Z</time>
      </trkpt>
      <trkpt lat="43.62399" lon="6.31047">
        <ele>741</ele>
        <time>2023-12-18T12:33:07Z</time>
      </trkpt>
      <trkpt lat="43.62398" lon="6.31059">
        <ele>739.8</ele>
        <time>2023-12-18T12:33:30Z</time>
      </trkpt>
      <trkpt lat="43.62401" lon="6.31071">
        <ele>739.3</ele>
        <time>2023-12-18T12:33:44Z</time>
      </trkpt>
      <trkpt lat="43.62405" lon="6.31082">
        <ele>738.7</ele>
        <time>2023-12-18T12:33:55Z</time>
      </trkpt>
      <trkpt lat="43.62409" lon="6.31094">
        <ele>738.2</ele>
        <time>2023-12-18T12:34:05Z</time>
      </trkpt>
      <trkpt lat="43.62416" lon="6.31103">
        <ele>737.5</ele>
        <time>2023-12-18T12:34:16Z</time>
      </trkpt>
      <trkpt lat="43.62423" lon="6.31112">
        <ele>736.6</ele>
        <time>2023-12-18T12:34:27Z</time>
      </trkpt>
      <trkpt lat="43.62429" lon="6.31123">
        <ele>736.1</ele>
        <time>2023-12-18T12:34:37Z</time>
      </trkpt>
      <trkpt lat="43.62434" lon="6.31134">
        <ele>735.5</ele>
        <time>2023-12-18T12:34:46Z</time>
      </trkpt>
      <trkpt lat="43.62436" lon="6.31146">
        <ele>734.7</ele>
        <time>2023-12-18T12:34:56Z</time>
      </trkpt>
      <trkpt lat="43.62434" lon="6.31158">
        <ele>734.4</ele>
        <time>2023-12-18T12:35:42Z</time>
      </trkpt>
      <trkpt lat="43.62427" lon="6.31168">
        <ele>734.5</ele>
        <time>2023-12-18T12:35:54Z</time>
      </trkpt>
      <trkpt lat="43.62422" lon="6.31179">
        <ele>733.1</ele>
        <time>2023-12-18T12:36:37Z</time>
      </trkpt>
      <trkpt lat="43.62418" lon="6.31191">
        <ele>734</ele>
        <time>2023-12-18T12:36:54Z</time>
      </trkpt>
      <trkpt lat="43.62413" lon="6.31202">
        <ele>735.6</ele>
        <time>2023-12-18T12:37:07Z</time>
      </trkpt>
      <trkpt lat="43.62409" lon="6.31214">
        <ele>733.9</ele>
        <time>2023-12-18T12:37:21Z</time>
      </trkpt>
      <trkpt lat="43.62403" lon="6.31224">
        <ele>733.8</ele>
        <time>2023-12-18T12:37:34Z</time>
      </trkpt>
      <trkpt lat="43.62399" lon="6.31236">
        <ele>734.9</ele>
        <time>2023-12-18T12:38:49Z</time>
      </trkpt>
      <trkpt lat="43.6239" lon="6.31238">
        <ele>734.6</ele>
        <time>2023-12-18T12:38:59Z</time>
      </trkpt>
      <trkpt lat="43.62382" lon="6.31244">
        <ele>733.8</ele>
        <time>2023-12-18T12:39:10Z</time>
      </trkpt>
      <trkpt lat="43.62375" lon="6.31252">
        <ele>733.3</ele>
        <time>2023-12-18T12:39:23Z</time>
      </trkpt>
      <trkpt lat="43.62367" lon="6.31261">
        <ele>732.5</ele>
        <time>2023-12-18T12:39:37Z</time>
      </trkpt>
      <trkpt lat="43.6236" lon="6.31268">
        <ele>732.3</ele>
        <time>2023-12-18T12:39:50Z</time>
      </trkpt>
      <trkpt lat="43.62354" lon="6.31278">
        <ele>732</ele>
        <time>2023-12-18T12:40:01Z</time>
      </trkpt>
      <trkpt lat="43.6235" lon="6.3129">
        <ele>730.8</ele>
        <time>2023-12-18T12:40:19Z</time>
      </trkpt>
      <trkpt lat="43.62347" lon="6.31302">
        <ele>733</ele>
        <time>2023-12-18T12:40:30Z</time>
      </trkpt>
      <trkpt lat="43.62346" lon="6.31315">
        <ele>733.9</ele>
        <time>2023-12-18T12:40:49Z</time>
      </trkpt>
      <trkpt lat="43.62341" lon="6.31327">
        <ele>732.6</ele>
        <time>2023-12-18T12:41:02Z</time>
      </trkpt>
      <trkpt lat="43.62334" lon="6.31335">
        <ele>735.1</ele>
        <time>2023-12-18T12:41:15Z</time>
      </trkpt>
      <trkpt lat="43.62331" lon="6.31347">
        <ele>733.8</ele>
        <time>2023-12-18T12:41:49Z</time>
      </trkpt>
      <trkpt lat="43.62325" lon="6.31356">
        <ele>735.9</ele>
        <time>2023-12-18T12:42:13Z</time>
      </trkpt>
      <trkpt lat="43.62318" lon="6.31364">
        <ele>736.5</ele>
        <time>2023-12-18T12:42:21Z</time>
      </trkpt>
      <trkpt lat="43.6231" lon="6.31371">
        <ele>735.5</ele>
        <time>2023-12-18T12:42:29Z</time>
      </trkpt>
      <trkpt lat="43.62301" lon="6.31377">
        <ele>735.9</ele>
        <time>2023-12-18T12:42:39Z</time>
      </trkpt>
      <trkpt lat="43.62293" lon="6.31384">
        <ele>736.3</ele>
        <time>2023-12-18T12:42:48Z</time>
      </trkpt>
      <trkpt lat="43.62285" lon="6.3139">
        <ele>736.8</ele>
        <time>2023-12-18T12:42:58Z</time>
      </trkpt>
      <trkpt lat="43.62278" lon="6.31399">
        <ele>737.2</ele>
        <time>2023-12-18T12:43:07Z</time>
      </trkpt>
      <trkpt lat="43.62271" lon="6.31407">
        <ele>737.2</ele>
        <time>2023-12-18T12:43:16Z</time>
      </trkpt>
      <trkpt lat="43.62264" lon="6.31415">
        <ele>736.6</ele>
        <time>2023-12-18T12:43:27Z</time>
      </trkpt>
      <trkpt lat="43.62255" lon="6.31423">
        <ele>736.9</ele>
        <time>2023-12-18T12:43:46Z</time>
      </trkpt>
      <trkpt lat="43.62247" lon="6.31428">
        <ele>736.3</ele>
        <time>2023-12-18T12:43:55Z</time>
      </trkpt>
      <trkpt lat="43.62238" lon="6.31434">
        <ele>735.7</ele>
        <time>2023-12-18T12:44:04Z</time>
      </trkpt>
      <trkpt lat="43.6223" lon="6.31441">
        <ele>735.4</ele>
        <time>2023-12-18T12:44:13Z</time>
      </trkpt>
      <trkpt lat="43.62221" lon="6.31448">
        <ele>735.3</ele>
        <time>2023-12-18T12:44:23Z</time>
      </trkpt>
      <trkpt lat="43.62215" lon="6.31459">
        <ele>735.5</ele>
        <time>2023-12-18T12:44:31Z</time>
      </trkpt>
      <trkpt lat="43.62207" lon="6.31467">
        <ele>735.3</ele>
        <time>2023-12-18T12:44:39Z</time>
      </trkpt>
      <trkpt lat="43.622" lon="6.31474">
        <ele>735.4</ele>
        <time>2023-12-18T12:44:48Z</time>
      </trkpt>
      <trkpt lat="43.62192" lon="6.31484">
        <ele>735.4</ele>
        <time>2023-12-18T12:44:56Z</time>
      </trkpt>
      <trkpt lat="43.62184" lon="6.31492">
        <ele>735.5</ele>
        <time>2023-12-18T12:45:07Z</time>
      </trkpt>
      <trkpt lat="43.62176" lon="6.31499">
        <ele>737.1</ele>
        <time>2023-12-18T12:45:18Z</time>
      </trkpt>
      <trkpt lat="43.62168" lon="6.31505">
        <ele>734.2</ele>
        <time>2023-12-18T12:45:36Z</time>
      </trkpt>
      <trkpt lat="43.6216" lon="6.31512">
        <ele>734.4</ele>
        <time>2023-12-18T12:45:50Z</time>
      </trkpt>
      <trkpt lat="43.62152" lon="6.3152">
        <ele>734</ele>
        <time>2023-12-18T12:45:59Z</time>
      </trkpt>
      <trkpt lat="43.62145" lon="6.3153">
        <ele>735.1</ele>
        <time>2023-12-18T12:46:08Z</time>
      </trkpt>
      <trkpt lat="43.62138" lon="6.31538">
        <ele>735.6</ele>
        <time>2023-12-18T12:46:18Z</time>
      </trkpt>
      <trkpt lat="43.62131" lon="6.31547">
        <ele>735.7</ele>
        <time>2023-12-18T12:46:26Z</time>
      </trkpt>
      <trkpt lat="43.62124" lon="6.31556">
        <ele>736.6</ele>
        <time>2023-12-18T12:46:36Z</time>
      </trkpt>
      <trkpt lat="43.62117" lon="6.31565">
        <ele>736.7</ele>
        <time>2023-12-18T12:46:47Z</time>
      </trkpt>
      <trkpt lat="43.62109" lon="6.31572">
        <ele>737</ele>
        <time>2023-12-18T12:46:58Z</time>
      </trkpt>
      <trkpt lat="43.62102" lon="6.3158">
        <ele>734.8</ele>
        <time>2023-12-18T12:47:09Z</time>
      </trkpt>
      <trkpt lat="43.62094" lon="6.31587">
        <ele>737.5</ele>
        <time>2023-12-18T12:47:19Z</time>
      </trkpt>
      <trkpt lat="43.62086" lon="6.31596">
        <ele>738.1</ele>
        <time>2023-12-18T12:47:29Z</time>
      </trkpt>
      <trkpt lat="43.62078" lon="6.31604">
        <ele>738.5</ele>
        <time>2023-12-18T12:47:40Z</time>
      </trkpt>
      <trkpt lat="43.62071" lon="6.31612">
        <ele>738.7</ele>
        <time>2023-12-18T12:47:51Z</time>
      </trkpt>
      <trkpt lat="43.62063" lon="6.31621">
        <ele>739</ele>
        <time>2023-12-18T12:48:02Z</time>
      </trkpt>
      <trkpt lat="43.62056" lon="6.31631">
        <ele>739.5</ele>
        <time>2023-12-18T12:48:14Z</time>
      </trkpt>
      <trkpt lat="43.62048" lon="6.31639">
        <ele>739.4</ele>
        <time>2023-12-18T12:48:26Z</time>
      </trkpt>
      <trkpt lat="43.62042" lon="6.31647">
        <ele>739.3</ele>
        <time>2023-12-18T12:48:36Z</time>
      </trkpt>
      <trkpt lat="43.62033" lon="6.31654">
        <ele>739.1</ele>
        <time>2023-12-18T12:48:50Z</time>
      </trkpt>
      <trkpt lat="43.62026" lon="6.31663">
        <ele>738.8</ele>
        <time>2023-12-18T12:48:58Z</time>
      </trkpt>
      <trkpt lat="43.62019" lon="6.31672">
        <ele>738.7</ele>
        <time>2023-12-18T12:49:07Z</time>
      </trkpt>
      <trkpt lat="43.62012" lon="6.31681">
        <ele>738.3</ele>
        <time>2023-12-18T12:49:16Z</time>
      </trkpt>
      <trkpt lat="43.62005" lon="6.31689">
        <ele>738.6</ele>
        <time>2023-12-18T12:49:30Z</time>
      </trkpt>
      <trkpt lat="43.61998" lon="6.31698">
        <ele>738.5</ele>
        <time>2023-12-18T12:49:42Z</time>
      </trkpt>
      <trkpt lat="43.61991" lon="6.31706">
        <ele>738.3</ele>
        <time>2023-12-18T12:49:53Z</time>
      </trkpt>
      <trkpt lat="43.61984" lon="6.31713">
        <ele>738.2</ele>
        <time>2023-12-18T12:50:03Z</time>
      </trkpt>
      <trkpt lat="43.61975" lon="6.31719">
        <ele>738.5</ele>
        <time>2023-12-18T12:50:21Z</time>
      </trkpt>
      <trkpt lat="43.61968" lon="6.31727">
        <ele>738.5</ele>
        <time>2023-12-18T12:50:31Z</time>
      </trkpt>
      <trkpt lat="43.6196" lon="6.31734">
        <ele>739.1</ele>
        <time>2023-12-18T12:50:40Z</time>
      </trkpt>
      <trkpt lat="43.61952" lon="6.31741">
        <ele>739.2</ele>
        <time>2023-12-18T12:50:49Z</time>
      </trkpt>
      <trkpt lat="43.61944" lon="6.31748">
        <ele>738.8</ele>
        <time>2023-12-18T12:50:58Z</time>
      </trkpt>
      <trkpt lat="43.61936" lon="6.31755">
        <ele>738.5</ele>
        <time>2023-12-18T12:51:09Z</time>
      </trkpt>
      <trkpt lat="43.61927" lon="6.31761">
        <ele>738.6</ele>
        <time>2023-12-18T12:51:18Z</time>
      </trkpt>
      <trkpt lat="43.61918" lon="6.31768">
        <ele>739.3</ele>
        <time>2023-12-18T12:51:28Z</time>
      </trkpt>
      <trkpt lat="43.61912" lon="6.31777">
        <ele>740.4</ele>
        <time>2023-12-18T12:51:38Z</time>
      </trkpt>
      <trkpt lat="43.61905" lon="6.31786">
        <ele>740.9</ele>
        <time>2023-12-18T12:51:47Z</time>
      </trkpt>
      <trkpt lat="43.61898" lon="6.31795">
        <ele>741.4</ele>
        <time>2023-12-18T12:51:57Z</time>
      </trkpt>
      <trkpt lat="43.61892" lon="6.31805">
        <ele>741.5</ele>
        <time>2023-12-18T12:52:06Z</time>
      </trkpt>
      <trkpt lat="43.61885" lon="6.31814">
        <ele>741.1</ele>
        <time>2023-12-18T12:52:17Z</time>
      </trkpt>
      <trkpt lat="43.61877" lon="6.31822">
        <ele>740.7</ele>
        <time>2023-12-18T12:52:30Z</time>
      </trkpt>
      <trkpt lat="43.6187" lon="6.3183">
        <ele>741.2</ele>
        <time>2023-12-18T12:52:42Z</time>
      </trkpt>
      <trkpt lat="43.61862" lon="6.31837">
        <ele>741.8</ele>
        <time>2023-12-18T12:52:53Z</time>
      </trkpt>
      <trkpt lat="43.61855" lon="6.31847">
        <ele>741.7</ele>
        <time>2023-12-18T12:53:05Z</time>
      </trkpt>
      <trkpt lat="43.61847" lon="6.31855">
        <ele>741.8</ele>
        <time>2023-12-18T12:53:17Z</time>
      </trkpt>
      <trkpt lat="43.6184" lon="6.31863">
        <ele>742</ele>
        <time>2023-12-18T12:53:28Z</time>
      </trkpt>
      <trkpt lat="43.61834" lon="6.31872">
        <ele>741.8</ele>
        <time>2023-12-18T12:53:45Z</time>
      </trkpt>
      <trkpt lat="43.6183" lon="6.31884">
        <ele>741.6</ele>
        <time>2023-12-18T12:54:12Z</time>
      </trkpt>
      <trkpt lat="43.61823" lon="6.31892">
        <ele>742.2</ele>
        <time>2023-12-18T12:54:27Z</time>
      </trkpt>
      <trkpt lat="43.61815" lon="6.319">
        <ele>742.4</ele>
        <time>2023-12-18T12:54:42Z</time>
      </trkpt>
      <trkpt lat="43.61808" lon="6.31909">
        <ele>742.3</ele>
        <time>2023-12-18T12:54:56Z</time>
      </trkpt>
      <trkpt lat="43.61803" lon="6.3192">
        <ele>742.3</ele>
        <time>2023-12-18T12:55:10Z</time>
      </trkpt>
      <trkpt lat="43.61798" lon="6.31931">
        <ele>742.5</ele>
        <time>2023-12-18T12:55:23Z</time>
      </trkpt>
      <trkpt lat="43.61789" lon="6.31937">
        <ele>742.5</ele>
        <time>2023-12-18T12:55:31Z</time>
      </trkpt>
      <trkpt lat="43.61781" lon="6.31943">
        <ele>742.3</ele>
        <time>2023-12-18T12:55:41Z</time>
      </trkpt>
      <trkpt lat="43.61776" lon="6.31954">
        <ele>742.6</ele>
        <time>2023-12-18T12:55:57Z</time>
      </trkpt>
      <trkpt lat="43.61771" lon="6.31965">
        <ele>742.7</ele>
        <time>2023-12-18T12:56:08Z</time>
      </trkpt>
      <trkpt lat="43.61765" lon="6.31977">
        <ele>742.9</ele>
        <time>2023-12-18T12:56:19Z</time>
      </trkpt>
      <trkpt lat="43.61759" lon="6.31986">
        <ele>743.2</ele>
        <time>2023-12-18T12:56:30Z</time>
      </trkpt>
      <trkpt lat="43.61751" lon="6.31993">
        <ele>744</ele>
        <time>2023-12-18T12:57:01Z</time>
      </trkpt>
      <trkpt lat="43.61744" lon="6.32002">
        <ele>744.2</ele>
        <time>2023-12-18T12:57:17Z</time>
      </trkpt>
      <trkpt lat="43.61739" lon="6.32012">
        <ele>744.8</ele>
        <time>2023-12-18T12:57:46Z</time>
      </trkpt>
      <trkpt lat="43.61734" lon="6.32023">
        <ele>743.6</ele>
        <time>2023-12-18T12:58:06Z</time>
      </trkpt>
      <trkpt lat="43.61727" lon="6.32032">
        <ele>740.8</ele>
        <time>2023-12-18T12:58:17Z</time>
      </trkpt>
      <trkpt lat="43.61722" lon="6.32042">
        <ele>742.8</ele>
        <time>2023-12-18T12:58:27Z</time>
      </trkpt>
      <trkpt lat="43.61715" lon="6.32051">
        <ele>745</ele>
        <time>2023-12-18T12:58:35Z</time>
      </trkpt>
      <trkpt lat="43.61709" lon="6.32061">
        <ele>745.3</ele>
        <time>2023-12-18T12:58:45Z</time>
      </trkpt>
      <trkpt lat="43.61702" lon="6.3207">
        <ele>745.4</ele>
        <time>2023-12-18T12:58:55Z</time>
      </trkpt>
      <trkpt lat="43.61695" lon="6.32078">
        <ele>745.9</ele>
        <time>2023-12-18T12:59:11Z</time>
      </trkpt>
      <trkpt lat="43.61686" lon="6.3208">
        <ele>746.2</ele>
        <time>2023-12-18T12:59:25Z</time>
      </trkpt>
      <trkpt lat="43.61677" lon="6.32084">
        <ele>746.4</ele>
        <time>2023-12-18T12:59:44Z</time>
      </trkpt>
      <trkpt lat="43.61678" lon="6.32071">
        <ele>747.8</ele>
        <time>2023-12-18T13:00:07Z</time>
      </trkpt>
      <trkpt lat="43.61672" lon="6.3208">
        <ele>749.1</ele>
        <time>2023-12-18T13:01:09Z</time>
      </trkpt>
      <trkpt lat="43.61664" lon="6.32086">
        <ele>749</ele>
        <time>2023-12-18T13:01:20Z</time>
      </trkpt>
      <trkpt lat="43.61657" lon="6.32095">
        <ele>748.6</ele>
        <time>2023-12-18T13:01:34Z</time>
      </trkpt>
      <trkpt lat="43.61649" lon="6.32103">
        <ele>748.7</ele>
        <time>2023-12-18T13:01:45Z</time>
      </trkpt>
      <trkpt lat="43.61639" lon="6.32109">
        <ele>749.5</ele>
        <time>2023-12-18T13:01:55Z</time>
      </trkpt>
      <trkpt lat="43.6163" lon="6.32111">
        <ele>750.1</ele>
        <time>2023-12-18T13:02:01Z</time>
      </trkpt>
      <trkpt lat="43.6162" lon="6.32109">
        <ele>750</ele>
        <time>2023-12-18T13:02:09Z</time>
      </trkpt>
      <trkpt lat="43.6161" lon="6.32108">
        <ele>750.2</ele>
        <time>2023-12-18T13:02:19Z</time>
      </trkpt>
      <trkpt lat="43.61601" lon="6.32107">
        <ele>749.7</ele>
        <time>2023-12-18T13:02:28Z</time>
      </trkpt>
      <trkpt lat="43.61592" lon="6.32105">
        <ele>748.7</ele>
        <time>2023-12-18T13:02:39Z</time>
      </trkpt>
      <trkpt lat="43.61582" lon="6.32109">
        <ele>748.6</ele>
        <time>2023-12-18T13:02:52Z</time>
      </trkpt>
      <trkpt lat="43.61574" lon="6.32114">
        <ele>748.8</ele>
        <time>2023-12-18T13:03:01Z</time>
      </trkpt>
      <trkpt lat="43.61567" lon="6.32122">
        <ele>748.4</ele>
        <time>2023-12-18T13:03:11Z</time>
      </trkpt>
      <trkpt lat="43.61558" lon="6.32128">
        <ele>745.4</ele>
        <time>2023-12-18T13:03:21Z</time>
      </trkpt>
      <trkpt lat="43.61548" lon="6.32131">
        <ele>750.8</ele>
        <time>2023-12-18T13:03:33Z</time>
      </trkpt>
      <trkpt lat="43.61538" lon="6.32135">
        <ele>751.2</ele>
        <time>2023-12-18T13:03:43Z</time>
      </trkpt>
      <trkpt lat="43.6153" lon="6.3214">
        <ele>751.4</ele>
        <time>2023-12-18T13:03:55Z</time>
      </trkpt>
      <trkpt lat="43.61521" lon="6.32144">
        <ele>751.6</ele>
        <time>2023-12-18T13:04:05Z</time>
      </trkpt>
      <trkpt lat="43.61512" lon="6.32149">
        <ele>752.2</ele>
        <time>2023-12-18T13:04:21Z</time>
      </trkpt>
      <trkpt lat="43.61503" lon="6.32154">
        <ele>751.5</ele>
        <time>2023-12-18T13:04:33Z</time>
      </trkpt>
      <trkpt lat="43.61495" lon="6.32161">
        <ele>750.9</ele>
        <time>2023-12-18T13:04:44Z</time>
      </trkpt>
      <trkpt lat="43.61486" lon="6.32166">
        <ele>751.7</ele>
        <time>2023-12-18T13:04:59Z</time>
      </trkpt>
      <trkpt lat="43.61479" lon="6.32174">
        <ele>752.6</ele>
        <time>2023-12-18T13:05:10Z</time>
      </trkpt>
      <trkpt lat="43.61474" lon="6.32186">
        <ele>753</ele>
        <time>2023-12-18T13:05:20Z</time>
      </trkpt>
      <trkpt lat="43.61471" lon="6.32198">
        <ele>753.2</ele>
        <time>2023-12-18T13:05:35Z</time>
      </trkpt>
      <trkpt lat="43.61471" lon="6.32211">
        <ele>752.9</ele>
        <time>2023-12-18T13:05:45Z</time>
      </trkpt>
      <trkpt lat="43.6147" lon="6.32225">
        <ele>752.9</ele>
        <time>2023-12-18T13:05:55Z</time>
      </trkpt>
      <trkpt lat="43.61468" lon="6.32238">
        <ele>752.2</ele>
        <time>2023-12-18T13:06:04Z</time>
      </trkpt>
      <trkpt lat="43.61467" lon="6.32252">
        <ele>752.5</ele>
        <time>2023-12-18T13:06:14Z</time>
      </trkpt>
      <trkpt lat="43.61465" lon="6.32264">
        <ele>753.2</ele>
        <time>2023-12-18T13:06:23Z</time>
      </trkpt>
      <trkpt lat="43.61463" lon="6.32276">
        <ele>753.2</ele>
        <time>2023-12-18T13:06:32Z</time>
      </trkpt>
      <trkpt lat="43.61458" lon="6.32287">
        <ele>753.6</ele>
        <time>2023-12-18T13:06:41Z</time>
      </trkpt>
      <trkpt lat="43.61452" lon="6.32297">
        <ele>754.1</ele>
        <time>2023-12-18T13:06:52Z</time>
      </trkpt>
      <trkpt lat="43.61446" lon="6.32305">
        <ele>754</ele>
        <time>2023-12-18T13:07:02Z</time>
      </trkpt>
      <trkpt lat="43.61439" lon="6.32315">
        <ele>755.8</ele>
        <time>2023-12-18T13:07:20Z</time>
      </trkpt>
      <trkpt lat="43.61433" lon="6.32325">
        <ele>752.9</ele>
        <time>2023-12-18T13:07:34Z</time>
      </trkpt>
      <trkpt lat="43.61426" lon="6.32334">
        <ele>755.4</ele>
        <time>2023-12-18T13:07:44Z</time>
      </trkpt>
      <trkpt lat="43.61419" lon="6.32342">
        <ele>757</ele>
        <time>2023-12-18T13:07:52Z</time>
      </trkpt>
      <trkpt lat="43.61412" lon="6.32352">
        <ele>757.4</ele>
        <time>2023-12-18T13:08:02Z</time>
      </trkpt>
      <trkpt lat="43.61406" lon="6.32361">
        <ele>758</ele>
        <time>2023-12-18T13:08:11Z</time>
      </trkpt>
      <trkpt lat="43.614" lon="6.32371">
        <ele>758.5</ele>
        <time>2023-12-18T13:08:21Z</time>
      </trkpt>
      <trkpt lat="43.61394" lon="6.32381">
        <ele>758.7</ele>
        <time>2023-12-18T13:08:31Z</time>
      </trkpt>
      <trkpt lat="43.61385" lon="6.32387">
        <ele>759.3</ele>
        <time>2023-12-18T13:08:40Z</time>
      </trkpt>
      <trkpt lat="43.61378" lon="6.32396">
        <ele>759.9</ele>
        <time>2023-12-18T13:08:50Z</time>
      </trkpt>
      <trkpt lat="43.61371" lon="6.32404">
        <ele>760.2</ele>
        <time>2023-12-18T13:09:00Z</time>
      </trkpt>
      <trkpt lat="43.61362" lon="6.32411">
        <ele>760.9</ele>
        <time>2023-12-18T13:09:09Z</time>
      </trkpt>
      <trkpt lat="43.61353" lon="6.32414">
        <ele>761.2</ele>
        <time>2023-12-18T13:09:20Z</time>
      </trkpt>
      <trkpt lat="43.61344" lon="6.3242">
        <ele>762.3</ele>
        <time>2023-12-18T13:09:34Z</time>
      </trkpt>
      <trkpt lat="43.61335" lon="6.32421">
        <ele>762.7</ele>
        <time>2023-12-18T13:09:40Z</time>
      </trkpt>
      <trkpt lat="43.61326" lon="6.32424">
        <ele>763</ele>
        <time>2023-12-18T13:09:48Z</time>
      </trkpt>
      <trkpt lat="43.61317" lon="6.32426">
        <ele>764.2</ele>
        <time>2023-12-18T13:10:04Z</time>
      </trkpt>
      <trkpt lat="43.61308" lon="6.32427">
        <ele>765.5</ele>
        <time>2023-12-18T13:10:29Z</time>
      </trkpt>
      <trkpt lat="43.61303" lon="6.32417">
        <ele>765.1</ele>
        <time>2023-12-18T13:10:57Z</time>
      </trkpt>
      <trkpt lat="43.613" lon="6.32405">
        <ele>766</ele>
        <time>2023-12-18T13:11:30Z</time>
      </trkpt>
      <trkpt lat="43.613" lon="6.32418">
        <ele>765.5</ele>
        <time>2023-12-18T13:13:59Z</time>
      </trkpt>
      <trkpt lat="43.6129" lon="6.3242">
        <ele>764.5</ele>
        <time>2023-12-18T13:14:11Z</time>
      </trkpt>
      <trkpt lat="43.61281" lon="6.3242">
        <ele>762.9</ele>
        <time>2023-12-18T13:14:25Z</time>
      </trkpt>
      <trkpt lat="43.61272" lon="6.32415">
        <ele>762.5</ele>
        <time>2023-12-18T13:14:33Z</time>
      </trkpt>
      <trkpt lat="43.61263" lon="6.32412">
        <ele>761.1</ele>
        <time>2023-12-18T13:14:41Z</time>
      </trkpt>
      <trkpt lat="43.61254" lon="6.32407">
        <ele>761.8</ele>
        <time>2023-12-18T13:14:51Z</time>
      </trkpt>
      <trkpt lat="43.61246" lon="6.32398">
        <ele>758.9</ele>
        <time>2023-12-18T13:15:04Z</time>
      </trkpt>
      <trkpt lat="43.61238" lon="6.32391">
        <ele>757.5</ele>
        <time>2023-12-18T13:15:13Z</time>
      </trkpt>
      <trkpt lat="43.6123" lon="6.32384">
        <ele>756.5</ele>
        <time>2023-12-18T13:15:22Z</time>
      </trkpt>
      <trkpt lat="43.61223" lon="6.32377">
        <ele>755.8</ele>
        <time>2023-12-18T13:15:30Z</time>
      </trkpt>
      <trkpt lat="43.61214" lon="6.3237">
        <ele>755.1</ele>
        <time>2023-12-18T13:15:39Z</time>
      </trkpt>
      <trkpt lat="43.61206" lon="6.32364">
        <ele>754.4</ele>
        <time>2023-12-18T13:15:49Z</time>
      </trkpt>
      <trkpt lat="43.61199" lon="6.32355">
        <ele>752.9</ele>
        <time>2023-12-18T13:15:57Z</time>
      </trkpt>
      <trkpt lat="43.61192" lon="6.32347">
        <ele>751.9</ele>
        <time>2023-12-18T13:16:05Z</time>
      </trkpt>
      <trkpt lat="43.61185" lon="6.32339">
        <ele>751.5</ele>
        <time>2023-12-18T13:16:14Z</time>
      </trkpt>
      <trkpt lat="43.61177" lon="6.32331">
        <ele>750.9</ele>
        <time>2023-12-18T13:16:25Z</time>
      </trkpt>
      <trkpt lat="43.61169" lon="6.32324">
        <ele>750.6</ele>
        <time>2023-12-18T13:16:34Z</time>
      </trkpt>
      <trkpt lat="43.6116" lon="6.32318">
        <ele>750.2</ele>
        <time>2023-12-18T13:16:43Z</time>
      </trkpt>
      <trkpt lat="43.61151" lon="6.32311">
        <ele>749.8</ele>
        <time>2023-12-18T13:16:52Z</time>
      </trkpt>
      <trkpt lat="43.61142" lon="6.32304">
        <ele>748.9</ele>
        <time>2023-12-18T13:17:01Z</time>
      </trkpt>
      <trkpt lat="43.61134" lon="6.32299">
        <ele>748.3</ele>
        <time>2023-12-18T13:17:10Z</time>
      </trkpt>
      <trkpt lat="43.61125" lon="6.32295">
        <ele>748.6</ele>
        <time>2023-12-18T13:17:20Z</time>
      </trkpt>
      <trkpt lat="43.61115" lon="6.32295">
        <ele>749</ele>
        <time>2023-12-18T13:17:30Z</time>
      </trkpt>
      <trkpt lat="43.61106" lon="6.32294">
        <ele>748.8</ele>
        <time>2023-12-18T13:17:38Z</time>
      </trkpt>
      <trkpt lat="43.61097" lon="6.32295">
        <ele>747.4</ele>
        <time>2023-12-18T13:17:47Z</time>
      </trkpt>
      <trkpt lat="43.61087" lon="6.32296">
        <ele>747.7</ele>
        <time>2023-12-18T13:17:56Z</time>
      </trkpt>
      <trkpt lat="43.61078" lon="6.32299">
        <ele>748.6</ele>
        <time>2023-12-18T13:18:13Z</time>
      </trkpt>
      <trkpt lat="43.61068" lon="6.323">
        <ele>748.7</ele>
        <time>2023-12-18T13:18:24Z</time>
      </trkpt>
      <trkpt lat="43.61059" lon="6.32304">
        <ele>748.7</ele>
        <time>2023-12-18T13:18:34Z</time>
      </trkpt>
      <trkpt lat="43.6105" lon="6.32306">
        <ele>748.6</ele>
        <time>2023-12-18T13:18:49Z</time>
      </trkpt>
      <trkpt lat="43.61041" lon="6.3231">
        <ele>748.4</ele>
        <time>2023-12-18T13:18:58Z</time>
      </trkpt>
      <trkpt lat="43.61032" lon="6.32315">
        <ele>748.3</ele>
        <time>2023-12-18T13:19:10Z</time>
      </trkpt>
      <trkpt lat="43.61022" lon="6.32318">
        <ele>747.8</ele>
        <time>2023-12-18T13:19:20Z</time>
      </trkpt>
      <trkpt lat="43.61013" lon="6.32322">
        <ele>747.9</ele>
        <time>2023-12-18T13:19:29Z</time>
      </trkpt>
      <trkpt lat="43.61003" lon="6.32323">
        <ele>747.6</ele>
        <time>2023-12-18T13:19:38Z</time>
      </trkpt>
      <trkpt lat="43.60995" lon="6.32326">
        <ele>747.4</ele>
        <time>2023-12-18T13:19:49Z</time>
      </trkpt>
      <trkpt lat="43.60987" lon="6.32334">
        <ele>747.6</ele>
        <time>2023-12-18T13:20:05Z</time>
      </trkpt>
      <trkpt lat="43.60978" lon="6.32339">
        <ele>747.3</ele>
        <time>2023-12-18T13:20:23Z</time>
      </trkpt>
      <trkpt lat="43.60971" lon="6.32347">
        <ele>747.3</ele>
        <time>2023-12-18T13:20:38Z</time>
      </trkpt>
      <trkpt lat="43.60962" lon="6.32352">
        <ele>747.2</ele>
        <time>2023-12-18T13:20:52Z</time>
      </trkpt>
      <trkpt lat="43.60954" lon="6.32356">
        <ele>747</ele>
        <time>2023-12-18T13:21:01Z</time>
      </trkpt>
      <trkpt lat="43.60946" lon="6.32363">
        <ele>747.3</ele>
        <time>2023-12-18T13:21:10Z</time>
      </trkpt>
      <trkpt lat="43.60939" lon="6.32372">
        <ele>747</ele>
        <time>2023-12-18T13:21:24Z</time>
      </trkpt>
      <trkpt lat="43.60932" lon="6.32381">
        <ele>746.8</ele>
        <time>2023-12-18T13:21:34Z</time>
      </trkpt>
      <trkpt lat="43.60923" lon="6.32384">
        <ele>747.6</ele>
        <time>2023-12-18T13:21:55Z</time>
      </trkpt>
      <trkpt lat="43.60916" lon="6.32392">
        <ele>745.4</ele>
        <time>2023-12-18T13:22:21Z</time>
      </trkpt>
      <trkpt lat="43.60912" lon="6.32403">
        <ele>745.8</ele>
        <time>2023-12-18T13:22:47Z</time>
      </trkpt>
      <trkpt lat="43.60907" lon="6.32414">
        <ele>746.2</ele>
        <time>2023-12-18T13:22:59Z</time>
      </trkpt>
      <trkpt lat="43.60904" lon="6.32426">
        <ele>745.8</ele>
        <time>2023-12-18T13:23:08Z</time>
      </trkpt>
      <trkpt lat="43.60902" lon="6.32439">
        <ele>745.8</ele>
        <time>2023-12-18T13:23:17Z</time>
      </trkpt>
      <trkpt lat="43.60895" lon="6.3245">
        <ele>745.7</ele>
        <time>2023-12-18T13:23:26Z</time>
      </trkpt>
      <trkpt lat="43.60885" lon="6.32447">
        <ele>745.3</ele>
        <time>2023-12-18T13:23:36Z</time>
      </trkpt>
      <trkpt lat="43.60877" lon="6.32441">
        <ele>744.5</ele>
        <time>2023-12-18T13:23:45Z</time>
      </trkpt>
      <trkpt lat="43.60868" lon="6.32437">
        <ele>744</ele>
        <time>2023-12-18T13:23:54Z</time>
      </trkpt>
      <trkpt lat="43.60859" lon="6.32432">
        <ele>743.8</ele>
        <time>2023-12-18T13:24:03Z</time>
      </trkpt>
      <trkpt lat="43.60851" lon="6.32427">
        <ele>743.3</ele>
        <time>2023-12-18T13:24:12Z</time>
      </trkpt>
      <trkpt lat="43.60842" lon="6.32424">
        <ele>742.8</ele>
        <time>2023-12-18T13:24:21Z</time>
      </trkpt>
      <trkpt lat="43.60833" lon="6.3242">
        <ele>742.9</ele>
        <time>2023-12-18T13:24:30Z</time>
      </trkpt>
      <trkpt lat="43.60823" lon="6.32419">
        <ele>743.2</ele>
        <time>2023-12-18T13:24:40Z</time>
      </trkpt>
      <trkpt lat="43.60813" lon="6.3242">
        <ele>743.4</ele>
        <time>2023-12-18T13:24:50Z</time>
      </trkpt>
      <trkpt lat="43.60804" lon="6.32424">
        <ele>743.7</ele>
        <time>2023-12-18T13:25:00Z</time>
      </trkpt>
      <trkpt lat="43.60796" lon="6.32429">
        <ele>741.4</ele>
        <time>2023-12-18T13:25:15Z</time>
      </trkpt>
      <trkpt lat="43.60786" lon="6.32434">
        <ele>744</ele>
        <time>2023-12-18T13:25:45Z</time>
      </trkpt>
      <trkpt lat="43.60777" lon="6.32437">
        <ele>743.8</ele>
        <time>2023-12-18T13:25:58Z</time>
      </trkpt>
      <trkpt lat="43.60768" lon="6.32442">
        <ele>743.3</ele>
        <time>2023-12-18T13:26:09Z</time>
      </trkpt>
      <trkpt lat="43.6076" lon="6.32449">
        <ele>742.8</ele>
        <time>2023-12-18T13:26:20Z</time>
      </trkpt>
      <trkpt lat="43.60751" lon="6.32454">
        <ele>742.4</ele>
        <time>2023-12-18T13:26:29Z</time>
      </trkpt>
      <trkpt lat="43.60742" lon="6.32457">
        <ele>742.1</ele>
        <time>2023-12-18T13:26:39Z</time>
      </trkpt>
      <trkpt lat="43.60732" lon="6.32456">
        <ele>738.6</ele>
        <time>2023-12-18T13:26:49Z</time>
      </trkpt>
      <trkpt lat="43.60723" lon="6.32456">
        <ele>738.4</ele>
        <time>2023-12-18T13:26:58Z</time>
      </trkpt>
      <trkpt lat="43.60713" lon="6.32457">
        <ele>739.4</ele>
        <time>2023-12-18T13:27:09Z</time>
      </trkpt>
      <trkpt lat="43.60704" lon="6.32458">
        <ele>738.8</ele>
        <time>2023-12-18T13:27:18Z</time>
      </trkpt>
      <trkpt lat="43.60694" lon="6.32456">
        <ele>738.2</ele>
        <time>2023-12-18T13:27:30Z</time>
      </trkpt>
      <trkpt lat="43.60685" lon="6.32451">
        <ele>737.6</ele>
        <time>2023-12-18T13:27:41Z</time>
      </trkpt>
      <trkpt lat="43.60676" lon="6.32451">
        <ele>736.5</ele>
        <time>2023-12-18T13:27:52Z</time>
      </trkpt>
      <trkpt lat="43.60666" lon="6.3245">
        <ele>735.5</ele>
        <time>2023-12-18T13:28:03Z</time>
      </trkpt>
      <trkpt lat="43.60657" lon="6.32451">
        <ele>735</ele>
        <time>2023-12-18T13:28:13Z</time>
      </trkpt>
      <trkpt lat="43.60647" lon="6.32452">
        <ele>734.4</ele>
        <time>2023-12-18T13:28:23Z</time>
      </trkpt>
      <trkpt lat="43.60638" lon="6.32453">
        <ele>734</ele>
        <time>2023-12-18T13:28:33Z</time>
      </trkpt>
      <trkpt lat="43.60628" lon="6.32455">
        <ele>732.4</ele>
        <time>2023-12-18T13:28:44Z</time>
      </trkpt>
      <trkpt lat="43.60619" lon="6.32455">
        <ele>731.5</ele>
        <time>2023-12-18T13:28:52Z</time>
      </trkpt>
      <trkpt lat="43.60609" lon="6.32458">
        <ele>730.5</ele>
        <time>2023-12-18T13:29:03Z</time>
      </trkpt>
      <trkpt lat="43.60599" lon="6.32459">
        <ele>730.2</ele>
        <time>2023-12-18T13:29:14Z</time>
      </trkpt>
      <trkpt lat="43.6059" lon="6.32458">
        <ele>729.6</ele>
        <time>2023-12-18T13:29:24Z</time>
      </trkpt>
      <trkpt lat="43.60581" lon="6.32457">
        <ele>728.6</ele>
        <time>2023-12-18T13:29:33Z</time>
      </trkpt>
      <trkpt lat="43.60571" lon="6.3246">
        <ele>727.5</ele>
        <time>2023-12-18T13:29:45Z</time>
      </trkpt>
      <trkpt lat="43.60562" lon="6.32465">
        <ele>727.5</ele>
        <time>2023-12-18T13:29:55Z</time>
      </trkpt>
      <trkpt lat="43.60555" lon="6.32472">
        <ele>727.6</ele>
        <time>2023-12-18T13:30:06Z</time>
      </trkpt>
      <trkpt lat="43.60547" lon="6.3248">
        <ele>727</ele>
        <time>2023-12-18T13:30:17Z</time>
      </trkpt>
      <trkpt lat="43.60541" lon="6.3249">
        <ele>727</ele>
        <time>2023-12-18T13:30:26Z</time>
      </trkpt>
      <trkpt lat="43.60533" lon="6.32483">
        <ele>727</ele>
        <time>2023-12-18T13:30:40Z</time>
      </trkpt>
      <trkpt lat="43.60529" lon="6.32472">
        <ele>727.1</ele>
        <time>2023-12-18T13:30:50Z</time>
      </trkpt>
      <trkpt lat="43.60526" lon="6.32459">
        <ele>727.2</ele>
        <time>2023-12-18T13:31:00Z</time>
      </trkpt>
      <trkpt lat="43.60523" lon="6.32447">
        <ele>727.8</ele>
        <time>2023-12-18T13:31:11Z</time>
      </trkpt>
      <trkpt lat="43.60523" lon="6.32434">
        <ele>728.2</ele>
        <time>2023-12-18T13:31:22Z</time>
      </trkpt>
      <trkpt lat="43.60523" lon="6.32421">
        <ele>726.5</ele>
        <time>2023-12-18T13:31:38Z</time>
      </trkpt>
      <trkpt lat="43.60523" lon="6.32408">
        <ele>727.5</ele>
        <time>2023-12-18T13:31:53Z</time>
      </trkpt>
      <trkpt lat="43.60523" lon="6.32395">
        <ele>728.9</ele>
        <time>2023-12-18T13:32:04Z</time>
      </trkpt>
      <trkpt lat="43.60521" lon="6.32382">
        <ele>729.1</ele>
        <time>2023-12-18T13:32:15Z</time>
      </trkpt>
      <trkpt lat="43.60521" lon="6.32369">
        <ele>729.2</ele>
        <time>2023-12-18T13:32:24Z</time>
      </trkpt>
      <trkpt lat="43.60518" lon="6.32356">
        <ele>729.1</ele>
        <time>2023-12-18T13:32:33Z</time>
      </trkpt>
      <trkpt lat="43.60514" lon="6.32345">
        <ele>729.1</ele>
        <time>2023-12-18T13:32:42Z</time>
      </trkpt>
      <trkpt lat="43.6051" lon="6.32332">
        <ele>729</ele>
        <time>2023-12-18T13:32:57Z</time>
      </trkpt>
      <trkpt lat="43.60508" lon="6.32319">
        <ele>728.9</ele>
        <time>2023-12-18T13:33:09Z</time>
      </trkpt>
      <trkpt lat="43.60508" lon="6.32306">
        <ele>728.8</ele>
        <time>2023-12-18T13:33:19Z</time>
      </trkpt>
      <trkpt lat="43.60508" lon="6.32292">
        <ele>729</ele>
        <time>2023-12-18T13:33:29Z</time>
      </trkpt>
      <trkpt lat="43.60509" lon="6.3228">
        <ele>728.3</ele>
        <time>2023-12-18T13:33:39Z</time>
      </trkpt>
      <trkpt lat="43.60508" lon="6.32267">
        <ele>727.2</ele>
        <time>2023-12-18T13:33:48Z</time>
      </trkpt>
      <trkpt lat="43.60506" lon="6.32254">
        <ele>726.6</ele>
        <time>2023-12-18T13:33:56Z</time>
      </trkpt>
      <trkpt lat="43.60501" lon="6.32243">
        <ele>725.9</ele>
        <time>2023-12-18T13:34:05Z</time>
      </trkpt>
      <trkpt lat="43.60497" lon="6.32231">
        <ele>726.2</ele>
        <time>2023-12-18T13:34:14Z</time>
      </trkpt>
      <trkpt lat="43.60494" lon="6.32218">
        <ele>725.4</ele>
        <time>2023-12-18T13:34:24Z</time>
      </trkpt>
      <trkpt lat="43.60492" lon="6.32206">
        <ele>725.1</ele>
        <time>2023-12-18T13:34:31Z</time>
      </trkpt>
      <trkpt lat="43.60492" lon="6.32193">
        <ele>725.1</ele>
        <time>2023-12-18T13:34:38Z</time>
      </trkpt>
      <trkpt lat="43.60494" lon="6.3218">
        <ele>725.1</ele>
        <time>2023-12-18T13:34:47Z</time>
      </trkpt>
      <trkpt lat="43.60497" lon="6.32168">
        <ele>725.4</ele>
        <time>2023-12-18T13:34:56Z</time>
      </trkpt>
      <trkpt lat="43.60499" lon="6.32156">
        <ele>724.7</ele>
        <time>2023-12-18T13:35:04Z</time>
      </trkpt>
      <trkpt lat="43.60501" lon="6.32143">
        <ele>724</ele>
        <time>2023-12-18T13:35:13Z</time>
      </trkpt>
      <trkpt lat="43.605" lon="6.32131">
        <ele>723.8</ele>
        <time>2023-12-18T13:35:22Z</time>
      </trkpt>
      <trkpt lat="43.605" lon="6.32118">
        <ele>724.4</ele>
        <time>2023-12-18T13:35:30Z</time>
      </trkpt>
      <trkpt lat="43.60501" lon="6.32105">
        <ele>724.6</ele>
        <time>2023-12-18T13:35:39Z</time>
      </trkpt>
      <trkpt lat="43.60504" lon="6.32092">
        <ele>724.7</ele>
        <time>2023-12-18T13:35:48Z</time>
      </trkpt>
      <trkpt lat="43.6051" lon="6.32082">
        <ele>724.4</ele>
        <time>2023-12-18T13:35:57Z</time>
      </trkpt>
      <trkpt lat="43.60516" lon="6.32072">
        <ele>724.2</ele>
        <time>2023-12-18T13:36:05Z</time>
      </trkpt>
      <trkpt lat="43.60521" lon="6.32063">
        <ele>724.3</ele>
        <time>2023-12-18T13:36:14Z</time>
      </trkpt>
      <trkpt lat="43.60526" lon="6.3205">
        <ele>724.1</ele>
        <time>2023-12-18T13:36:25Z</time>
      </trkpt>
      <trkpt lat="43.6053" lon="6.32039">
        <ele>723.4</ele>
        <time>2023-12-18T13:36:34Z</time>
      </trkpt>
      <trkpt lat="43.60533" lon="6.32025">
        <ele>722.5</ele>
        <time>2023-12-18T13:36:45Z</time>
      </trkpt>
      <trkpt lat="43.60534" lon="6.32012">
        <ele>721.8</ele>
        <time>2023-12-18T13:36:54Z</time>
      </trkpt>
      <trkpt lat="43.60538" lon="6.32">
        <ele>722.2</ele>
        <time>2023-12-18T13:37:01Z</time>
      </trkpt>
      <trkpt lat="43.60542" lon="6.31988">
        <ele>722.6</ele>
        <time>2023-12-18T13:37:09Z</time>
      </trkpt>
      <trkpt lat="43.60541" lon="6.31974">
        <ele>722.9</ele>
        <time>2023-12-18T13:37:22Z</time>
      </trkpt>
      <trkpt lat="43.60536" lon="6.31963">
        <ele>723.2</ele>
        <time>2023-12-18T13:37:33Z</time>
      </trkpt>
      <trkpt lat="43.60529" lon="6.31954">
        <ele>723.2</ele>
        <time>2023-12-18T13:38:18Z</time>
      </trkpt>
      <trkpt lat="43.60521" lon="6.31947">
        <ele>723.3</ele>
        <time>2023-12-18T13:38:30Z</time>
      </trkpt>
      <trkpt lat="43.60512" lon="6.31944">
        <ele>723.6</ele>
        <time>2023-12-18T13:38:50Z</time>
      </trkpt>
      <trkpt lat="43.60503" lon="6.31942">
        <ele>722.8</ele>
        <time>2023-12-18T13:38:58Z</time>
      </trkpt>
      <trkpt lat="43.60494" lon="6.31938">
        <ele>722.6</ele>
        <time>2023-12-18T13:39:07Z</time>
      </trkpt>
      <trkpt lat="43.60486" lon="6.31932">
        <ele>722.5</ele>
        <time>2023-12-18T13:39:17Z</time>
      </trkpt>
      <trkpt lat="43.60485" lon="6.31919">
        <ele>721</ele>
        <time>2023-12-18T13:39:37Z</time>
      </trkpt>
      <trkpt lat="43.60483" lon="6.31907">
        <ele>722.3</ele>
        <time>2023-12-18T13:40:33Z</time>
      </trkpt>
      <trkpt lat="43.60489" lon="6.31897">
        <ele>723</ele>
        <time>2023-12-18T13:40:51Z</time>
      </trkpt>
      <trkpt lat="43.60492" lon="6.31884">
        <ele>723.1</ele>
        <time>2023-12-18T13:41:13Z</time>
      </trkpt>
      <trkpt lat="43.60501" lon="6.31878">
        <ele>723.7</ele>
        <time>2023-12-18T13:41:56Z</time>
      </trkpt>
      <trkpt lat="43.60498" lon="6.3189">
        <ele>723.3</ele>
        <time>2023-12-18T13:42:29Z</time>
      </trkpt>
      <trkpt lat="43.60493" lon="6.31902">
        <ele>723</ele>
        <time>2023-12-18T13:42:40Z</time>
      </trkpt>
      <trkpt lat="43.60488" lon="6.31912">
        <ele>722.1</ele>
        <time>2023-12-18T13:43:13Z</time>
      </trkpt>
      <trkpt lat="43.6048" lon="6.31919">
        <ele>722</ele>
        <time>2023-12-18T13:43:26Z</time>
      </trkpt>
      <trkpt lat="43.60472" lon="6.31924">
        <ele>721.8</ele>
        <time>2023-12-18T13:43:38Z</time>
      </trkpt>
      <trkpt lat="43.60462" lon="6.31924">
        <ele>721.1</ele>
        <time>2023-12-18T13:43:50Z</time>
      </trkpt>
      <trkpt lat="43.60452" lon="6.31926">
        <ele>721.2</ele>
        <time>2023-12-18T13:43:57Z</time>
      </trkpt>
      <trkpt lat="43.60445" lon="6.31935">
        <ele>720.2</ele>
        <time>2023-12-18T13:44:07Z</time>
      </trkpt>
      <trkpt lat="43.60437" lon="6.3194">
        <ele>719.2</ele>
        <time>2023-12-18T13:44:16Z</time>
      </trkpt>
      <trkpt lat="43.60428" lon="6.31944">
        <ele>718.2</ele>
        <time>2023-12-18T13:44:28Z</time>
      </trkpt>
      <trkpt lat="43.6042" lon="6.31952">
        <ele>717</ele>
        <time>2023-12-18T13:44:37Z</time>
      </trkpt>
      <trkpt lat="43.60413" lon="6.31962">
        <ele>717</ele>
        <time>2023-12-18T13:44:47Z</time>
      </trkpt>
      <trkpt lat="43.60406" lon="6.3197">
        <ele>717.1</ele>
        <time>2023-12-18T13:44:57Z</time>
      </trkpt>
      <trkpt lat="43.60398" lon="6.31976">
        <ele>717.2</ele>
        <time>2023-12-18T13:45:05Z</time>
      </trkpt>
      <trkpt lat="43.60389" lon="6.31978">
        <ele>718.6</ele>
        <time>2023-12-18T13:45:19Z</time>
      </trkpt>
      <trkpt lat="43.60381" lon="6.31972">
        <ele>717.2</ele>
        <time>2023-12-18T13:46:00Z</time>
      </trkpt>
      <trkpt lat="43.60375" lon="6.31961">
        <ele>717.4</ele>
        <time>2023-12-18T13:46:11Z</time>
      </trkpt>
      <trkpt lat="43.60368" lon="6.31951">
        <ele>717.4</ele>
        <time>2023-12-18T13:46:31Z</time>
      </trkpt>
      <trkpt lat="43.6036" lon="6.31948">
        <ele>717.9</ele>
        <time>2023-12-18T13:46:42Z</time>
      </trkpt>
      <trkpt lat="43.6035" lon="6.31946">
        <ele>718.8</ele>
        <time>2023-12-18T13:46:52Z</time>
      </trkpt>
      <trkpt lat="43.60342" lon="6.31941">
        <ele>718.8</ele>
        <time>2023-12-18T13:47:00Z</time>
      </trkpt>
      <trkpt lat="43.60333" lon="6.31937">
        <ele>719.1</ele>
        <time>2023-12-18T13:47:09Z</time>
      </trkpt>
      <trkpt lat="43.60325" lon="6.31932">
        <ele>719.1</ele>
        <time>2023-12-18T13:47:17Z</time>
      </trkpt>
      <trkpt lat="43.60318" lon="6.31922">
        <ele>718.2</ele>
        <time>2023-12-18T13:47:28Z</time>
      </trkpt>
      <trkpt lat="43.60312" lon="6.31913">
        <ele>718.1</ele>
        <time>2023-12-18T13:47:48Z</time>
      </trkpt>
      <trkpt lat="43.60304" lon="6.31906">
        <ele>718.3</ele>
        <time>2023-12-18T13:47:59Z</time>
      </trkpt>
      <trkpt lat="43.60296" lon="6.319">
        <ele>718.6</ele>
        <time>2023-12-18T13:48:14Z</time>
      </trkpt>
      <trkpt lat="43.60288" lon="6.31893">
        <ele>719.2</ele>
        <time>2023-12-18T13:48:22Z</time>
      </trkpt>
      <trkpt lat="43.6028" lon="6.31886">
        <ele>719.2</ele>
        <time>2023-12-18T13:48:32Z</time>
      </trkpt>
      <trkpt lat="43.60271" lon="6.31881">
        <ele>718.3</ele>
        <time>2023-12-18T13:48:42Z</time>
      </trkpt>
      <trkpt lat="43.60263" lon="6.31874">
        <ele>718.3</ele>
        <time>2023-12-18T13:48:50Z</time>
      </trkpt>
      <trkpt lat="43.60256" lon="6.31866">
        <ele>718.1</ele>
        <time>2023-12-18T13:48:59Z</time>
      </trkpt>
      <trkpt lat="43.60247" lon="6.31859">
        <ele>718.4</ele>
        <time>2023-12-18T13:49:10Z</time>
      </trkpt>
      <trkpt lat="43.60246" lon="6.31847">
        <ele>719.2</ele>
        <time>2023-12-18T13:49:27Z</time>
      </trkpt>
      <trkpt lat="43.60247" lon="6.31834">
        <ele>719.8</ele>
        <time>2023-12-18T13:49:40Z</time>
      </trkpt>
      <trkpt lat="43.60248" lon="6.31821">
        <ele>719.9</ele>
        <time>2023-12-18T13:49:50Z</time>
      </trkpt>
      <trkpt lat="43.6025" lon="6.31808">
        <ele>718.7</ele>
        <time>2023-12-18T13:50:07Z</time>
      </trkpt>
      <trkpt lat="43.60253" lon="6.31795">
        <ele>720.2</ele>
        <time>2023-12-18T13:50:37Z</time>
      </trkpt>
      <trkpt lat="43.60258" lon="6.31784">
        <ele>720.7</ele>
        <time>2023-12-18T13:50:48Z</time>
      </trkpt>
      <trkpt lat="43.60263" lon="6.31773">
        <ele>721.2</ele>
        <time>2023-12-18T13:50:57Z</time>
      </trkpt>
      <trkpt lat="43.60265" lon="6.31759">
        <ele>721.7</ele>
        <time>2023-12-18T13:51:06Z</time>
      </trkpt>
      <trkpt lat="43.60266" lon="6.31746">
        <ele>721.7</ele>
        <time>2023-12-18T13:51:17Z</time>
      </trkpt>
      <trkpt lat="43.60266" lon="6.31734">
        <ele>721.9</ele>
        <time>2023-12-18T13:51:27Z</time>
      </trkpt>
      <trkpt lat="43.60266" lon="6.31721">
        <ele>722.3</ele>
        <time>2023-12-18T13:51:36Z</time>
      </trkpt>
      <trkpt lat="43.60268" lon="6.31708">
        <ele>722.5</ele>
        <time>2023-12-18T13:51:46Z</time>
      </trkpt>
      <trkpt lat="43.60268" lon="6.31696">
        <ele>722.7</ele>
        <time>2023-12-18T13:51:58Z</time>
      </trkpt>
      <trkpt lat="43.60271" lon="6.31683">
        <ele>722.8</ele>
        <time>2023-12-18T13:52:09Z</time>
      </trkpt>
      <trkpt lat="43.60272" lon="6.3167">
        <ele>723.2</ele>
        <time>2023-12-18T13:52:20Z</time>
      </trkpt>
      <trkpt lat="43.60271" lon="6.31657">
        <ele>723.6</ele>
        <time>2023-12-18T13:52:30Z</time>
      </trkpt>
      <trkpt lat="43.60273" lon="6.31644">
        <ele>723.7</ele>
        <time>2023-12-18T13:52:38Z</time>
      </trkpt>
      <trkpt lat="43.60273" lon="6.31631">
        <ele>723.7</ele>
        <time>2023-12-18T13:52:47Z</time>
      </trkpt>
      <trkpt lat="43.60274" lon="6.31618">
        <ele>723.9</ele>
        <time>2023-12-18T13:52:57Z</time>
      </trkpt>
      <trkpt lat="43.60277" lon="6.31605">
        <ele>724.1</ele>
        <time>2023-12-18T13:53:08Z</time>
      </trkpt>
      <trkpt lat="43.60277" lon="6.31592">
        <ele>724.2</ele>
        <time>2023-12-18T13:53:18Z</time>
      </trkpt>
      <trkpt lat="43.6028" lon="6.3158">
        <ele>724.4</ele>
        <time>2023-12-18T13:53:29Z</time>
      </trkpt>
      <trkpt lat="43.60284" lon="6.31568">
        <ele>724.4</ele>
        <time>2023-12-18T13:53:37Z</time>
      </trkpt>
      <trkpt lat="43.60288" lon="6.31555">
        <ele>723.8</ele>
        <time>2023-12-18T13:53:47Z</time>
      </trkpt>
      <trkpt lat="43.60293" lon="6.31544">
        <ele>725.1</ele>
        <time>2023-12-18T13:53:56Z</time>
      </trkpt>
      <trkpt lat="43.60298" lon="6.31533">
        <ele>722.7</ele>
        <time>2023-12-18T13:54:08Z</time>
      </trkpt>
      <trkpt lat="43.60302" lon="6.31522">
        <ele>721.4</ele>
        <time>2023-12-18T13:54:17Z</time>
      </trkpt>
      <trkpt lat="43.60304" lon="6.31509">
        <ele>721.2</ele>
        <time>2023-12-18T13:54:28Z</time>
      </trkpt>
      <trkpt lat="43.60304" lon="6.31496">
        <ele>721.2</ele>
        <time>2023-12-18T13:54:37Z</time>
      </trkpt>
      <trkpt lat="43.60304" lon="6.31482">
        <ele>720.6</ele>
        <time>2023-12-18T13:54:47Z</time>
      </trkpt>
      <trkpt lat="43.60306" lon="6.3147">
        <ele>720.9</ele>
        <time>2023-12-18T13:54:58Z</time>
      </trkpt>
      <trkpt lat="43.60311" lon="6.31458">
        <ele>720.5</ele>
        <time>2023-12-18T13:55:08Z</time>
      </trkpt>
      <trkpt lat="43.60317" lon="6.31447">
        <ele>720.5</ele>
        <time>2023-12-18T13:55:18Z</time>
      </trkpt>
      <trkpt lat="43.60325" lon="6.31439">
        <ele>721.2</ele>
        <time>2023-12-18T13:55:29Z</time>
      </trkpt>
      <trkpt lat="43.60333" lon="6.31431">
        <ele>721.1</ele>
        <time>2023-12-18T13:55:40Z</time>
      </trkpt>
      <trkpt lat="43.60338" lon="6.3142">
        <ele>721</ele>
        <time>2023-12-18T13:55:50Z</time>
      </trkpt>
      <trkpt lat="43.60343" lon="6.31409">
        <ele>720.7</ele>
        <time>2023-12-18T13:56:01Z</time>
      </trkpt>
      <trkpt lat="43.60346" lon="6.31396">
        <ele>720.4</ele>
        <time>2023-12-18T13:56:12Z</time>
      </trkpt>
      <trkpt lat="43.60349" lon="6.31384">
        <ele>720.4</ele>
        <time>2023-12-18T13:56:21Z</time>
      </trkpt>
      <trkpt lat="43.60354" lon="6.31373">
        <ele>719.4</ele>
        <time>2023-12-18T13:56:31Z</time>
      </trkpt>
      <trkpt lat="43.60358" lon="6.31361">
        <ele>719.1</ele>
        <time>2023-12-18T13:56:42Z</time>
      </trkpt>
      <trkpt lat="43.60362" lon="6.31349">
        <ele>718.7</ele>
        <time>2023-12-18T13:56:52Z</time>
      </trkpt>
      <trkpt lat="43.60365" lon="6.31337">
        <ele>719.1</ele>
        <time>2023-12-18T13:57:02Z</time>
      </trkpt>
      <trkpt lat="43.60371" lon="6.31326">
        <ele>719.5</ele>
        <time>2023-12-18T13:57:13Z</time>
      </trkpt>
      <trkpt lat="43.60377" lon="6.31316">
        <ele>715.8</ele>
        <time>2023-12-18T13:57:23Z</time>
      </trkpt>
      <trkpt lat="43.60385" lon="6.31308">
        <ele>719.3</ele>
        <time>2023-12-18T13:57:33Z</time>
      </trkpt>
      <trkpt lat="43.60394" lon="6.31302">
        <ele>719.5</ele>
        <time>2023-12-18T13:57:45Z</time>
      </trkpt>
      <trkpt lat="43.60403" lon="6.31295">
        <ele>719.3</ele>
        <time>2023-12-18T13:57:55Z</time>
      </trkpt>
      <trkpt lat="43.60412" lon="6.3129">
        <ele>719.3</ele>
        <time>2023-12-18T13:58:05Z</time>
      </trkpt>
      <trkpt lat="43.60422" lon="6.31287">
        <ele>719.1</ele>
        <time>2023-12-18T13:58:18Z</time>
      </trkpt>
      <trkpt lat="43.6043" lon="6.31282">
        <ele>718.9</ele>
        <time>2023-12-18T13:58:28Z</time>
      </trkpt>
      <trkpt lat="43.60439" lon="6.31278">
        <ele>718.8</ele>
        <time>2023-12-18T13:58:38Z</time>
      </trkpt>
      <trkpt lat="43.60449" lon="6.31278">
        <ele>718.4</ele>
        <time>2023-12-18T13:58:49Z</time>
      </trkpt>
      <trkpt lat="43.60458" lon="6.31278">
        <ele>718.2</ele>
        <time>2023-12-18T13:58:58Z</time>
      </trkpt>
      <trkpt lat="43.60467" lon="6.31275">
        <ele>718.1</ele>
        <time>2023-12-18T13:59:09Z</time>
      </trkpt>
      <trkpt lat="43.60474" lon="6.31266">
        <ele>718.2</ele>
        <time>2023-12-18T13:59:18Z</time>
      </trkpt>
      <trkpt lat="43.60481" lon="6.31257">
        <ele>717.4</ele>
        <time>2023-12-18T13:59:28Z</time>
      </trkpt>
      <trkpt lat="43.60487" lon="6.31246">
        <ele>716.5</ele>
        <time>2023-12-18T13:59:37Z</time>
      </trkpt>
      <trkpt lat="43.60491" lon="6.31235">
        <ele>716.8</ele>
        <time>2023-12-18T13:59:47Z</time>
      </trkpt>
      <trkpt lat="43.60495" lon="6.31221">
        <ele>717.4</ele>
        <time>2023-12-18T13:59:58Z</time>
      </trkpt>
      <trkpt lat="43.60497" lon="6.31208">
        <ele>717.4</ele>
        <time>2023-12-18T14:00:09Z</time>
      </trkpt>
      <trkpt lat="43.60501" lon="6.31196">
        <ele>717.2</ele>
        <time>2023-12-18T14:00:17Z</time>
      </trkpt>
      <trkpt lat="43.60502" lon="6.31183">
        <ele>717</ele>
        <time>2023-12-18T14:00:26Z</time>
      </trkpt>
      <trkpt lat="43.60505" lon="6.3117">
        <ele>716.4</ele>
        <time>2023-12-18T14:00:34Z</time>
      </trkpt>
      <trkpt lat="43.60507" lon="6.31158">
        <ele>716.3</ele>
        <time>2023-12-18T14:00:43Z</time>
      </trkpt>
      <trkpt lat="43.60511" lon="6.31146">
        <ele>716.6</ele>
        <time>2023-12-18T14:00:53Z</time>
      </trkpt>
      <trkpt lat="43.60516" lon="6.31135">
        <ele>716.8</ele>
        <time>2023-12-18T14:01:03Z</time>
      </trkpt>
      <trkpt lat="43.60517" lon="6.31121">
        <ele>716.7</ele>
        <time>2023-12-18T14:01:13Z</time>
      </trkpt>
      <trkpt lat="43.60521" lon="6.31109">
        <ele>716.5</ele>
        <time>2023-12-18T14:01:22Z</time>
      </trkpt>
      <trkpt lat="43.60523" lon="6.31095">
        <ele>715.5</ele>
        <time>2023-12-18T14:01:32Z</time>
      </trkpt>
      <trkpt lat="43.60521" lon="6.31083">
        <ele>714.6</ele>
        <time>2023-12-18T14:01:41Z</time>
      </trkpt>
      <trkpt lat="43.6052" lon="6.3107">
        <ele>714.8</ele>
        <time>2023-12-18T14:01:49Z</time>
      </trkpt>
      <trkpt lat="43.60516" lon="6.31058">
        <ele>714.6</ele>
        <time>2023-12-18T14:01:59Z</time>
      </trkpt>
      <trkpt lat="43.60513" lon="6.31045">
        <ele>712.7</ele>
        <time>2023-12-18T14:02:15Z</time>
      </trkpt>
      <trkpt lat="43.60513" lon="6.31032">
        <ele>713.1</ele>
        <time>2023-12-18T14:02:23Z</time>
      </trkpt>
      <trkpt lat="43.60514" lon="6.31018">
        <ele>712.3</ele>
        <time>2023-12-18T14:02:31Z</time>
      </trkpt>
      <trkpt lat="43.60513" lon="6.31006">
        <ele>713.6</ele>
        <time>2023-12-18T14:02:41Z</time>
      </trkpt>
      <trkpt lat="43.60514" lon="6.30992">
        <ele>713.7</ele>
        <time>2023-12-18T14:02:52Z</time>
      </trkpt>
      <trkpt lat="43.60517" lon="6.30979">
        <ele>713.1</ele>
        <time>2023-12-18T14:03:03Z</time>
      </trkpt>
      <trkpt lat="43.60518" lon="6.30967">
        <ele>712.5</ele>
        <time>2023-12-18T14:03:12Z</time>
      </trkpt>
      <trkpt lat="43.60517" lon="6.30953">
        <ele>712.4</ele>
        <time>2023-12-18T14:03:23Z</time>
      </trkpt>
      <trkpt lat="43.60515" lon="6.30941">
        <ele>712.8</ele>
        <time>2023-12-18T14:03:32Z</time>
      </trkpt>
      <trkpt lat="43.60514" lon="6.30928">
        <ele>712.5</ele>
        <time>2023-12-18T14:03:41Z</time>
      </trkpt>
      <trkpt lat="43.60512" lon="6.30915">
        <ele>711.9</ele>
        <time>2023-12-18T14:03:50Z</time>
      </trkpt>
      <trkpt lat="43.60503" lon="6.30911">
        <ele>712.4</ele>
        <time>2023-12-18T14:04:13Z</time>
      </trkpt>
      <trkpt lat="43.60495" lon="6.30917">
        <ele>709.7</ele>
        <time>2023-12-18T14:05:13Z</time>
      </trkpt>
      <trkpt lat="43.60485" lon="6.30917">
        <ele>710.7</ele>
        <time>2023-12-18T14:05:36Z</time>
      </trkpt>
      <trkpt lat="43.60476" lon="6.30917">
        <ele>711.6</ele>
        <time>2023-12-18T14:05:50Z</time>
      </trkpt>
      <trkpt lat="43.60472" lon="6.30904">
        <ele>712.1</ele>
        <time>2023-12-18T14:06:02Z</time>
      </trkpt>
      <trkpt lat="43.60469" lon="6.30891">
        <ele>713.1</ele>
        <time>2023-12-18T14:06:12Z</time>
      </trkpt>
      <trkpt lat="43.60467" lon="6.30876">
        <ele>714.4</ele>
        <time>2023-12-18T14:06:22Z</time>
      </trkpt>
      <trkpt lat="43.60463" lon="6.30864">
        <ele>716.4</ele>
        <time>2023-12-18T14:06:32Z</time>
      </trkpt>
      <trkpt lat="43.6046" lon="6.30851">
        <ele>717.8</ele>
        <time>2023-12-18T14:06:43Z</time>
      </trkpt>
      <trkpt lat="43.60456" lon="6.3084">
        <ele>718.3</ele>
        <time>2023-12-18T14:07:16Z</time>
      </trkpt>
      <trkpt lat="43.60452" lon="6.30829">
        <ele>718.6</ele>
        <time>2023-12-18T14:07:29Z</time>
      </trkpt>
      <trkpt lat="43.6045" lon="6.30817">
        <ele>718.2</ele>
        <time>2023-12-18T14:07:46Z</time>
      </trkpt>
      <trkpt lat="43.60444" lon="6.30806">
        <ele>719.7</ele>
        <time>2023-12-18T14:08:03Z</time>
      </trkpt>
      <trkpt lat="43.60438" lon="6.30795">
        <ele>719.4</ele>
        <time>2023-12-18T14:08:13Z</time>
      </trkpt>
      <trkpt lat="43.60434" lon="6.30782">
        <ele>719.8</ele>
        <time>2023-12-18T14:08:22Z</time>
      </trkpt>
      <trkpt lat="43.6043" lon="6.30769">
        <ele>719.7</ele>
        <time>2023-12-18T14:08:31Z</time>
      </trkpt>
      <trkpt lat="43.60425" lon="6.30758">
        <ele>720</ele>
        <time>2023-12-18T14:08:40Z</time>
      </trkpt>
      <trkpt lat="43.6042" lon="6.30747">
        <ele>721.6</ele>
        <time>2023-12-18T14:08:52Z</time>
      </trkpt>
      <trkpt lat="43.60414" lon="6.30738">
        <ele>721.2</ele>
        <time>2023-12-18T14:09:29Z</time>
      </trkpt>
      <trkpt lat="43.60405" lon="6.30736">
        <ele>720.7</ele>
        <time>2023-12-18T14:09:59Z</time>
      </trkpt>
      <trkpt lat="43.60396" lon="6.30735">
        <ele>721.7</ele>
        <time>2023-12-18T14:10:10Z</time>
      </trkpt>
      <trkpt lat="43.60388" lon="6.3073">
        <ele>723.5</ele>
        <time>2023-12-18T14:10:23Z</time>
      </trkpt>
      <trkpt lat="43.60378" lon="6.3073">
        <ele>724.1</ele>
        <time>2023-12-18T14:10:35Z</time>
      </trkpt>
      <trkpt lat="43.60368" lon="6.30729">
        <ele>725</ele>
        <time>2023-12-18T14:10:47Z</time>
      </trkpt>
      <trkpt lat="43.60359" lon="6.3073">
        <ele>726.4</ele>
        <time>2023-12-18T14:10:58Z</time>
      </trkpt>
      <trkpt lat="43.6035" lon="6.30733">
        <ele>727.5</ele>
        <time>2023-12-18T14:11:11Z</time>
      </trkpt>
      <trkpt lat="43.60342" lon="6.3074">
        <ele>728.6</ele>
        <time>2023-12-18T14:11:31Z</time>
      </trkpt>
      <trkpt lat="43.60333" lon="6.30746">
        <ele>729.6</ele>
        <time>2023-12-18T14:11:42Z</time>
      </trkpt>
      <trkpt lat="43.60325" lon="6.30753">
        <ele>730.3</ele>
        <time>2023-12-18T14:12:06Z</time>
      </trkpt>
      <trkpt lat="43.60317" lon="6.3076">
        <ele>729.5</ele>
        <time>2023-12-18T14:12:20Z</time>
      </trkpt>
      <trkpt lat="43.60307" lon="6.30763">
        <ele>729.8</ele>
        <time>2023-12-18T14:12:27Z</time>
      </trkpt>
      <trkpt lat="43.60298" lon="6.30764">
        <ele>730.7</ele>
        <time>2023-12-18T14:12:36Z</time>
      </trkpt>
      <trkpt lat="43.60289" lon="6.30769">
        <ele>731.5</ele>
        <time>2023-12-18T14:12:46Z</time>
      </trkpt>
      <trkpt lat="43.60279" lon="6.30773">
        <ele>732</ele>
        <time>2023-12-18T14:12:57Z</time>
      </trkpt>
      <trkpt lat="43.6027" lon="6.30779">
        <ele>732.3</ele>
        <time>2023-12-18T14:13:08Z</time>
      </trkpt>
      <trkpt lat="43.60261" lon="6.30784">
        <ele>732.4</ele>
        <time>2023-12-18T14:13:16Z</time>
      </trkpt>
      <trkpt lat="43.60252" lon="6.30787">
        <ele>733.1</ele>
        <time>2023-12-18T14:13:28Z</time>
      </trkpt>
      <trkpt lat="43.60243" lon="6.30793">
        <ele>733.5</ele>
        <time>2023-12-18T14:13:37Z</time>
      </trkpt>
      <trkpt lat="43.60234" lon="6.30798">
        <ele>733.8</ele>
        <time>2023-12-18T14:13:44Z</time>
      </trkpt>
      <trkpt lat="43.60225" lon="6.30802">
        <ele>734</ele>
        <time>2023-12-18T14:13:58Z</time>
      </trkpt>
      <trkpt lat="43.60217" lon="6.30807">
        <ele>734</ele>
        <time>2023-12-18T14:14:09Z</time>
      </trkpt>
      <trkpt lat="43.60208" lon="6.30812">
        <ele>733.8</ele>
        <time>2023-12-18T14:14:20Z</time>
      </trkpt>
      <trkpt lat="43.602" lon="6.30819">
        <ele>733.1</ele>
        <time>2023-12-18T14:14:36Z</time>
      </trkpt>
      <trkpt lat="43.60191" lon="6.30826">
        <ele>734.4</ele>
        <time>2023-12-18T14:14:47Z</time>
      </trkpt>
      <trkpt lat="43.60183" lon="6.30832">
        <ele>735.4</ele>
        <time>2023-12-18T14:14:57Z</time>
      </trkpt>
      <trkpt lat="43.60174" lon="6.30838">
        <ele>735.3</ele>
        <time>2023-12-18T14:15:06Z</time>
      </trkpt>
      <trkpt lat="43.60166" lon="6.30845">
        <ele>735.6</ele>
        <time>2023-12-18T14:15:15Z</time>
      </trkpt>
      <trkpt lat="43.60158" lon="6.30853">
        <ele>736.2</ele>
        <time>2023-12-18T14:15:23Z</time>
      </trkpt>
      <trkpt lat="43.6015" lon="6.30859">
        <ele>736.1</ele>
        <time>2023-12-18T14:15:31Z</time>
      </trkpt>
      <trkpt lat="43.60141" lon="6.30861">
        <ele>736.6</ele>
        <time>2023-12-18T14:15:43Z</time>
      </trkpt>
      <trkpt lat="43.60131" lon="6.30859">
        <ele>738.3</ele>
        <time>2023-12-18T14:15:56Z</time>
      </trkpt>
      <trkpt lat="43.60122" lon="6.3086">
        <ele>738.9</ele>
        <time>2023-12-18T14:16:08Z</time>
      </trkpt>
      <trkpt lat="43.60113" lon="6.30863">
        <ele>740.1</ele>
        <time>2023-12-18T14:16:39Z</time>
      </trkpt>
      <trkpt lat="43.60109" lon="6.30852">
        <ele>740.2</ele>
        <time>2023-12-18T14:16:55Z</time>
      </trkpt>
      <trkpt lat="43.60103" lon="6.30842">
        <ele>741.3</ele>
        <time>2023-12-18T14:17:08Z</time>
      </trkpt>
      <trkpt lat="43.60098" lon="6.30831">
        <ele>741.7</ele>
        <time>2023-12-18T14:17:31Z</time>
      </trkpt>
      <trkpt lat="43.60089" lon="6.30826">
        <ele>742.5</ele>
        <time>2023-12-18T14:17:44Z</time>
      </trkpt>
      <trkpt lat="43.6008" lon="6.30831">
        <ele>742.4</ele>
        <time>2023-12-18T14:17:58Z</time>
      </trkpt>
      <trkpt lat="43.60071" lon="6.30838">
        <ele>741</ele>
        <time>2023-12-18T14:18:08Z</time>
      </trkpt>
      <trkpt lat="43.60064" lon="6.30845">
        <ele>740.8</ele>
        <time>2023-12-18T14:18:18Z</time>
      </trkpt>
      <trkpt lat="43.60054" lon="6.30849">
        <ele>740.8</ele>
        <time>2023-12-18T14:18:28Z</time>
      </trkpt>
      <trkpt lat="43.60045" lon="6.3085">
        <ele>740.3</ele>
        <time>2023-12-18T14:18:39Z</time>
      </trkpt>
      <trkpt lat="43.60036" lon="6.30848">
        <ele>740.2</ele>
        <time>2023-12-18T14:18:49Z</time>
      </trkpt>
      <trkpt lat="43.60027" lon="6.30849">
        <ele>739.9</ele>
        <time>2023-12-18T14:19:03Z</time>
      </trkpt>
      <trkpt lat="43.60018" lon="6.30848">
        <ele>739.5</ele>
        <time>2023-12-18T14:19:14Z</time>
      </trkpt>
      <trkpt lat="43.6001" lon="6.30842">
        <ele>739.7</ele>
        <time>2023-12-18T14:19:24Z</time>
      </trkpt>
      <trkpt lat="43.60002" lon="6.30834">
        <ele>739.4</ele>
        <time>2023-12-18T14:19:36Z</time>
      </trkpt>
      <trkpt lat="43.59992" lon="6.30833">
        <ele>738.7</ele>
        <time>2023-12-18T14:19:44Z</time>
      </trkpt>
      <trkpt lat="43.59982" lon="6.30832">
        <ele>737</ele>
        <time>2023-12-18T14:19:55Z</time>
      </trkpt>
      <trkpt lat="43.59973" lon="6.30828">
        <ele>736.2</ele>
        <time>2023-12-18T14:20:08Z</time>
      </trkpt>
      <trkpt lat="43.59964" lon="6.30834">
        <ele>735.8</ele>
        <time>2023-12-18T14:20:17Z</time>
      </trkpt>
      <trkpt lat="43.59955" lon="6.30837">
        <ele>736.5</ele>
        <time>2023-12-18T14:20:41Z</time>
      </trkpt>
      <trkpt lat="43.59947" lon="6.30845">
        <ele>735.7</ele>
        <time>2023-12-18T14:22:48Z</time>
      </trkpt>
      <trkpt lat="43.59939" lon="6.3085">
        <ele>737.5</ele>
        <time>2023-12-18T14:23:00Z</time>
      </trkpt>
      <trkpt lat="43.5993" lon="6.30855">
        <ele>738.8</ele>
        <time>2023-12-18T14:23:13Z</time>
      </trkpt>
      <trkpt lat="43.59921" lon="6.30858">
        <ele>739.2</ele>
        <time>2023-12-18T14:23:25Z</time>
      </trkpt>
      <trkpt lat="43.59911" lon="6.30859">
        <ele>739.6</ele>
        <time>2023-12-18T14:23:35Z</time>
      </trkpt>
      <trkpt lat="43.59902" lon="6.30857">
        <ele>739.3</ele>
        <time>2023-12-18T14:23:47Z</time>
      </trkpt>
      <trkpt lat="43.59893" lon="6.30861">
        <ele>739.5</ele>
        <time>2023-12-18T14:23:56Z</time>
      </trkpt>
      <trkpt lat="43.59884" lon="6.30863">
        <ele>740.3</ele>
        <time>2023-12-18T14:24:05Z</time>
      </trkpt>
      <trkpt lat="43.59874" lon="6.30867">
        <ele>740.3</ele>
        <time>2023-12-18T14:24:15Z</time>
      </trkpt>
      <trkpt lat="43.59865" lon="6.3087">
        <ele>739</ele>
        <time>2023-12-18T14:24:27Z</time>
      </trkpt>
      <trkpt lat="43.59856" lon="6.30866">
        <ele>737.6</ele>
        <time>2023-12-18T14:25:00Z</time>
      </trkpt>
      <trkpt lat="43.59851" lon="6.30856">
        <ele>735.3</ele>
        <time>2023-12-18T14:25:15Z</time>
      </trkpt>
      <trkpt lat="43.59844" lon="6.30846">
        <ele>733.3</ele>
        <time>2023-12-18T14:25:35Z</time>
      </trkpt>
      <trkpt lat="43.59838" lon="6.30837">
        <ele>731.8</ele>
        <time>2023-12-18T14:25:46Z</time>
      </trkpt>
      <trkpt lat="43.59833" lon="6.30825">
        <ele>730.5</ele>
        <time>2023-12-18T14:26:01Z</time>
      </trkpt>
      <trkpt lat="43.59826" lon="6.30817">
        <ele>729.2</ele>
        <time>2023-12-18T14:26:20Z</time>
      </trkpt>
      <trkpt lat="43.59817" lon="6.30812">
        <ele>729.5</ele>
        <time>2023-12-18T14:26:29Z</time>
      </trkpt>
      <trkpt lat="43.59808" lon="6.30813">
        <ele>729.1</ele>
        <time>2023-12-18T14:26:39Z</time>
      </trkpt>
      <trkpt lat="43.59799" lon="6.30818">
        <ele>728.8</ele>
        <time>2023-12-18T14:26:47Z</time>
      </trkpt>
      <trkpt lat="43.5979" lon="6.30821">
        <ele>728.7</ele>
        <time>2023-12-18T14:26:56Z</time>
      </trkpt>
      <trkpt lat="43.59781" lon="6.30822">
        <ele>728.3</ele>
        <time>2023-12-18T14:27:08Z</time>
      </trkpt>
      <trkpt lat="43.59772" lon="6.30825">
        <ele>727.6</ele>
        <time>2023-12-18T14:27:21Z</time>
      </trkpt>
      <trkpt lat="43.59762" lon="6.30829">
        <ele>727.1</ele>
        <time>2023-12-18T14:27:35Z</time>
      </trkpt>
      <trkpt lat="43.59759" lon="6.30841">
        <ele>725.2</ele>
        <time>2023-12-18T14:30:15Z</time>
      </trkpt>
      <trkpt lat="43.5975" lon="6.30843">
        <ele>721.8</ele>
        <time>2023-12-18T14:30:34Z</time>
      </trkpt>
      <trkpt lat="43.59747" lon="6.30831">
        <ele>720.7</ele>
        <time>2023-12-18T14:32:20Z</time>
      </trkpt>
      <trkpt lat="43.59754" lon="6.3084">
        <ele>719.9</ele>
        <time>2023-12-18T14:32:59Z</time>
      </trkpt>
      <trkpt lat="43.59747" lon="6.30849">
        <ele>719.8</ele>
        <time>2023-12-18T14:33:25Z</time>
      </trkpt>
      <trkpt lat="43.5974" lon="6.30858">
        <ele>717.2</ele>
        <time>2023-12-18T14:33:41Z</time>
      </trkpt>
      <trkpt lat="43.59731" lon="6.30857">
        <ele>715.5</ele>
        <time>2023-12-18T14:33:55Z</time>
      </trkpt>
      <trkpt lat="43.59727" lon="6.30846">
        <ele>713.5</ele>
        <time>2023-12-18T14:34:18Z</time>
      </trkpt>
      <trkpt lat="43.59727" lon="6.30833">
        <ele>711.8</ele>
        <time>2023-12-18T14:34:37Z</time>
      </trkpt>
      <trkpt lat="43.59724" lon="6.30821">
        <ele>710.6</ele>
        <time>2023-12-18T14:34:49Z</time>
      </trkpt>
      <trkpt lat="43.59723" lon="6.30808">
        <ele>707</ele>
        <time>2023-12-18T14:35:44Z</time>
      </trkpt>
      <trkpt lat="43.59726" lon="6.30797">
        <ele>705.4</ele>
        <time>2023-12-18T14:35:57Z</time>
      </trkpt>
      <trkpt lat="43.5973" lon="6.30785">
        <ele>706.5</ele>
        <time>2023-12-18T14:36:08Z</time>
      </trkpt>
      <trkpt lat="43.59731" lon="6.30772">
        <ele>705.5</ele>
        <time>2023-12-18T14:36:25Z</time>
      </trkpt>
      <trkpt lat="43.59725" lon="6.30762">
        <ele>704.6</ele>
        <time>2023-12-18T14:36:41Z</time>
      </trkpt>
      <trkpt lat="43.59717" lon="6.30767">
        <ele>703.2</ele>
        <time>2023-12-18T14:36:57Z</time>
      </trkpt>
      <trkpt lat="43.59709" lon="6.30773">
        <ele>702.3</ele>
        <time>2023-12-18T14:37:09Z</time>
      </trkpt>
      <trkpt lat="43.597" lon="6.30773">
        <ele>699.1</ele>
        <time>2023-12-18T14:37:32Z</time>
      </trkpt>
      <trkpt lat="43.59691" lon="6.30779">
        <ele>698</ele>
        <time>2023-12-18T14:37:49Z</time>
      </trkpt>
      <trkpt lat="43.59682" lon="6.30781">
        <ele>696.9</ele>
        <time>2023-12-18T14:37:59Z</time>
      </trkpt>
      <trkpt lat="43.59673" lon="6.30782">
        <ele>696</ele>
        <time>2023-12-18T14:38:10Z</time>
      </trkpt>
      <trkpt lat="43.59665" lon="6.30775">
        <ele>697.7</ele>
        <time>2023-12-18T14:38:21Z</time>
      </trkpt>
      <trkpt lat="43.59657" lon="6.30767">
        <ele>697</ele>
        <time>2023-12-18T14:38:31Z</time>
      </trkpt>
      <trkpt lat="43.59648" lon="6.30763">
        <ele>695.4</ele>
        <time>2023-12-18T14:38:48Z</time>
      </trkpt>
      <trkpt lat="43.5964" lon="6.30757">
        <ele>694.4</ele>
        <time>2023-12-18T14:38:58Z</time>
      </trkpt>
      <trkpt lat="43.5963" lon="6.30752">
        <ele>692.8</ele>
        <time>2023-12-18T14:39:09Z</time>
      </trkpt>
      <trkpt lat="43.59621" lon="6.30748">
        <ele>690.7</ele>
        <time>2023-12-18T14:39:28Z</time>
      </trkpt>
      <trkpt lat="43.59612" lon="6.30744">
        <ele>689.2</ele>
        <time>2023-12-18T14:39:54Z</time>
      </trkpt>
      <trkpt lat="43.59603" lon="6.30739">
        <ele>687.8</ele>
        <time>2023-12-18T14:40:14Z</time>
      </trkpt>
      <trkpt lat="43.59594" lon="6.30736">
        <ele>686.9</ele>
        <time>2023-12-18T14:40:23Z</time>
      </trkpt>
      <trkpt lat="43.59585" lon="6.30735">
        <ele>685.3</ele>
        <time>2023-12-18T14:40:34Z</time>
      </trkpt>
      <trkpt lat="43.59575" lon="6.30735">
        <ele>684</ele>
        <time>2023-12-18T14:40:49Z</time>
      </trkpt>
      <trkpt lat="43.59566" lon="6.30738">
        <ele>682.5</ele>
        <time>2023-12-18T14:41:03Z</time>
      </trkpt>
      <trkpt lat="43.59558" lon="6.30747">
        <ele>681.2</ele>
        <time>2023-12-18T14:41:16Z</time>
      </trkpt>
      <trkpt lat="43.59553" lon="6.30758">
        <ele>680.5</ele>
        <time>2023-12-18T14:41:27Z</time>
      </trkpt>
      <trkpt lat="43.59551" lon="6.30771">
        <ele>679.8</ele>
        <time>2023-12-18T14:41:38Z</time>
      </trkpt>
      <trkpt lat="43.59543" lon="6.30779">
        <ele>679</ele>
        <time>2023-12-18T14:41:48Z</time>
      </trkpt>
      <trkpt lat="43.59535" lon="6.30784">
        <ele>678.3</ele>
        <time>2023-12-18T14:41:55Z</time>
      </trkpt>
      <trkpt lat="43.59525" lon="6.30786">
        <ele>677.1</ele>
        <time>2023-12-18T14:42:05Z</time>
      </trkpt>
      <trkpt lat="43.59515" lon="6.30786">
        <ele>675.9</ele>
        <time>2023-12-18T14:42:14Z</time>
      </trkpt>
      <trkpt lat="43.59505" lon="6.30786">
        <ele>674.5</ele>
        <time>2023-12-18T14:42:23Z</time>
      </trkpt>
      <trkpt lat="43.59496" lon="6.30784">
        <ele>672.9</ele>
        <time>2023-12-18T14:42:32Z</time>
      </trkpt>
      <trkpt lat="43.59489" lon="6.30775">
        <ele>671</ele>
        <time>2023-12-18T14:42:55Z</time>
      </trkpt>
      <trkpt lat="43.59484" lon="6.30763">
        <ele>670.2</ele>
        <time>2023-12-18T14:43:09Z</time>
      </trkpt>
      <trkpt lat="43.59479" lon="6.30752">
        <ele>669.1</ele>
        <time>2023-12-18T14:43:22Z</time>
      </trkpt>
      <trkpt lat="43.59474" lon="6.30741">
        <ele>668.2</ele>
        <time>2023-12-18T14:43:32Z</time>
      </trkpt>
      <trkpt lat="43.5947" lon="6.30729">
        <ele>667.5</ele>
        <time>2023-12-18T14:43:41Z</time>
      </trkpt>
      <trkpt lat="43.59466" lon="6.30717">
        <ele>666.3</ele>
        <time>2023-12-18T14:43:52Z</time>
      </trkpt>
      <trkpt lat="43.5946" lon="6.30707">
        <ele>664.8</ele>
        <time>2023-12-18T14:44:04Z</time>
      </trkpt>
      <trkpt lat="43.59456" lon="6.30695">
        <ele>664.4</ele>
        <time>2023-12-18T14:44:13Z</time>
      </trkpt>
      <trkpt lat="43.59447" lon="6.30691">
        <ele>664.1</ele>
        <time>2023-12-18T14:44:32Z</time>
      </trkpt>
      <trkpt lat="43.59438" lon="6.30696">
        <ele>663.6</ele>
        <time>2023-12-18T14:44:42Z</time>
      </trkpt>
      <trkpt lat="43.59429" lon="6.30692">
        <ele>663.3</ele>
        <time>2023-12-18T14:44:50Z</time>
      </trkpt>
      <trkpt lat="43.59419" lon="6.30688">
        <ele>662.7</ele>
        <time>2023-12-18T14:45:00Z</time>
      </trkpt>
      <trkpt lat="43.59411" lon="6.30682">
        <ele>661.7</ele>
        <time>2023-12-18T14:45:10Z</time>
      </trkpt>
      <trkpt lat="43.59402" lon="6.30676">
        <ele>660.5</ele>
        <time>2023-12-18T14:45:19Z</time>
      </trkpt>
      <trkpt lat="43.59394" lon="6.3067">
        <ele>659.6</ele>
        <time>2023-12-18T14:45:29Z</time>
      </trkpt>
      <trkpt lat="43.59388" lon="6.3066">
        <ele>659</ele>
        <time>2023-12-18T14:45:39Z</time>
      </trkpt>
      <trkpt lat="43.59393" lon="6.30649">
        <ele>658.7</ele>
        <time>2023-12-18T14:45:50Z</time>
      </trkpt>
      <trkpt lat="43.59402" lon="6.30643">
        <ele>658.6</ele>
        <time>2023-12-18T14:46:00Z</time>
      </trkpt>
      <trkpt lat="43.59409" lon="6.30636">
        <ele>658.4</ele>
        <time>2023-12-18T14:46:10Z</time>
      </trkpt>
      <trkpt lat="43.59417" lon="6.3063">
        <ele>658.5</ele>
        <time>2023-12-18T14:46:29Z</time>
      </trkpt>
      <trkpt lat="43.59426" lon="6.30624">
        <ele>658.2</ele>
        <time>2023-12-18T14:47:37Z</time>
      </trkpt>
      <trkpt lat="43.59433" lon="6.30616">
        <ele>658.3</ele>
        <time>2023-12-18T14:47:50Z</time>
      </trkpt>
      <trkpt lat="43.59433" lon="6.30603">
        <ele>658.5</ele>
        <time>2023-12-18T14:47:59Z</time>
      </trkpt>
      <trkpt lat="43.59435" lon="6.30589">
        <ele>658.6</ele>
        <time>2023-12-18T14:48:08Z</time>
      </trkpt>
      <trkpt lat="43.59436" lon="6.30576">
        <ele>658.5</ele>
        <time>2023-12-18T14:48:17Z</time>
      </trkpt>
      <trkpt lat="43.59437" lon="6.30563">
        <ele>658.3</ele>
        <time>2023-12-18T14:48:25Z</time>
      </trkpt>
      <trkpt lat="43.59438" lon="6.30551">
        <ele>658.2</ele>
        <time>2023-12-18T14:48:33Z</time>
      </trkpt>
      <trkpt lat="43.5944" lon="6.30538">
        <ele>658.2</ele>
        <time>2023-12-18T14:48:41Z</time>
      </trkpt>
      <trkpt lat="43.59441" lon="6.30526">
        <ele>658.3</ele>
        <time>2023-12-18T14:48:49Z</time>
      </trkpt>
      <trkpt lat="43.59443" lon="6.30513">
        <ele>658.4</ele>
        <time>2023-12-18T14:48:57Z</time>
      </trkpt>
      <trkpt lat="43.59446" lon="6.30501">
        <ele>658.8</ele>
        <time>2023-12-18T14:49:06Z</time>
      </trkpt>
      <trkpt lat="43.59448" lon="6.30487">
        <ele>659.3</ele>
        <time>2023-12-18T14:49:15Z</time>
      </trkpt>
      <trkpt lat="43.59451" lon="6.30474">
        <ele>659.6</ele>
        <time>2023-12-18T14:49:24Z</time>
      </trkpt>
      <trkpt lat="43.59452" lon="6.30462">
        <ele>659.7</ele>
        <time>2023-12-18T14:49:34Z</time>
      </trkpt>
      <trkpt lat="43.59452" lon="6.30448">
        <ele>659.6</ele>
        <time>2023-12-18T14:49:43Z</time>
      </trkpt>
      <trkpt lat="43.5945" lon="6.30436">
        <ele>659.3</ele>
        <time>2023-12-18T14:49:53Z</time>
      </trkpt>
      <trkpt lat="43.59449" lon="6.30423">
        <ele>658.9</ele>
        <time>2023-12-18T14:50:02Z</time>
      </trkpt>
      <trkpt lat="43.59455" lon="6.30411">
        <ele>658.6</ele>
        <time>2023-12-18T14:50:12Z</time>
      </trkpt>
      <trkpt lat="43.59459" lon="6.30404">
        <ele>658.3</ele>
        <time>2023-12-18T14:52:10Z</time>
      </trkpt>
    </trkseg>
  </trk>
</gpx>